<?xml version="1.0" encoding="UTF-8" standalone="no" ?>
<gpx xmlns="http://www.topografix.com/GPX/1/1" xmlns:xsi="http://www.w3.org/2001/XMLSchema-instance" xsi:schemaLocation="http://www.topografix.com/GPX/1/1 http://www.topografix.com/GPX/1/1/gpx.xsd" version="1.1" creator="VisuGPX - https://www.visugpx.com">
  <metadata>
    <name>Trassanel le chemin du Maquis</name>
    <desc><![CDATA[Georges Roquebernou
Partagé en mode public  -  00:55
 
Sur les chemins du maquis de Trassanel... << L'homme est fait pour la guerre >> 
Sous le soleil des vendanges, la vie est belle . La vie est suave quand on peut dormir sous les chênes verts...  à l'entrée de la grotte nous pensons aux maquisards au bout du rouleau, le jour où les signes se précipitèrent !... à la rage qui vient quand on l'appelle, et qui donne une ardeur nouvelle, aux envahisseurs, aux résistants et aux canons !...
Blog : http://vttolonzac.blogspot.fr/2014/10/trassanel.html
un moment de l’histoire de notre pays : 1939-1945 !... ils étaient là depuis longtemps !... Euh... ils sont morts le 6 août dans ce ruisseau de La Grave. Le 8 les copains attaquaient, << une chance par jour et la gloire éternelle >> - de bons soldats, pris à Trassanel où le maire Edmond Agnel vient d'être pendu. Quelques-uns reprendront leur rêve, leur chef Antoine Armagnac, ancien ouvrier de Salsigne mourut verticalement. Au-dessus de  nos têtes, un vol d'hirondelles, nous guide sur le sentier de la grotte et marque le Roc de l'Aigle pour voir l'espace et les captivités de Cabespine. Encore quelques sommets désertiques à franchir et la descente !... un retour facile, en regardant la lune qui mûrit au-dessus des collines. ]]></desc>
  </metadata>
  <trk>
    <name><![CDATA[02-OCT-14 18:08:55]]></name>
    <trkseg>
      <trkpt lat="43.34387" lon="2.43563">
        <ele>332.75</ele>
        <time>2014-10-02T12:06:34Z</time>
      </trkpt>
      <trkpt lat="43.34391" lon="2.43564">
        <ele>333.23</ele>
        <time>2014-10-02T12:06:35Z</time>
      </trkpt>
      <trkpt lat="43.34396" lon="2.43566">
        <ele>336.12</ele>
        <time>2014-10-02T12:06:41Z</time>
      </trkpt>
      <trkpt lat="43.34396" lon="2.43566">
        <ele>340.44</ele>
        <time>2014-10-02T12:06:42Z</time>
      </trkpt>
      <trkpt lat="43.34396" lon="2.43567">
        <ele>343.81</ele>
        <time>2014-10-02T12:06:43Z</time>
      </trkpt>
      <trkpt lat="43.34396" lon="2.43567">
        <ele>350.06</ele>
        <time>2014-10-02T12:06:45Z</time>
      </trkpt>
      <trkpt lat="43.34397" lon="2.43568">
        <ele>355.83</ele>
        <time>2014-10-02T12:06:47Z</time>
      </trkpt>
      <trkpt lat="43.34397" lon="2.43568">
        <ele>359.19</ele>
        <time>2014-10-02T12:06:48Z</time>
      </trkpt>
      <trkpt lat="43.34396" lon="2.4357">
        <ele>364.96</ele>
        <time>2014-10-02T12:06:50Z</time>
      </trkpt>
      <trkpt lat="43.34396" lon="2.4357">
        <ele>368.8</ele>
        <time>2014-10-02T12:06:52Z</time>
      </trkpt>
      <trkpt lat="43.34397" lon="2.43569">
        <ele>374.09</ele>
        <time>2014-10-02T12:06:54Z</time>
      </trkpt>
      <trkpt lat="43.34398" lon="2.43569">
        <ele>377.94</ele>
        <time>2014-10-02T12:06:56Z</time>
      </trkpt>
      <trkpt lat="43.34399" lon="2.43569">
        <ele>382.26</ele>
        <time>2014-10-02T12:06:58Z</time>
      </trkpt>
      <trkpt lat="43.34401" lon="2.43569">
        <ele>386.11</ele>
        <time>2014-10-02T12:07:00Z</time>
      </trkpt>
      <trkpt lat="43.34402" lon="2.43569">
        <ele>389.95</ele>
        <time>2014-10-02T12:07:02Z</time>
      </trkpt>
      <trkpt lat="43.34403" lon="2.43569">
        <ele>392.84</ele>
        <time>2014-10-02T12:07:04Z</time>
      </trkpt>
      <trkpt lat="43.34403" lon="2.43568">
        <ele>396.2</ele>
        <time>2014-10-02T12:07:06Z</time>
      </trkpt>
      <trkpt lat="43.34403" lon="2.43568">
        <ele>399.57</ele>
        <time>2014-10-02T12:07:08Z</time>
      </trkpt>
      <trkpt lat="43.34402" lon="2.43569">
        <ele>400.05</ele>
        <time>2014-10-02T12:07:09Z</time>
      </trkpt>
      <trkpt lat="43.34399" lon="2.43574">
        <ele>406.29</ele>
        <time>2014-10-02T12:07:13Z</time>
      </trkpt>
      <trkpt lat="43.34397" lon="2.43574">
        <ele>410.14</ele>
        <time>2014-10-02T12:07:16Z</time>
      </trkpt>
      <trkpt lat="43.34395" lon="2.43572">
        <ele>413.5</ele>
        <time>2014-10-02T12:07:19Z</time>
      </trkpt>
      <trkpt lat="43.34393" lon="2.4357">
        <ele>414.95</ele>
        <time>2014-10-02T12:07:22Z</time>
      </trkpt>
      <trkpt lat="43.34392" lon="2.43569">
        <ele>418.79</ele>
        <time>2014-10-02T12:07:25Z</time>
      </trkpt>
      <trkpt lat="43.34393" lon="2.4357">
        <ele>422.16</ele>
        <time>2014-10-02T12:07:29Z</time>
      </trkpt>
      <trkpt lat="43.34394" lon="2.4357">
        <ele>425.52</ele>
        <time>2014-10-02T12:07:35Z</time>
      </trkpt>
      <trkpt lat="43.34394" lon="2.43569">
        <ele>427.44</ele>
        <time>2014-10-02T12:07:38Z</time>
      </trkpt>
      <trkpt lat="43.34394" lon="2.43567">
        <ele>428.89</ele>
        <time>2014-10-02T12:07:41Z</time>
      </trkpt>
      <trkpt lat="43.34394" lon="2.43567">
        <ele>429.85</ele>
        <time>2014-10-02T12:07:42Z</time>
      </trkpt>
      <trkpt lat="43.34391" lon="2.43563">
        <ele>433.21</ele>
        <time>2014-10-02T12:07:52Z</time>
      </trkpt>
      <trkpt lat="43.34389" lon="2.43561">
        <ele>436.1</ele>
        <time>2014-10-02T12:08:03Z</time>
      </trkpt>
      <trkpt lat="43.3439" lon="2.43562">
        <ele>439.94</ele>
        <time>2014-10-02T12:08:15Z</time>
      </trkpt>
      <trkpt lat="43.34393" lon="2.43566">
        <ele>440.9</ele>
        <time>2014-10-02T12:08:26Z</time>
      </trkpt>
      <trkpt lat="43.34394" lon="2.43567">
        <ele>441.86</ele>
        <time>2014-10-02T12:08:37Z</time>
      </trkpt>
      <trkpt lat="43.34396" lon="2.43572">
        <ele>442.34</ele>
        <time>2014-10-02T12:08:44Z</time>
      </trkpt>
      <trkpt lat="43.34397" lon="2.43578">
        <ele>442.34</ele>
        <time>2014-10-02T12:08:51Z</time>
      </trkpt>
      <trkpt lat="43.34411" lon="2.43591">
        <ele>442.34</ele>
        <time>2014-10-02T12:09:00Z</time>
      </trkpt>
      <trkpt lat="43.34412" lon="2.43591">
        <ele>443.31</ele>
        <time>2014-10-02T12:09:02Z</time>
      </trkpt>
      <trkpt lat="43.34414" lon="2.43594">
        <ele>443.31</ele>
        <time>2014-10-02T12:09:12Z</time>
      </trkpt>
      <trkpt lat="43.34418" lon="2.43592">
        <ele>443.79</ele>
        <time>2014-10-02T12:09:16Z</time>
      </trkpt>
      <trkpt lat="43.34422" lon="2.43594">
        <ele>443.79</ele>
        <time>2014-10-02T12:09:24Z</time>
      </trkpt>
      <trkpt lat="43.34429" lon="2.43595">
        <ele>444.27</ele>
        <time>2014-10-02T12:09:31Z</time>
      </trkpt>
      <trkpt lat="43.34441" lon="2.43595">
        <ele>444.75</ele>
        <time>2014-10-02T12:09:47Z</time>
      </trkpt>
      <trkpt lat="43.34451" lon="2.43597">
        <ele>445.23</ele>
        <time>2014-10-02T12:09:57Z</time>
      </trkpt>
      <trkpt lat="43.3446" lon="2.43601">
        <ele>445.23</ele>
        <time>2014-10-02T12:10:07Z</time>
      </trkpt>
      <trkpt lat="43.34464" lon="2.43608">
        <ele>445.71</ele>
        <time>2014-10-02T12:10:19Z</time>
      </trkpt>
      <trkpt lat="43.34469" lon="2.43612">
        <ele>445.71</ele>
        <time>2014-10-02T12:10:24Z</time>
      </trkpt>
      <trkpt lat="43.34473" lon="2.43614">
        <ele>444.75</ele>
        <time>2014-10-02T12:10:27Z</time>
      </trkpt>
      <trkpt lat="43.34482" lon="2.43625">
        <ele>445.23</ele>
        <time>2014-10-02T12:10:36Z</time>
      </trkpt>
      <trkpt lat="43.34497" lon="2.43634">
        <ele>444.75</ele>
        <time>2014-10-02T12:10:48Z</time>
      </trkpt>
      <trkpt lat="43.34507" lon="2.43639">
        <ele>443.79</ele>
        <time>2014-10-02T12:11:01Z</time>
      </trkpt>
      <trkpt lat="43.34511" lon="2.4364">
        <ele>443.79</ele>
        <time>2014-10-02T12:11:07Z</time>
      </trkpt>
      <trkpt lat="43.3453" lon="2.4364">
        <ele>442.82</ele>
        <time>2014-10-02T12:11:22Z</time>
      </trkpt>
      <trkpt lat="43.34543" lon="2.4364">
        <ele>442.82</ele>
        <time>2014-10-02T12:11:34Z</time>
      </trkpt>
      <trkpt lat="43.34547" lon="2.4364">
        <ele>442.82</ele>
        <time>2014-10-02T12:11:36Z</time>
      </trkpt>
      <trkpt lat="43.34554" lon="2.43638">
        <ele>442.34</ele>
        <time>2014-10-02T12:11:49Z</time>
      </trkpt>
      <trkpt lat="43.34554" lon="2.43638">
        <ele>442.34</ele>
        <time>2014-10-02T12:11:51Z</time>
      </trkpt>
      <trkpt lat="43.34571" lon="2.43639">
        <ele>441.86</ele>
        <time>2014-10-02T12:12:06Z</time>
      </trkpt>
      <trkpt lat="43.34581" lon="2.43636">
        <ele>441.86</ele>
        <time>2014-10-02T12:12:19Z</time>
      </trkpt>
      <trkpt lat="43.34596" lon="2.43642">
        <ele>442.82</ele>
        <time>2014-10-02T12:12:31Z</time>
      </trkpt>
      <trkpt lat="43.34608" lon="2.43657">
        <ele>444.27</ele>
        <time>2014-10-02T12:12:44Z</time>
      </trkpt>
      <trkpt lat="43.34613" lon="2.43674">
        <ele>445.71</ele>
        <time>2014-10-02T12:12:56Z</time>
      </trkpt>
      <trkpt lat="43.3462" lon="2.43686">
        <ele>446.67</ele>
        <time>2014-10-02T12:13:08Z</time>
      </trkpt>
      <trkpt lat="43.34627" lon="2.43693">
        <ele>448.11</ele>
        <time>2014-10-02T12:13:19Z</time>
      </trkpt>
      <trkpt lat="43.34637" lon="2.43705">
        <ele>449.55</ele>
        <time>2014-10-02T12:13:31Z</time>
      </trkpt>
      <trkpt lat="43.34644" lon="2.4371">
        <ele>450.03</ele>
        <time>2014-10-02T12:13:40Z</time>
      </trkpt>
      <trkpt lat="43.34648" lon="2.43711">
        <ele>450.52</ele>
        <time>2014-10-02T12:13:44Z</time>
      </trkpt>
      <trkpt lat="43.34656" lon="2.43709">
        <ele>451.48</ele>
        <time>2014-10-02T12:13:53Z</time>
      </trkpt>
      <trkpt lat="43.34669" lon="2.43715">
        <ele>453.4</ele>
        <time>2014-10-02T12:14:07Z</time>
      </trkpt>
      <trkpt lat="43.34671" lon="2.43717">
        <ele>453.88</ele>
        <time>2014-10-02T12:14:11Z</time>
      </trkpt>
      <trkpt lat="43.34682" lon="2.43725">
        <ele>453.4</ele>
        <time>2014-10-02T12:14:24Z</time>
      </trkpt>
      <trkpt lat="43.34689" lon="2.43734">
        <ele>453.88</ele>
        <time>2014-10-02T12:14:32Z</time>
      </trkpt>
      <trkpt lat="43.34695" lon="2.43744">
        <ele>454.36</ele>
        <time>2014-10-02T12:14:40Z</time>
      </trkpt>
      <trkpt lat="43.347" lon="2.43755">
        <ele>455.8</ele>
        <time>2014-10-02T12:14:52Z</time>
      </trkpt>
      <trkpt lat="43.34702" lon="2.43745">
        <ele>456.76</ele>
        <time>2014-10-02T12:14:55Z</time>
      </trkpt>
      <trkpt lat="43.347" lon="2.43759">
        <ele>456.76</ele>
        <time>2014-10-02T12:15:07Z</time>
      </trkpt>
      <trkpt lat="43.34699" lon="2.4377">
        <ele>456.76</ele>
        <time>2014-10-02T12:15:17Z</time>
      </trkpt>
      <trkpt lat="43.34699" lon="2.43771">
        <ele>456.76</ele>
        <time>2014-10-02T12:15:18Z</time>
      </trkpt>
      <trkpt lat="43.34697" lon="2.43779">
        <ele>456.76</ele>
        <time>2014-10-02T12:15:23Z</time>
      </trkpt>
      <trkpt lat="43.34695" lon="2.43794">
        <ele>456.76</ele>
        <time>2014-10-02T12:15:32Z</time>
      </trkpt>
      <trkpt lat="43.34694" lon="2.43815">
        <ele>457.24</ele>
        <time>2014-10-02T12:15:44Z</time>
      </trkpt>
      <trkpt lat="43.34694" lon="2.43817">
        <ele>457.72</ele>
        <time>2014-10-02T12:15:45Z</time>
      </trkpt>
      <trkpt lat="43.34696" lon="2.43832">
        <ele>458.21</ele>
        <time>2014-10-02T12:15:54Z</time>
      </trkpt>
      <trkpt lat="43.34695" lon="2.43838">
        <ele>458.69</ele>
        <time>2014-10-02T12:15:57Z</time>
      </trkpt>
      <trkpt lat="43.34696" lon="2.43843">
        <ele>458.69</ele>
        <time>2014-10-02T12:16:00Z</time>
      </trkpt>
      <trkpt lat="43.34696" lon="2.43846">
        <ele>459.65</ele>
        <time>2014-10-02T12:16:02Z</time>
      </trkpt>
      <trkpt lat="43.34698" lon="2.4387">
        <ele>460.61</ele>
        <time>2014-10-02T12:16:15Z</time>
      </trkpt>
      <trkpt lat="43.34701" lon="2.43892">
        <ele>461.09</ele>
        <time>2014-10-02T12:16:28Z</time>
      </trkpt>
      <trkpt lat="43.34701" lon="2.43911">
        <ele>461.57</ele>
        <time>2014-10-02T12:16:41Z</time>
      </trkpt>
      <trkpt lat="43.34701" lon="2.43916">
        <ele>461.57</ele>
        <time>2014-10-02T12:16:45Z</time>
      </trkpt>
      <trkpt lat="43.34703" lon="2.43936">
        <ele>461.09</ele>
        <time>2014-10-02T12:17:00Z</time>
      </trkpt>
      <trkpt lat="43.34702" lon="2.43949">
        <ele>461.57</ele>
        <time>2014-10-02T12:17:12Z</time>
      </trkpt>
      <trkpt lat="43.34704" lon="2.43961">
        <ele>462.53</ele>
        <time>2014-10-02T12:17:25Z</time>
      </trkpt>
      <trkpt lat="43.34701" lon="2.43975">
        <ele>463.49</ele>
        <time>2014-10-02T12:17:36Z</time>
      </trkpt>
      <trkpt lat="43.34702" lon="2.4399">
        <ele>464.93</ele>
        <time>2014-10-02T12:17:47Z</time>
      </trkpt>
      <trkpt lat="43.34702" lon="2.43991">
        <ele>465.9</ele>
        <time>2014-10-02T12:17:48Z</time>
      </trkpt>
      <trkpt lat="43.34706" lon="2.44011">
        <ele>467.34</ele>
        <time>2014-10-02T12:18:00Z</time>
      </trkpt>
      <trkpt lat="43.34708" lon="2.44018">
        <ele>468.78</ele>
        <time>2014-10-02T12:18:05Z</time>
      </trkpt>
      <trkpt lat="43.34709" lon="2.44021">
        <ele>468.78</ele>
        <time>2014-10-02T12:18:08Z</time>
      </trkpt>
      <trkpt lat="43.34712" lon="2.44031">
        <ele>469.74</ele>
        <time>2014-10-02T12:18:14Z</time>
      </trkpt>
      <trkpt lat="43.34713" lon="2.44034">
        <ele>470.22</ele>
        <time>2014-10-02T12:18:16Z</time>
      </trkpt>
      <trkpt lat="43.34718" lon="2.44052">
        <ele>471.66</ele>
        <time>2014-10-02T12:18:27Z</time>
      </trkpt>
      <trkpt lat="43.34721" lon="2.44069">
        <ele>472.14</ele>
        <time>2014-10-02T12:18:38Z</time>
      </trkpt>
      <trkpt lat="43.34724" lon="2.44087">
        <ele>472.63</ele>
        <time>2014-10-02T12:18:50Z</time>
      </trkpt>
      <trkpt lat="43.34725" lon="2.44095">
        <ele>473.59</ele>
        <time>2014-10-02T12:18:57Z</time>
      </trkpt>
      <trkpt lat="43.34725" lon="2.44099">
        <ele>473.59</ele>
        <time>2014-10-02T12:19:00Z</time>
      </trkpt>
      <trkpt lat="43.34726" lon="2.44103">
        <ele>473.59</ele>
        <time>2014-10-02T12:19:03Z</time>
      </trkpt>
      <trkpt lat="43.34725" lon="2.44108">
        <ele>474.07</ele>
        <time>2014-10-02T12:19:06Z</time>
      </trkpt>
      <trkpt lat="43.34728" lon="2.44117">
        <ele>474.55</ele>
        <time>2014-10-02T12:19:13Z</time>
      </trkpt>
      <trkpt lat="43.34731" lon="2.44133">
        <ele>475.51</ele>
        <time>2014-10-02T12:19:27Z</time>
      </trkpt>
      <trkpt lat="43.34731" lon="2.44134">
        <ele>475.51</ele>
        <time>2014-10-02T12:19:28Z</time>
      </trkpt>
      <trkpt lat="43.34731" lon="2.44142">
        <ele>475.03</ele>
        <time>2014-10-02T12:19:35Z</time>
      </trkpt>
      <trkpt lat="43.34731" lon="2.44146">
        <ele>475.03</ele>
        <time>2014-10-02T12:19:38Z</time>
      </trkpt>
      <trkpt lat="43.34732" lon="2.4416">
        <ele>474.55</ele>
        <time>2014-10-02T12:19:49Z</time>
      </trkpt>
      <trkpt lat="43.34732" lon="2.44161">
        <ele>474.55</ele>
        <time>2014-10-02T12:19:50Z</time>
      </trkpt>
      <trkpt lat="43.34736" lon="2.44179">
        <ele>474.07</ele>
        <time>2014-10-02T12:20:01Z</time>
      </trkpt>
      <trkpt lat="43.34738" lon="2.44186">
        <ele>474.55</ele>
        <time>2014-10-02T12:20:06Z</time>
      </trkpt>
      <trkpt lat="43.34743" lon="2.44199">
        <ele>475.51</ele>
        <time>2014-10-02T12:20:15Z</time>
      </trkpt>
      <trkpt lat="43.34754" lon="2.44215">
        <ele>476.47</ele>
        <time>2014-10-02T12:20:27Z</time>
      </trkpt>
      <trkpt lat="43.34756" lon="2.44217">
        <ele>476.47</ele>
        <time>2014-10-02T12:20:30Z</time>
      </trkpt>
      <trkpt lat="43.34757" lon="2.4422">
        <ele>476.95</ele>
        <time>2014-10-02T12:20:32Z</time>
      </trkpt>
      <trkpt lat="43.34762" lon="2.44226">
        <ele>477.43</ele>
        <time>2014-10-02T12:20:36Z</time>
      </trkpt>
      <trkpt lat="43.34766" lon="2.44231">
        <ele>477.91</ele>
        <time>2014-10-02T12:20:40Z</time>
      </trkpt>
      <trkpt lat="43.34772" lon="2.44242">
        <ele>479.84</ele>
        <time>2014-10-02T12:20:51Z</time>
      </trkpt>
      <trkpt lat="43.34772" lon="2.44255">
        <ele>481.76</ele>
        <time>2014-10-02T12:21:03Z</time>
      </trkpt>
      <trkpt lat="43.34772" lon="2.44258">
        <ele>482.24</ele>
        <time>2014-10-02T12:21:18Z</time>
      </trkpt>
      <trkpt lat="43.34771" lon="2.44259">
        <ele>482.72</ele>
        <time>2014-10-02T12:21:31Z</time>
      </trkpt>
      <trkpt lat="43.34771" lon="2.4426">
        <ele>482.24</ele>
        <time>2014-10-02T12:21:33Z</time>
      </trkpt>
      <trkpt lat="43.34771" lon="2.44269">
        <ele>482.72</ele>
        <time>2014-10-02T12:21:43Z</time>
      </trkpt>
      <trkpt lat="43.34769" lon="2.44276">
        <ele>483.2</ele>
        <time>2014-10-02T12:21:49Z</time>
      </trkpt>
      <trkpt lat="43.34768" lon="2.44283">
        <ele>483.68</ele>
        <time>2014-10-02T12:21:53Z</time>
      </trkpt>
      <trkpt lat="43.34767" lon="2.44291">
        <ele>484.64</ele>
        <time>2014-10-02T12:21:58Z</time>
      </trkpt>
      <trkpt lat="43.34767" lon="2.44311">
        <ele>487.05</ele>
        <time>2014-10-02T12:22:11Z</time>
      </trkpt>
      <trkpt lat="43.34767" lon="2.44314">
        <ele>487.05</ele>
        <time>2014-10-02T12:22:13Z</time>
      </trkpt>
      <trkpt lat="43.34768" lon="2.44323">
        <ele>487.53</ele>
        <time>2014-10-02T12:22:18Z</time>
      </trkpt>
      <trkpt lat="43.3477" lon="2.44336">
        <ele>488.97</ele>
        <time>2014-10-02T12:22:27Z</time>
      </trkpt>
      <trkpt lat="43.34776" lon="2.44345">
        <ele>490.41</ele>
        <time>2014-10-02T12:22:40Z</time>
      </trkpt>
      <trkpt lat="43.34776" lon="2.44346">
        <ele>490.89</ele>
        <time>2014-10-02T12:22:42Z</time>
      </trkpt>
      <trkpt lat="43.34779" lon="2.44347">
        <ele>491.37</ele>
        <time>2014-10-02T12:22:44Z</time>
      </trkpt>
      <trkpt lat="43.34782" lon="2.44347">
        <ele>492.33</ele>
        <time>2014-10-02T12:22:47Z</time>
      </trkpt>
      <trkpt lat="43.348" lon="2.44346">
        <ele>493.77</ele>
        <time>2014-10-02T12:23:01Z</time>
      </trkpt>
      <trkpt lat="43.3481" lon="2.44342">
        <ele>493.77</ele>
        <time>2014-10-02T12:23:10Z</time>
      </trkpt>
      <trkpt lat="43.34816" lon="2.44334">
        <ele>493.77</ele>
        <time>2014-10-02T12:23:19Z</time>
      </trkpt>
      <trkpt lat="43.34818" lon="2.44332">
        <ele>493.77</ele>
        <time>2014-10-02T12:23:22Z</time>
      </trkpt>
      <trkpt lat="43.34825" lon="2.44329">
        <ele>494.26</ele>
        <time>2014-10-02T12:23:29Z</time>
      </trkpt>
      <trkpt lat="43.34832" lon="2.44324">
        <ele>493.29</ele>
        <time>2014-10-02T12:23:42Z</time>
      </trkpt>
      <trkpt lat="43.34836" lon="2.44321">
        <ele>493.77</ele>
        <time>2014-10-02T12:23:55Z</time>
      </trkpt>
      <trkpt lat="43.34836" lon="2.44322">
        <ele>493.77</ele>
        <time>2014-10-02T12:24:06Z</time>
      </trkpt>
      <trkpt lat="43.34835" lon="2.44323">
        <ele>493.77</ele>
        <time>2014-10-02T12:24:19Z</time>
      </trkpt>
      <trkpt lat="43.34837" lon="2.44324">
        <ele>493.29</ele>
        <time>2014-10-02T12:24:34Z</time>
      </trkpt>
      <trkpt lat="43.34838" lon="2.44325">
        <ele>493.29</ele>
        <time>2014-10-02T12:24:56Z</time>
      </trkpt>
      <trkpt lat="43.34838" lon="2.44325">
        <ele>492.81</ele>
        <time>2014-10-02T12:25:07Z</time>
      </trkpt>
      <trkpt lat="43.34839" lon="2.44326">
        <ele>492.33</ele>
        <time>2014-10-02T12:25:27Z</time>
      </trkpt>
      <trkpt lat="43.3484" lon="2.44327">
        <ele>492.81</ele>
        <time>2014-10-02T12:25:50Z</time>
      </trkpt>
      <trkpt lat="43.34843" lon="2.44328">
        <ele>491.85</ele>
        <time>2014-10-02T12:26:03Z</time>
      </trkpt>
      <trkpt lat="43.34847" lon="2.44331">
        <ele>491.37</ele>
        <time>2014-10-02T12:26:15Z</time>
      </trkpt>
      <trkpt lat="43.34852" lon="2.44333">
        <ele>489.93</ele>
        <time>2014-10-02T12:26:24Z</time>
      </trkpt>
      <trkpt lat="43.34857" lon="2.44331">
        <ele>488.49</ele>
        <time>2014-10-02T12:26:31Z</time>
      </trkpt>
      <trkpt lat="43.34859" lon="2.44329">
        <ele>488.01</ele>
        <time>2014-10-02T12:26:34Z</time>
      </trkpt>
      <trkpt lat="43.34862" lon="2.44328">
        <ele>488.01</ele>
        <time>2014-10-02T12:26:37Z</time>
      </trkpt>
      <trkpt lat="43.34869" lon="2.44325">
        <ele>486.08</ele>
        <time>2014-10-02T12:26:48Z</time>
      </trkpt>
      <trkpt lat="43.34873" lon="2.44317">
        <ele>483.68</ele>
        <time>2014-10-02T12:26:58Z</time>
      </trkpt>
      <trkpt lat="43.34873" lon="2.44317">
        <ele>484.16</ele>
        <time>2014-10-02T12:26:59Z</time>
      </trkpt>
      <trkpt lat="43.34879" lon="2.4431">
        <ele>481.76</ele>
        <time>2014-10-02T12:27:08Z</time>
      </trkpt>
      <trkpt lat="43.34884" lon="2.44304">
        <ele>479.84</ele>
        <time>2014-10-02T12:27:20Z</time>
      </trkpt>
      <trkpt lat="43.34883" lon="2.44301">
        <ele>478.39</ele>
        <time>2014-10-02T12:27:30Z</time>
      </trkpt>
      <trkpt lat="43.34883" lon="2.44301">
        <ele>475.51</ele>
        <time>2014-10-02T12:27:42Z</time>
      </trkpt>
      <trkpt lat="43.34882" lon="2.44311">
        <ele>474.55</ele>
        <time>2014-10-02T12:27:53Z</time>
      </trkpt>
      <trkpt lat="43.34885" lon="2.44324">
        <ele>471.66</ele>
        <time>2014-10-02T12:28:11Z</time>
      </trkpt>
      <trkpt lat="43.34896" lon="2.44332">
        <ele>468.3</ele>
        <time>2014-10-02T12:28:21Z</time>
      </trkpt>
      <trkpt lat="43.34899" lon="2.44332">
        <ele>467.34</ele>
        <time>2014-10-02T12:28:25Z</time>
      </trkpt>
      <trkpt lat="43.34906" lon="2.44325">
        <ele>464.93</ele>
        <time>2014-10-02T12:28:34Z</time>
      </trkpt>
      <trkpt lat="43.34906" lon="2.44325">
        <ele>461.57</ele>
        <time>2014-10-02T12:28:47Z</time>
      </trkpt>
      <trkpt lat="43.34911" lon="2.44332">
        <ele>459.65</ele>
        <time>2014-10-02T12:28:58Z</time>
      </trkpt>
      <trkpt lat="43.34911" lon="2.44332">
        <ele>459.65</ele>
        <time>2014-10-02T12:28:59Z</time>
      </trkpt>
      <trkpt lat="43.34917" lon="2.44328">
        <ele>457.72</ele>
        <time>2014-10-02T12:29:08Z</time>
      </trkpt>
      <trkpt lat="43.34923" lon="2.44322">
        <ele>456.28</ele>
        <time>2014-10-02T12:29:18Z</time>
      </trkpt>
      <trkpt lat="43.34924" lon="2.44322">
        <ele>456.28</ele>
        <time>2014-10-02T12:29:19Z</time>
      </trkpt>
      <trkpt lat="43.34928" lon="2.44315">
        <ele>454.84</ele>
        <time>2014-10-02T12:29:30Z</time>
      </trkpt>
      <trkpt lat="43.34929" lon="2.4431">
        <ele>455.32</ele>
        <time>2014-10-02T12:29:46Z</time>
      </trkpt>
      <trkpt lat="43.34931" lon="2.44312">
        <ele>452.44</ele>
        <time>2014-10-02T12:29:59Z</time>
      </trkpt>
      <trkpt lat="43.34936" lon="2.44313">
        <ele>449.55</ele>
        <time>2014-10-02T12:30:11Z</time>
      </trkpt>
      <trkpt lat="43.34937" lon="2.44319">
        <ele>447.15</ele>
        <time>2014-10-02T12:30:20Z</time>
      </trkpt>
      <trkpt lat="43.34937" lon="2.44322">
        <ele>446.67</ele>
        <time>2014-10-02T12:30:22Z</time>
      </trkpt>
      <trkpt lat="43.34938" lon="2.44333">
        <ele>445.23</ele>
        <time>2014-10-02T12:30:32Z</time>
      </trkpt>
      <trkpt lat="43.34942" lon="2.44335">
        <ele>443.31</ele>
        <time>2014-10-02T12:30:38Z</time>
      </trkpt>
      <trkpt lat="43.3495" lon="2.44332">
        <ele>441.38</ele>
        <time>2014-10-02T12:30:50Z</time>
      </trkpt>
      <trkpt lat="43.34953" lon="2.44329">
        <ele>439.46</ele>
        <time>2014-10-02T12:31:00Z</time>
      </trkpt>
      <trkpt lat="43.3495" lon="2.44338">
        <ele>437.06</ele>
        <time>2014-10-02T12:31:13Z</time>
      </trkpt>
      <trkpt lat="43.34951" lon="2.44347">
        <ele>434.65</ele>
        <time>2014-10-02T12:31:25Z</time>
      </trkpt>
      <trkpt lat="43.34958" lon="2.4435">
        <ele>432.73</ele>
        <time>2014-10-02T12:31:34Z</time>
      </trkpt>
      <trkpt lat="43.34959" lon="2.44351">
        <ele>432.25</ele>
        <time>2014-10-02T12:31:35Z</time>
      </trkpt>
      <trkpt lat="43.34962" lon="2.44349">
        <ele>431.77</ele>
        <time>2014-10-02T12:31:38Z</time>
      </trkpt>
      <trkpt lat="43.34971" lon="2.44344">
        <ele>430.81</ele>
        <time>2014-10-02T12:31:49Z</time>
      </trkpt>
      <trkpt lat="43.34974" lon="2.44343">
        <ele>428.4</ele>
        <time>2014-10-02T12:31:59Z</time>
      </trkpt>
      <trkpt lat="43.34978" lon="2.44343">
        <ele>426.96</ele>
        <time>2014-10-02T12:32:09Z</time>
      </trkpt>
      <trkpt lat="43.34978" lon="2.44352">
        <ele>425.04</ele>
        <time>2014-10-02T12:32:20Z</time>
      </trkpt>
      <trkpt lat="43.34985" lon="2.44357">
        <ele>422.64</ele>
        <time>2014-10-02T12:32:32Z</time>
      </trkpt>
      <trkpt lat="43.3499" lon="2.44358">
        <ele>420.23</ele>
        <time>2014-10-02T12:32:42Z</time>
      </trkpt>
      <trkpt lat="43.34994" lon="2.4436">
        <ele>419.75</ele>
        <time>2014-10-02T12:32:50Z</time>
      </trkpt>
      <trkpt lat="43.35004" lon="2.44366">
        <ele>418.79</ele>
        <time>2014-10-02T12:33:00Z</time>
      </trkpt>
      <trkpt lat="43.35016" lon="2.44365">
        <ele>416.39</ele>
        <time>2014-10-02T12:33:13Z</time>
      </trkpt>
      <trkpt lat="43.35021" lon="2.44367">
        <ele>415.43</ele>
        <time>2014-10-02T12:33:24Z</time>
      </trkpt>
      <trkpt lat="43.35025" lon="2.4437">
        <ele>413.98</ele>
        <time>2014-10-02T12:33:36Z</time>
      </trkpt>
      <trkpt lat="43.3503" lon="2.44368">
        <ele>413.5</ele>
        <time>2014-10-02T12:33:45Z</time>
      </trkpt>
      <trkpt lat="43.35033" lon="2.44367">
        <ele>412.06</ele>
        <time>2014-10-02T12:33:55Z</time>
      </trkpt>
      <trkpt lat="43.35041" lon="2.44364">
        <ele>409.66</ele>
        <time>2014-10-02T12:34:07Z</time>
      </trkpt>
      <trkpt lat="43.35042" lon="2.44364">
        <ele>410.14</ele>
        <time>2014-10-02T12:34:09Z</time>
      </trkpt>
      <trkpt lat="43.35048" lon="2.44358">
        <ele>408.22</ele>
        <time>2014-10-02T12:34:19Z</time>
      </trkpt>
      <trkpt lat="43.35055" lon="2.44357">
        <ele>407.26</ele>
        <time>2014-10-02T12:34:28Z</time>
      </trkpt>
      <trkpt lat="43.35061" lon="2.44355">
        <ele>406.29</ele>
        <time>2014-10-02T12:34:33Z</time>
      </trkpt>
      <trkpt lat="43.35062" lon="2.4435">
        <ele>406.29</ele>
        <time>2014-10-02T12:34:37Z</time>
      </trkpt>
      <trkpt lat="43.35066" lon="2.44347">
        <ele>405.33</ele>
        <time>2014-10-02T12:34:41Z</time>
      </trkpt>
      <trkpt lat="43.35067" lon="2.44347">
        <ele>405.33</ele>
        <time>2014-10-02T12:34:42Z</time>
      </trkpt>
      <trkpt lat="43.3507" lon="2.44347">
        <ele>404.85</ele>
        <time>2014-10-02T12:34:44Z</time>
      </trkpt>
      <trkpt lat="43.35077" lon="2.44346">
        <ele>404.37</ele>
        <time>2014-10-02T12:34:51Z</time>
      </trkpt>
      <trkpt lat="43.35083" lon="2.44351">
        <ele>401.97</ele>
        <time>2014-10-02T12:35:01Z</time>
      </trkpt>
      <trkpt lat="43.35086" lon="2.44351">
        <ele>401.01</ele>
        <time>2014-10-02T12:35:15Z</time>
      </trkpt>
      <trkpt lat="43.35088" lon="2.4435">
        <ele>402.93</ele>
        <time>2014-10-02T12:35:23Z</time>
      </trkpt>
      <trkpt lat="43.35084" lon="2.44356">
        <ele>404.85</ele>
        <time>2014-10-02T12:35:34Z</time>
      </trkpt>
      <trkpt lat="43.35083" lon="2.44357">
        <ele>404.85</ele>
        <time>2014-10-02T12:35:36Z</time>
      </trkpt>
      <trkpt lat="43.3508" lon="2.44362">
        <ele>406.77</ele>
        <time>2014-10-02T12:35:47Z</time>
      </trkpt>
      <trkpt lat="43.35077" lon="2.44372">
        <ele>408.7</ele>
        <time>2014-10-02T12:35:59Z</time>
      </trkpt>
      <trkpt lat="43.35077" lon="2.44375">
        <ele>409.66</ele>
        <time>2014-10-02T12:36:04Z</time>
      </trkpt>
      <trkpt lat="43.35074" lon="2.44385">
        <ele>411.58</ele>
        <time>2014-10-02T12:36:15Z</time>
      </trkpt>
      <trkpt lat="43.35079" lon="2.44406">
        <ele>414.47</ele>
        <time>2014-10-02T12:36:26Z</time>
      </trkpt>
      <trkpt lat="43.35078" lon="2.4442">
        <ele>415.43</ele>
        <time>2014-10-02T12:36:38Z</time>
      </trkpt>
      <trkpt lat="43.35074" lon="2.44433">
        <ele>416.87</ele>
        <time>2014-10-02T12:36:47Z</time>
      </trkpt>
      <trkpt lat="43.3507" lon="2.44439">
        <ele>416.87</ele>
        <time>2014-10-02T12:36:53Z</time>
      </trkpt>
      <trkpt lat="43.35068" lon="2.44447">
        <ele>417.83</ele>
        <time>2014-10-02T12:37:02Z</time>
      </trkpt>
      <trkpt lat="43.35068" lon="2.44449">
        <ele>417.83</ele>
        <time>2014-10-02T12:37:04Z</time>
      </trkpt>
      <trkpt lat="43.35066" lon="2.44462">
        <ele>418.31</ele>
        <time>2014-10-02T12:37:12Z</time>
      </trkpt>
      <trkpt lat="43.35064" lon="2.44479">
        <ele>420.23</ele>
        <time>2014-10-02T12:37:25Z</time>
      </trkpt>
      <trkpt lat="43.35062" lon="2.44491">
        <ele>422.16</ele>
        <time>2014-10-02T12:37:36Z</time>
      </trkpt>
      <trkpt lat="43.35063" lon="2.44505">
        <ele>423.12</ele>
        <time>2014-10-02T12:37:47Z</time>
      </trkpt>
      <trkpt lat="43.35063" lon="2.44508">
        <ele>423.6</ele>
        <time>2014-10-02T12:37:49Z</time>
      </trkpt>
      <trkpt lat="43.3506" lon="2.44524">
        <ele>425.04</ele>
        <time>2014-10-02T12:38:02Z</time>
      </trkpt>
      <trkpt lat="43.35061" lon="2.44526">
        <ele>425.04</ele>
        <time>2014-10-02T12:38:04Z</time>
      </trkpt>
      <trkpt lat="43.35067" lon="2.44544">
        <ele>426</ele>
        <time>2014-10-02T12:38:17Z</time>
      </trkpt>
      <trkpt lat="43.3507" lon="2.44558">
        <ele>426.48</ele>
        <time>2014-10-02T12:38:27Z</time>
      </trkpt>
      <trkpt lat="43.35074" lon="2.44571">
        <ele>426.48</ele>
        <time>2014-10-02T12:38:39Z</time>
      </trkpt>
      <trkpt lat="43.35074" lon="2.44573">
        <ele>426.96</ele>
        <time>2014-10-02T12:38:41Z</time>
      </trkpt>
      <trkpt lat="43.3508" lon="2.4459">
        <ele>426.96</ele>
        <time>2014-10-02T12:38:53Z</time>
      </trkpt>
      <trkpt lat="43.35087" lon="2.44608">
        <ele>428.89</ele>
        <time>2014-10-02T12:39:06Z</time>
      </trkpt>
      <trkpt lat="43.35092" lon="2.44615">
        <ele>430.33</ele>
        <time>2014-10-02T12:39:16Z</time>
      </trkpt>
      <trkpt lat="43.35094" lon="2.44622">
        <ele>431.77</ele>
        <time>2014-10-02T12:39:26Z</time>
      </trkpt>
      <trkpt lat="43.35094" lon="2.44628">
        <ele>432.25</ele>
        <time>2014-10-02T12:39:40Z</time>
      </trkpt>
      <trkpt lat="43.35095" lon="2.44634">
        <ele>434.65</ele>
        <time>2014-10-02T12:39:51Z</time>
      </trkpt>
      <trkpt lat="43.35097" lon="2.44645">
        <ele>435.13</ele>
        <time>2014-10-02T12:40:01Z</time>
      </trkpt>
      <trkpt lat="43.35097" lon="2.44662">
        <ele>436.58</ele>
        <time>2014-10-02T12:40:13Z</time>
      </trkpt>
      <trkpt lat="43.35099" lon="2.44675">
        <ele>437.06</ele>
        <time>2014-10-02T12:40:22Z</time>
      </trkpt>
      <trkpt lat="43.35101" lon="2.44689">
        <ele>438.02</ele>
        <time>2014-10-02T12:40:31Z</time>
      </trkpt>
      <trkpt lat="43.35101" lon="2.44693">
        <ele>438.02</ele>
        <time>2014-10-02T12:40:33Z</time>
      </trkpt>
      <trkpt lat="43.35103" lon="2.44709">
        <ele>439.46</ele>
        <time>2014-10-02T12:40:45Z</time>
      </trkpt>
      <trkpt lat="43.35103" lon="2.44725">
        <ele>441.86</ele>
        <time>2014-10-02T12:40:58Z</time>
      </trkpt>
      <trkpt lat="43.35103" lon="2.44728">
        <ele>442.34</ele>
        <time>2014-10-02T12:41:00Z</time>
      </trkpt>
      <trkpt lat="43.35106" lon="2.44739">
        <ele>442.82</ele>
        <time>2014-10-02T12:41:07Z</time>
      </trkpt>
      <trkpt lat="43.35106" lon="2.44743">
        <ele>442.82</ele>
        <time>2014-10-02T12:41:09Z</time>
      </trkpt>
      <trkpt lat="43.3511" lon="2.44761">
        <ele>443.79</ele>
        <time>2014-10-02T12:41:21Z</time>
      </trkpt>
      <trkpt lat="43.3511" lon="2.44775">
        <ele>445.23</ele>
        <time>2014-10-02T12:41:32Z</time>
      </trkpt>
      <trkpt lat="43.35113" lon="2.44784">
        <ele>447.63</ele>
        <time>2014-10-02T12:41:43Z</time>
      </trkpt>
      <trkpt lat="43.35115" lon="2.44796">
        <ele>448.59</ele>
        <time>2014-10-02T12:41:55Z</time>
      </trkpt>
      <trkpt lat="43.35112" lon="2.4481">
        <ele>450.03</ele>
        <time>2014-10-02T12:42:07Z</time>
      </trkpt>
      <trkpt lat="43.35117" lon="2.44824">
        <ele>451.96</ele>
        <time>2014-10-02T12:42:21Z</time>
      </trkpt>
      <trkpt lat="43.35122" lon="2.44828">
        <ele>452.44</ele>
        <time>2014-10-02T12:42:29Z</time>
      </trkpt>
      <trkpt lat="43.35134" lon="2.44837">
        <ele>453.4</ele>
        <time>2014-10-02T12:42:43Z</time>
      </trkpt>
      <trkpt lat="43.35146" lon="2.44841">
        <ele>455.32</ele>
        <time>2014-10-02T12:42:55Z</time>
      </trkpt>
      <trkpt lat="43.35147" lon="2.44841">
        <ele>455.32</ele>
        <time>2014-10-02T12:42:56Z</time>
      </trkpt>
      <trkpt lat="43.35155" lon="2.44847">
        <ele>454.84</ele>
        <time>2014-10-02T12:43:10Z</time>
      </trkpt>
      <trkpt lat="43.35162" lon="2.44854">
        <ele>455.8</ele>
        <time>2014-10-02T12:43:21Z</time>
      </trkpt>
      <trkpt lat="43.35168" lon="2.44854">
        <ele>455.8</ele>
        <time>2014-10-02T12:43:30Z</time>
      </trkpt>
      <trkpt lat="43.35169" lon="2.44856">
        <ele>456.28</ele>
        <time>2014-10-02T12:43:41Z</time>
      </trkpt>
      <trkpt lat="43.3517" lon="2.44856">
        <ele>455.32</ele>
        <time>2014-10-02T12:43:58Z</time>
      </trkpt>
      <trkpt lat="43.35172" lon="2.44857">
        <ele>455.32</ele>
        <time>2014-10-02T12:44:14Z</time>
      </trkpt>
      <trkpt lat="43.35177" lon="2.4487">
        <ele>454.84</ele>
        <time>2014-10-02T12:44:26Z</time>
      </trkpt>
      <trkpt lat="43.35184" lon="2.44877">
        <ele>454.84</ele>
        <time>2014-10-02T12:44:45Z</time>
      </trkpt>
      <trkpt lat="43.35184" lon="2.44876">
        <ele>454.36</ele>
        <time>2014-10-02T12:45:02Z</time>
      </trkpt>
      <trkpt lat="43.35185" lon="2.44872">
        <ele>451.48</ele>
        <time>2014-10-02T12:45:16Z</time>
      </trkpt>
      <trkpt lat="43.35181" lon="2.4487">
        <ele>450.03</ele>
        <time>2014-10-02T12:45:27Z</time>
      </trkpt>
      <trkpt lat="43.3518" lon="2.44874">
        <ele>446.67</ele>
        <time>2014-10-02T12:45:39Z</time>
      </trkpt>
      <trkpt lat="43.35179" lon="2.44876">
        <ele>444.27</ele>
        <time>2014-10-02T12:45:49Z</time>
      </trkpt>
      <trkpt lat="43.35178" lon="2.4488">
        <ele>441.38</ele>
        <time>2014-10-02T12:46:03Z</time>
      </trkpt>
      <trkpt lat="43.35177" lon="2.44883">
        <ele>439.94</ele>
        <time>2014-10-02T12:46:14Z</time>
      </trkpt>
      <trkpt lat="43.35176" lon="2.44886">
        <ele>438.98</ele>
        <time>2014-10-02T12:46:18Z</time>
      </trkpt>
      <trkpt lat="43.35176" lon="2.44891">
        <ele>437.06</ele>
        <time>2014-10-02T12:46:31Z</time>
      </trkpt>
      <trkpt lat="43.35175" lon="2.44897">
        <ele>435.13</ele>
        <time>2014-10-02T12:46:41Z</time>
      </trkpt>
      <trkpt lat="43.3518" lon="2.44906">
        <ele>432.73</ele>
        <time>2014-10-02T12:46:49Z</time>
      </trkpt>
      <trkpt lat="43.35185" lon="2.44919">
        <ele>430.33</ele>
        <time>2014-10-02T12:47:02Z</time>
      </trkpt>
      <trkpt lat="43.35186" lon="2.44922">
        <ele>428.4</ele>
        <time>2014-10-02T12:47:12Z</time>
      </trkpt>
      <trkpt lat="43.3519" lon="2.44935">
        <ele>426</ele>
        <time>2014-10-02T12:47:23Z</time>
      </trkpt>
      <trkpt lat="43.35192" lon="2.4494">
        <ele>425.52</ele>
        <time>2014-10-02T12:47:37Z</time>
      </trkpt>
      <trkpt lat="43.35193" lon="2.44941">
        <ele>426</ele>
        <time>2014-10-02T12:47:43Z</time>
      </trkpt>
      <trkpt lat="43.35198" lon="2.44947">
        <ele>423.12</ele>
        <time>2014-10-02T12:47:49Z</time>
      </trkpt>
      <trkpt lat="43.35197" lon="2.4495">
        <ele>422.64</ele>
        <time>2014-10-02T12:47:52Z</time>
      </trkpt>
      <trkpt lat="43.35199" lon="2.44965">
        <ele>421.68</ele>
        <time>2014-10-02T12:48:00Z</time>
      </trkpt>
      <trkpt lat="43.35201" lon="2.4497">
        <ele>422.64</ele>
        <time>2014-10-02T12:48:04Z</time>
      </trkpt>
      <trkpt lat="43.35204" lon="2.44977">
        <ele>426</ele>
        <time>2014-10-02T12:48:17Z</time>
      </trkpt>
      <trkpt lat="43.35206" lon="2.44981">
        <ele>428.89</ele>
        <time>2014-10-02T12:48:28Z</time>
      </trkpt>
      <trkpt lat="43.35208" lon="2.44985">
        <ele>430.81</ele>
        <time>2014-10-02T12:48:38Z</time>
      </trkpt>
      <trkpt lat="43.35208" lon="2.44988">
        <ele>433.21</ele>
        <time>2014-10-02T12:48:49Z</time>
      </trkpt>
      <trkpt lat="43.35207" lon="2.44993">
        <ele>436.58</ele>
        <time>2014-10-02T12:49:00Z</time>
      </trkpt>
      <trkpt lat="43.35206" lon="2.44997">
        <ele>438.98</ele>
        <time>2014-10-02T12:49:11Z</time>
      </trkpt>
      <trkpt lat="43.35205" lon="2.44997">
        <ele>441.38</ele>
        <time>2014-10-02T12:49:23Z</time>
      </trkpt>
      <trkpt lat="43.35206" lon="2.44997">
        <ele>442.82</ele>
        <time>2014-10-02T12:49:34Z</time>
      </trkpt>
      <trkpt lat="43.35202" lon="2.45003">
        <ele>443.31</ele>
        <time>2014-10-02T12:49:46Z</time>
      </trkpt>
      <trkpt lat="43.35201" lon="2.45006">
        <ele>443.79</ele>
        <time>2014-10-02T12:49:57Z</time>
      </trkpt>
      <trkpt lat="43.352" lon="2.45009">
        <ele>445.23</ele>
        <time>2014-10-02T12:50:07Z</time>
      </trkpt>
      <trkpt lat="43.35198" lon="2.45014">
        <ele>448.11</ele>
        <time>2014-10-02T12:50:17Z</time>
      </trkpt>
      <trkpt lat="43.35198" lon="2.4502">
        <ele>449.55</ele>
        <time>2014-10-02T12:50:27Z</time>
      </trkpt>
      <trkpt lat="43.35199" lon="2.45029">
        <ele>451</ele>
        <time>2014-10-02T12:50:40Z</time>
      </trkpt>
      <trkpt lat="43.352" lon="2.45032">
        <ele>453.4</ele>
        <time>2014-10-02T12:50:52Z</time>
      </trkpt>
      <trkpt lat="43.352" lon="2.45039">
        <ele>456.28</ele>
        <time>2014-10-02T12:51:05Z</time>
      </trkpt>
      <trkpt lat="43.35202" lon="2.45047">
        <ele>458.21</ele>
        <time>2014-10-02T12:51:17Z</time>
      </trkpt>
      <trkpt lat="43.35203" lon="2.4505">
        <ele>459.17</ele>
        <time>2014-10-02T12:51:35Z</time>
      </trkpt>
      <trkpt lat="43.35203" lon="2.45052">
        <ele>460.61</ele>
        <time>2014-10-02T12:51:56Z</time>
      </trkpt>
      <trkpt lat="43.35203" lon="2.45054">
        <ele>460.61</ele>
        <time>2014-10-02T12:52:18Z</time>
      </trkpt>
      <trkpt lat="43.35203" lon="2.45057">
        <ele>461.57</ele>
        <time>2014-10-02T12:52:32Z</time>
      </trkpt>
      <trkpt lat="43.35203" lon="2.4506">
        <ele>462.05</ele>
        <time>2014-10-02T12:52:53Z</time>
      </trkpt>
      <trkpt lat="43.35205" lon="2.45066">
        <ele>463.49</ele>
        <time>2014-10-02T12:53:05Z</time>
      </trkpt>
      <trkpt lat="43.35204" lon="2.45073">
        <ele>465.42</ele>
        <time>2014-10-02T12:53:16Z</time>
      </trkpt>
      <trkpt lat="43.35204" lon="2.45079">
        <ele>467.34</ele>
        <time>2014-10-02T12:53:27Z</time>
      </trkpt>
      <trkpt lat="43.35203" lon="2.45082">
        <ele>469.74</ele>
        <time>2014-10-02T12:53:38Z</time>
      </trkpt>
      <trkpt lat="43.35203" lon="2.45081">
        <ele>470.22</ele>
        <time>2014-10-02T12:53:57Z</time>
      </trkpt>
      <trkpt lat="43.35205" lon="2.45086">
        <ele>471.66</ele>
        <time>2014-10-02T12:54:09Z</time>
      </trkpt>
      <trkpt lat="43.35203" lon="2.4509">
        <ele>474.07</ele>
        <time>2014-10-02T12:54:20Z</time>
      </trkpt>
      <trkpt lat="43.352" lon="2.45096">
        <ele>476.95</ele>
        <time>2014-10-02T12:54:32Z</time>
      </trkpt>
      <trkpt lat="43.35198" lon="2.45104">
        <ele>478.87</ele>
        <time>2014-10-02T12:54:43Z</time>
      </trkpt>
      <trkpt lat="43.35197" lon="2.45107">
        <ele>479.35</ele>
        <time>2014-10-02T12:55:01Z</time>
      </trkpt>
      <trkpt lat="43.35195" lon="2.45115">
        <ele>481.76</ele>
        <time>2014-10-02T12:55:12Z</time>
      </trkpt>
      <trkpt lat="43.35196" lon="2.45122">
        <ele>483.68</ele>
        <time>2014-10-02T12:55:21Z</time>
      </trkpt>
      <trkpt lat="43.35193" lon="2.45131">
        <ele>486.08</ele>
        <time>2014-10-02T12:55:34Z</time>
      </trkpt>
      <trkpt lat="43.35195" lon="2.45134">
        <ele>487.05</ele>
        <time>2014-10-02T12:55:45Z</time>
      </trkpt>
      <trkpt lat="43.35194" lon="2.45139">
        <ele>488.01</ele>
        <time>2014-10-02T12:56:01Z</time>
      </trkpt>
      <trkpt lat="43.35195" lon="2.45142">
        <ele>488.97</ele>
        <time>2014-10-02T12:56:16Z</time>
      </trkpt>
      <trkpt lat="43.35196" lon="2.45147">
        <ele>490.41</ele>
        <time>2014-10-02T12:56:23Z</time>
      </trkpt>
      <trkpt lat="43.35202" lon="2.45149">
        <ele>492.33</ele>
        <time>2014-10-02T12:56:35Z</time>
      </trkpt>
      <trkpt lat="43.35203" lon="2.45149">
        <ele>492.81</ele>
        <time>2014-10-02T12:56:37Z</time>
      </trkpt>
      <trkpt lat="43.35207" lon="2.45151">
        <ele>493.77</ele>
        <time>2014-10-02T12:56:52Z</time>
      </trkpt>
      <trkpt lat="43.35209" lon="2.45156">
        <ele>494.26</ele>
        <time>2014-10-02T12:57:08Z</time>
      </trkpt>
      <trkpt lat="43.35209" lon="2.45156">
        <ele>494.74</ele>
        <time>2014-10-02T12:57:12Z</time>
      </trkpt>
      <trkpt lat="43.35216" lon="2.4516">
        <ele>496.18</ele>
        <time>2014-10-02T12:57:21Z</time>
      </trkpt>
      <trkpt lat="43.35224" lon="2.4516">
        <ele>497.14</ele>
        <time>2014-10-02T12:57:33Z</time>
      </trkpt>
      <trkpt lat="43.35228" lon="2.45168">
        <ele>499.54</ele>
        <time>2014-10-02T12:57:45Z</time>
      </trkpt>
      <trkpt lat="43.35233" lon="2.45173">
        <ele>501.46</ele>
        <time>2014-10-02T12:57:55Z</time>
      </trkpt>
      <trkpt lat="43.35234" lon="2.45174">
        <ele>501.46</ele>
        <time>2014-10-02T12:58:08Z</time>
      </trkpt>
      <trkpt lat="43.35237" lon="2.45175">
        <ele>501.95</ele>
        <time>2014-10-02T12:58:24Z</time>
      </trkpt>
      <trkpt lat="43.35247" lon="2.4518">
        <ele>502.91</ele>
        <time>2014-10-02T12:58:37Z</time>
      </trkpt>
      <trkpt lat="43.35254" lon="2.45184">
        <ele>504.83</ele>
        <time>2014-10-02T12:58:49Z</time>
      </trkpt>
      <trkpt lat="43.3526" lon="2.45184">
        <ele>507.23</ele>
        <time>2014-10-02T12:59:03Z</time>
      </trkpt>
      <trkpt lat="43.35263" lon="2.45187">
        <ele>509.64</ele>
        <time>2014-10-02T12:59:16Z</time>
      </trkpt>
      <trkpt lat="43.3527" lon="2.45191">
        <ele>511.56</ele>
        <time>2014-10-02T12:59:28Z</time>
      </trkpt>
      <trkpt lat="43.35276" lon="2.45196">
        <ele>513.96</ele>
        <time>2014-10-02T12:59:40Z</time>
      </trkpt>
      <trkpt lat="43.35284" lon="2.45199">
        <ele>515.4</ele>
        <time>2014-10-02T12:59:49Z</time>
      </trkpt>
      <trkpt lat="43.35293" lon="2.452">
        <ele>517.33</ele>
        <time>2014-10-02T13:00:03Z</time>
      </trkpt>
      <trkpt lat="43.353" lon="2.45202">
        <ele>519.73</ele>
        <time>2014-10-02T13:00:18Z</time>
      </trkpt>
      <trkpt lat="43.35301" lon="2.45206">
        <ele>521.65</ele>
        <time>2014-10-02T13:00:31Z</time>
      </trkpt>
      <trkpt lat="43.35308" lon="2.45211">
        <ele>523.58</ele>
        <time>2014-10-02T13:00:43Z</time>
      </trkpt>
      <trkpt lat="43.35311" lon="2.4521">
        <ele>525.02</ele>
        <time>2014-10-02T13:00:56Z</time>
      </trkpt>
      <trkpt lat="43.35316" lon="2.45205">
        <ele>525.98</ele>
        <time>2014-10-02T13:01:07Z</time>
      </trkpt>
      <trkpt lat="43.35325" lon="2.45202">
        <ele>527.9</ele>
        <time>2014-10-02T13:01:21Z</time>
      </trkpt>
      <trkpt lat="43.35329" lon="2.45202">
        <ele>528.86</ele>
        <time>2014-10-02T13:01:29Z</time>
      </trkpt>
      <trkpt lat="43.35332" lon="2.45203">
        <ele>531.75</ele>
        <time>2014-10-02T13:01:41Z</time>
      </trkpt>
      <trkpt lat="43.35343" lon="2.4521">
        <ele>532.71</ele>
        <time>2014-10-02T13:01:54Z</time>
      </trkpt>
      <trkpt lat="43.35352" lon="2.45217">
        <ele>535.11</ele>
        <time>2014-10-02T13:02:07Z</time>
      </trkpt>
      <trkpt lat="43.35357" lon="2.45226">
        <ele>537.51</ele>
        <time>2014-10-02T13:02:20Z</time>
      </trkpt>
      <trkpt lat="43.35364" lon="2.45235">
        <ele>538.96</ele>
        <time>2014-10-02T13:02:33Z</time>
      </trkpt>
      <trkpt lat="43.35371" lon="2.4524">
        <ele>540.88</ele>
        <time>2014-10-02T13:02:44Z</time>
      </trkpt>
      <trkpt lat="43.35376" lon="2.45245">
        <ele>541.84</ele>
        <time>2014-10-02T13:02:55Z</time>
      </trkpt>
      <trkpt lat="43.3538" lon="2.45248">
        <ele>542.8</ele>
        <time>2014-10-02T13:03:01Z</time>
      </trkpt>
      <trkpt lat="43.35386" lon="2.45252">
        <ele>543.28</ele>
        <time>2014-10-02T13:03:13Z</time>
      </trkpt>
      <trkpt lat="43.35393" lon="2.45257">
        <ele>543.76</ele>
        <time>2014-10-02T13:03:21Z</time>
      </trkpt>
      <trkpt lat="43.35398" lon="2.4526">
        <ele>543.76</ele>
        <time>2014-10-02T13:03:26Z</time>
      </trkpt>
      <trkpt lat="43.35409" lon="2.45264">
        <ele>544.72</ele>
        <time>2014-10-02T13:03:38Z</time>
      </trkpt>
      <trkpt lat="43.35417" lon="2.45269">
        <ele>545.2</ele>
        <time>2014-10-02T13:03:48Z</time>
      </trkpt>
      <trkpt lat="43.35428" lon="2.45268">
        <ele>547.13</ele>
        <time>2014-10-02T13:04:00Z</time>
      </trkpt>
      <trkpt lat="43.35439" lon="2.45266">
        <ele>548.57</ele>
        <time>2014-10-02T13:04:14Z</time>
      </trkpt>
      <trkpt lat="43.35443" lon="2.45274">
        <ele>550.01</ele>
        <time>2014-10-02T13:04:26Z</time>
      </trkpt>
      <trkpt lat="43.3545" lon="2.45279">
        <ele>551.45</ele>
        <time>2014-10-02T13:04:37Z</time>
      </trkpt>
      <trkpt lat="43.35457" lon="2.45279">
        <ele>554.34</ele>
        <time>2014-10-02T13:04:48Z</time>
      </trkpt>
      <trkpt lat="43.35463" lon="2.4528">
        <ele>555.3</ele>
        <time>2014-10-02T13:04:59Z</time>
      </trkpt>
      <trkpt lat="43.35467" lon="2.45281">
        <ele>556.26</ele>
        <time>2014-10-02T13:05:09Z</time>
      </trkpt>
      <trkpt lat="43.35472" lon="2.45283">
        <ele>558.66</ele>
        <time>2014-10-02T13:05:22Z</time>
      </trkpt>
      <trkpt lat="43.35479" lon="2.45285">
        <ele>559.62</ele>
        <time>2014-10-02T13:05:33Z</time>
      </trkpt>
      <trkpt lat="43.35488" lon="2.45284">
        <ele>561.55</ele>
        <time>2014-10-02T13:05:46Z</time>
      </trkpt>
      <trkpt lat="43.35494" lon="2.4529">
        <ele>563.47</ele>
        <time>2014-10-02T13:05:57Z</time>
      </trkpt>
      <trkpt lat="43.35496" lon="2.45293">
        <ele>563.47</ele>
        <time>2014-10-02T13:06:01Z</time>
      </trkpt>
      <trkpt lat="43.35499" lon="2.45298">
        <ele>563.47</ele>
        <time>2014-10-02T13:06:06Z</time>
      </trkpt>
      <trkpt lat="43.35504" lon="2.45309">
        <ele>564.91</ele>
        <time>2014-10-02T13:06:18Z</time>
      </trkpt>
      <trkpt lat="43.35506" lon="2.45316">
        <ele>563.95</ele>
        <time>2014-10-02T13:06:26Z</time>
      </trkpt>
      <trkpt lat="43.35513" lon="2.45327">
        <ele>563.95</ele>
        <time>2014-10-02T13:06:38Z</time>
      </trkpt>
      <trkpt lat="43.35519" lon="2.45328">
        <ele>564.43</ele>
        <time>2014-10-02T13:06:51Z</time>
      </trkpt>
      <trkpt lat="43.35519" lon="2.45325">
        <ele>564.43</ele>
        <time>2014-10-02T13:07:01Z</time>
      </trkpt>
      <trkpt lat="43.35526" lon="2.45331">
        <ele>565.39</ele>
        <time>2014-10-02T13:07:13Z</time>
      </trkpt>
      <trkpt lat="43.35528" lon="2.45331">
        <ele>564.43</ele>
        <time>2014-10-02T13:07:28Z</time>
      </trkpt>
      <trkpt lat="43.35528" lon="2.45332">
        <ele>564.43</ele>
        <time>2014-10-02T13:07:53Z</time>
      </trkpt>
      <trkpt lat="43.35528" lon="2.45338">
        <ele>564.43</ele>
        <time>2014-10-02T13:08:04Z</time>
      </trkpt>
      <trkpt lat="43.35527" lon="2.45341">
        <ele>563.95</ele>
        <time>2014-10-02T13:08:07Z</time>
      </trkpt>
      <trkpt lat="43.35526" lon="2.45346">
        <ele>563.95</ele>
        <time>2014-10-02T13:08:13Z</time>
      </trkpt>
      <trkpt lat="43.35524" lon="2.45357">
        <ele>564.43</ele>
        <time>2014-10-02T13:08:24Z</time>
      </trkpt>
      <trkpt lat="43.35522" lon="2.4536">
        <ele>563.95</ele>
        <time>2014-10-02T13:08:38Z</time>
      </trkpt>
      <trkpt lat="43.35523" lon="2.45362">
        <ele>564.43</ele>
        <time>2014-10-02T13:08:54Z</time>
      </trkpt>
      <trkpt lat="43.35522" lon="2.45365">
        <ele>564.91</ele>
        <time>2014-10-02T13:08:57Z</time>
      </trkpt>
      <trkpt lat="43.35522" lon="2.45367">
        <ele>564.43</ele>
        <time>2014-10-02T13:08:59Z</time>
      </trkpt>
      <trkpt lat="43.35521" lon="2.45376">
        <ele>563.47</ele>
        <time>2014-10-02T13:09:07Z</time>
      </trkpt>
      <trkpt lat="43.35519" lon="2.45382">
        <ele>563.95</ele>
        <time>2014-10-02T13:09:12Z</time>
      </trkpt>
      <trkpt lat="43.3552" lon="2.4539">
        <ele>562.99</ele>
        <time>2014-10-02T13:09:24Z</time>
      </trkpt>
      <trkpt lat="43.3552" lon="2.45393">
        <ele>562.99</ele>
        <time>2014-10-02T13:09:26Z</time>
      </trkpt>
      <trkpt lat="43.35513" lon="2.45409">
        <ele>561.55</ele>
        <time>2014-10-02T13:09:38Z</time>
      </trkpt>
      <trkpt lat="43.35509" lon="2.45417">
        <ele>560.59</ele>
        <time>2014-10-02T13:09:44Z</time>
      </trkpt>
      <trkpt lat="43.35506" lon="2.4542">
        <ele>560.59</ele>
        <time>2014-10-02T13:09:51Z</time>
      </trkpt>
      <trkpt lat="43.35503" lon="2.45424">
        <ele>560.59</ele>
        <time>2014-10-02T13:09:54Z</time>
      </trkpt>
      <trkpt lat="43.35499" lon="2.45428">
        <ele>560.59</ele>
        <time>2014-10-02T13:09:59Z</time>
      </trkpt>
      <trkpt lat="43.35489" lon="2.45438">
        <ele>561.07</ele>
        <time>2014-10-02T13:10:11Z</time>
      </trkpt>
      <trkpt lat="43.35483" lon="2.45445">
        <ele>562.03</ele>
        <time>2014-10-02T13:10:18Z</time>
      </trkpt>
      <trkpt lat="43.3548" lon="2.45448">
        <ele>562.03</ele>
        <time>2014-10-02T13:10:21Z</time>
      </trkpt>
      <trkpt lat="43.35474" lon="2.45454">
        <ele>562.99</ele>
        <time>2014-10-02T13:10:28Z</time>
      </trkpt>
      <trkpt lat="43.35472" lon="2.45455">
        <ele>562.99</ele>
        <time>2014-10-02T13:10:30Z</time>
      </trkpt>
      <trkpt lat="43.35471" lon="2.45456">
        <ele>563.47</ele>
        <time>2014-10-02T13:10:32Z</time>
      </trkpt>
      <trkpt lat="43.35469" lon="2.45456">
        <ele>563.95</ele>
        <time>2014-10-02T13:10:34Z</time>
      </trkpt>
      <trkpt lat="43.35462" lon="2.45461">
        <ele>564.43</ele>
        <time>2014-10-02T13:10:41Z</time>
      </trkpt>
      <trkpt lat="43.3546" lon="2.45462">
        <ele>564.91</ele>
        <time>2014-10-02T13:10:43Z</time>
      </trkpt>
      <trkpt lat="43.35452" lon="2.45472">
        <ele>566.83</ele>
        <time>2014-10-02T13:10:56Z</time>
      </trkpt>
      <trkpt lat="43.3545" lon="2.45473">
        <ele>567.32</ele>
        <time>2014-10-02T13:10:59Z</time>
      </trkpt>
      <trkpt lat="43.35441" lon="2.45484">
        <ele>569.24</ele>
        <time>2014-10-02T13:11:13Z</time>
      </trkpt>
      <trkpt lat="43.35437" lon="2.45488">
        <ele>570.2</ele>
        <time>2014-10-02T13:11:18Z</time>
      </trkpt>
      <trkpt lat="43.35428" lon="2.45494">
        <ele>571.64</ele>
        <time>2014-10-02T13:11:29Z</time>
      </trkpt>
      <trkpt lat="43.35423" lon="2.45501">
        <ele>571.64</ele>
        <time>2014-10-02T13:11:40Z</time>
      </trkpt>
      <trkpt lat="43.35423" lon="2.45503">
        <ele>571.64</ele>
        <time>2014-10-02T13:11:45Z</time>
      </trkpt>
      <trkpt lat="43.35422" lon="2.45504">
        <ele>571.16</ele>
        <time>2014-10-02T13:11:48Z</time>
      </trkpt>
      <trkpt lat="43.3542" lon="2.45505">
        <ele>571.64</ele>
        <time>2014-10-02T13:11:50Z</time>
      </trkpt>
      <trkpt lat="43.35412" lon="2.4551">
        <ele>574.04</ele>
        <time>2014-10-02T13:12:00Z</time>
      </trkpt>
      <trkpt lat="43.35408" lon="2.45517">
        <ele>574.53</ele>
        <time>2014-10-02T13:12:11Z</time>
      </trkpt>
      <trkpt lat="43.35407" lon="2.45518">
        <ele>574.53</ele>
        <time>2014-10-02T13:12:14Z</time>
      </trkpt>
      <trkpt lat="43.35396" lon="2.45531">
        <ele>574.53</ele>
        <time>2014-10-02T13:12:28Z</time>
      </trkpt>
      <trkpt lat="43.35388" lon="2.45541">
        <ele>574.04</ele>
        <time>2014-10-02T13:12:42Z</time>
      </trkpt>
      <trkpt lat="43.35385" lon="2.45549">
        <ele>572.6</ele>
        <time>2014-10-02T13:12:55Z</time>
      </trkpt>
      <trkpt lat="43.35385" lon="2.45549">
        <ele>572.6</ele>
        <time>2014-10-02T13:12:56Z</time>
      </trkpt>
      <trkpt lat="43.35379" lon="2.45552">
        <ele>573.56</ele>
        <time>2014-10-02T13:13:08Z</time>
      </trkpt>
      <trkpt lat="43.35377" lon="2.45553">
        <ele>574.53</ele>
        <time>2014-10-02T13:13:23Z</time>
      </trkpt>
      <trkpt lat="43.35374" lon="2.45554">
        <ele>574.04</ele>
        <time>2014-10-02T13:13:38Z</time>
      </trkpt>
      <trkpt lat="43.35368" lon="2.45553">
        <ele>573.08</ele>
        <time>2014-10-02T13:13:48Z</time>
      </trkpt>
      <trkpt lat="43.35364" lon="2.45558">
        <ele>574.04</ele>
        <time>2014-10-02T13:13:57Z</time>
      </trkpt>
      <trkpt lat="43.35359" lon="2.45561">
        <ele>575.49</ele>
        <time>2014-10-02T13:14:06Z</time>
      </trkpt>
      <trkpt lat="43.35353" lon="2.45566">
        <ele>578.37</ele>
        <time>2014-10-02T13:14:19Z</time>
      </trkpt>
      <trkpt lat="43.35352" lon="2.45566">
        <ele>579.33</ele>
        <time>2014-10-02T13:14:32Z</time>
      </trkpt>
      <trkpt lat="43.3535" lon="2.45567">
        <ele>581.25</ele>
        <time>2014-10-02T13:14:42Z</time>
      </trkpt>
      <trkpt lat="43.35349" lon="2.45567">
        <ele>579.81</ele>
        <time>2014-10-02T13:14:51Z</time>
      </trkpt>
      <trkpt lat="43.35347" lon="2.45569">
        <ele>580.77</ele>
        <time>2014-10-02T13:15:03Z</time>
      </trkpt>
      <trkpt lat="43.35346" lon="2.45571">
        <ele>582.7</ele>
        <time>2014-10-02T13:15:15Z</time>
      </trkpt>
      <trkpt lat="43.35344" lon="2.45577">
        <ele>584.14</ele>
        <time>2014-10-02T13:15:28Z</time>
      </trkpt>
      <trkpt lat="43.35343" lon="2.45581">
        <ele>586.54</ele>
        <time>2014-10-02T13:15:39Z</time>
      </trkpt>
      <trkpt lat="43.35343" lon="2.45582">
        <ele>588.46</ele>
        <time>2014-10-02T13:15:50Z</time>
      </trkpt>
      <trkpt lat="43.35342" lon="2.45583">
        <ele>589.91</ele>
        <time>2014-10-02T13:16:00Z</time>
      </trkpt>
      <trkpt lat="43.3534" lon="2.45584">
        <ele>590.39</ele>
        <time>2014-10-02T13:16:13Z</time>
      </trkpt>
      <trkpt lat="43.35337" lon="2.45586">
        <ele>590.87</ele>
        <time>2014-10-02T13:16:27Z</time>
      </trkpt>
      <trkpt lat="43.35336" lon="2.45588">
        <ele>591.35</ele>
        <time>2014-10-02T13:16:43Z</time>
      </trkpt>
      <trkpt lat="43.35336" lon="2.45588">
        <ele>591.35</ele>
        <time>2014-10-02T13:16:53Z</time>
      </trkpt>
      <trkpt lat="43.35336" lon="2.45589">
        <ele>592.31</ele>
        <time>2014-10-02T13:17:12Z</time>
      </trkpt>
      <trkpt lat="43.35336" lon="2.4559">
        <ele>589.91</ele>
        <time>2014-10-02T13:17:25Z</time>
      </trkpt>
      <trkpt lat="43.35336" lon="2.4559">
        <ele>589.43</ele>
        <time>2014-10-02T13:17:26Z</time>
      </trkpt>
      <trkpt lat="43.35336" lon="2.4559">
        <ele>591.35</ele>
        <time>2014-10-02T13:17:34Z</time>
      </trkpt>
      <trkpt lat="43.35335" lon="2.4559">
        <ele>591.83</ele>
        <time>2014-10-02T13:17:56Z</time>
      </trkpt>
      <trkpt lat="43.35335" lon="2.45591">
        <ele>591.35</ele>
        <time>2014-10-02T13:18:16Z</time>
      </trkpt>
      <trkpt lat="43.35335" lon="2.45591">
        <ele>590.39</ele>
        <time>2014-10-02T13:18:32Z</time>
      </trkpt>
      <trkpt lat="43.35335" lon="2.45591">
        <ele>590.39</ele>
        <time>2014-10-02T13:18:54Z</time>
      </trkpt>
      <trkpt lat="43.35334" lon="2.45591">
        <ele>590.39</ele>
        <time>2014-10-02T13:19:19Z</time>
      </trkpt>
      <trkpt lat="43.35334" lon="2.45591">
        <ele>589.43</ele>
        <time>2014-10-02T13:19:39Z</time>
      </trkpt>
      <trkpt lat="43.35334" lon="2.45591">
        <ele>589.91</ele>
        <time>2014-10-02T13:19:57Z</time>
      </trkpt>
      <trkpt lat="43.35334" lon="2.45591">
        <ele>589.91</ele>
        <time>2014-10-02T13:20:15Z</time>
      </trkpt>
      <trkpt lat="43.35334" lon="2.45591">
        <ele>589.43</ele>
        <time>2014-10-02T13:20:27Z</time>
      </trkpt>
      <trkpt lat="43.35334" lon="2.45591">
        <ele>588.46</ele>
        <time>2014-10-02T13:20:37Z</time>
      </trkpt>
      <trkpt lat="43.35335" lon="2.45591">
        <ele>588.95</ele>
        <time>2014-10-02T13:20:56Z</time>
      </trkpt>
      <trkpt lat="43.35337" lon="2.4559">
        <ele>587.5</ele>
        <time>2014-10-02T13:21:08Z</time>
      </trkpt>
      <trkpt lat="43.35337" lon="2.45589">
        <ele>586.06</ele>
        <time>2014-10-02T13:21:20Z</time>
      </trkpt>
      <trkpt lat="43.35337" lon="2.45588">
        <ele>583.66</ele>
        <time>2014-10-02T13:21:34Z</time>
      </trkpt>
      <trkpt lat="43.35338" lon="2.45587">
        <ele>582.22</ele>
        <time>2014-10-02T13:21:46Z</time>
      </trkpt>
      <trkpt lat="43.35338" lon="2.45585">
        <ele>580.77</ele>
        <time>2014-10-02T13:22:01Z</time>
      </trkpt>
      <trkpt lat="43.35338" lon="2.45583">
        <ele>578.37</ele>
        <time>2014-10-02T13:22:14Z</time>
      </trkpt>
      <trkpt lat="43.35339" lon="2.45582">
        <ele>577.89</ele>
        <time>2014-10-02T13:22:24Z</time>
      </trkpt>
      <trkpt lat="43.35342" lon="2.45579">
        <ele>575.97</ele>
        <time>2014-10-02T13:22:34Z</time>
      </trkpt>
      <trkpt lat="43.35342" lon="2.45578">
        <ele>575.49</ele>
        <time>2014-10-02T13:22:35Z</time>
      </trkpt>
      <trkpt lat="43.35347" lon="2.45571">
        <ele>573.56</ele>
        <time>2014-10-02T13:22:46Z</time>
      </trkpt>
      <trkpt lat="43.3535" lon="2.45568">
        <ele>572.12</ele>
        <time>2014-10-02T13:22:52Z</time>
      </trkpt>
      <trkpt lat="43.35355" lon="2.45564">
        <ele>569.72</ele>
        <time>2014-10-02T13:23:00Z</time>
      </trkpt>
      <trkpt lat="43.35357" lon="2.45564">
        <ele>569.24</ele>
        <time>2014-10-02T13:23:02Z</time>
      </trkpt>
      <trkpt lat="43.35359" lon="2.45563">
        <ele>568.76</ele>
        <time>2014-10-02T13:23:04Z</time>
      </trkpt>
      <trkpt lat="43.35366" lon="2.45554">
        <ele>570.68</ele>
        <time>2014-10-02T13:23:16Z</time>
      </trkpt>
      <trkpt lat="43.35372" lon="2.45553">
        <ele>570.68</ele>
        <time>2014-10-02T13:23:27Z</time>
      </trkpt>
      <trkpt lat="43.35377" lon="2.45553">
        <ele>570.2</ele>
        <time>2014-10-02T13:23:42Z</time>
      </trkpt>
      <trkpt lat="43.3538" lon="2.45551">
        <ele>570.2</ele>
        <time>2014-10-02T13:23:45Z</time>
      </trkpt>
      <trkpt lat="43.35385" lon="2.45549">
        <ele>570.68</ele>
        <time>2014-10-02T13:23:59Z</time>
      </trkpt>
      <trkpt lat="43.35385" lon="2.45549">
        <ele>570.2</ele>
        <time>2014-10-02T13:24:05Z</time>
      </trkpt>
      <trkpt lat="43.35385" lon="2.45547">
        <ele>570.68</ele>
        <time>2014-10-02T13:24:16Z</time>
      </trkpt>
      <trkpt lat="43.35386" lon="2.45548">
        <ele>570.2</ele>
        <time>2014-10-02T13:24:28Z</time>
      </trkpt>
      <trkpt lat="43.35386" lon="2.45543">
        <ele>570.68</ele>
        <time>2014-10-02T13:24:40Z</time>
      </trkpt>
      <trkpt lat="43.35387" lon="2.45542">
        <ele>570.68</ele>
        <time>2014-10-02T13:24:42Z</time>
      </trkpt>
      <trkpt lat="43.35389" lon="2.45537">
        <ele>570.68</ele>
        <time>2014-10-02T13:24:46Z</time>
      </trkpt>
      <trkpt lat="43.35392" lon="2.45531">
        <ele>570.68</ele>
        <time>2014-10-02T13:24:52Z</time>
      </trkpt>
      <trkpt lat="43.35394" lon="2.4553">
        <ele>570.68</ele>
        <time>2014-10-02T13:24:54Z</time>
      </trkpt>
      <trkpt lat="43.35401" lon="2.45521">
        <ele>570.2</ele>
        <time>2014-10-02T13:25:03Z</time>
      </trkpt>
      <trkpt lat="43.35412" lon="2.4551">
        <ele>568.28</ele>
        <time>2014-10-02T13:25:16Z</time>
      </trkpt>
      <trkpt lat="43.35418" lon="2.45502">
        <ele>567.8</ele>
        <time>2014-10-02T13:25:26Z</time>
      </trkpt>
      <trkpt lat="43.3542" lon="2.455">
        <ele>567.8</ele>
        <time>2014-10-02T13:25:29Z</time>
      </trkpt>
      <trkpt lat="43.35427" lon="2.45493">
        <ele>566.83</ele>
        <time>2014-10-02T13:25:38Z</time>
      </trkpt>
      <trkpt lat="43.3543" lon="2.45493">
        <ele>566.83</ele>
        <time>2014-10-02T13:25:41Z</time>
      </trkpt>
      <trkpt lat="43.35433" lon="2.45491">
        <ele>566.35</ele>
        <time>2014-10-02T13:25:44Z</time>
      </trkpt>
      <trkpt lat="43.35443" lon="2.45484">
        <ele>564.91</ele>
        <time>2014-10-02T13:25:56Z</time>
      </trkpt>
      <trkpt lat="43.35446" lon="2.45481">
        <ele>563.95</ele>
        <time>2014-10-02T13:26:00Z</time>
      </trkpt>
      <trkpt lat="43.35456" lon="2.4547">
        <ele>562.03</ele>
        <time>2014-10-02T13:26:14Z</time>
      </trkpt>
      <trkpt lat="43.35464" lon="2.45462">
        <ele>559.62</ele>
        <time>2014-10-02T13:26:27Z</time>
      </trkpt>
      <trkpt lat="43.35467" lon="2.45461">
        <ele>559.14</ele>
        <time>2014-10-02T13:26:33Z</time>
      </trkpt>
      <trkpt lat="43.3547" lon="2.45459">
        <ele>558.18</ele>
        <time>2014-10-02T13:26:36Z</time>
      </trkpt>
      <trkpt lat="43.35473" lon="2.45456">
        <ele>558.18</ele>
        <time>2014-10-02T13:26:42Z</time>
      </trkpt>
      <trkpt lat="43.35483" lon="2.45447">
        <ele>557.22</ele>
        <time>2014-10-02T13:26:52Z</time>
      </trkpt>
      <trkpt lat="43.35486" lon="2.45443">
        <ele>556.26</ele>
        <time>2014-10-02T13:27:00Z</time>
      </trkpt>
      <trkpt lat="43.35488" lon="2.45439">
        <ele>556.26</ele>
        <time>2014-10-02T13:27:03Z</time>
      </trkpt>
      <trkpt lat="43.35495" lon="2.45431">
        <ele>555.78</ele>
        <time>2014-10-02T13:27:12Z</time>
      </trkpt>
      <trkpt lat="43.35508" lon="2.45416">
        <ele>556.26</ele>
        <time>2014-10-02T13:27:28Z</time>
      </trkpt>
      <trkpt lat="43.35509" lon="2.45415">
        <ele>555.78</ele>
        <time>2014-10-02T13:27:29Z</time>
      </trkpt>
      <trkpt lat="43.3551" lon="2.45413">
        <ele>556.26</ele>
        <time>2014-10-02T13:27:31Z</time>
      </trkpt>
      <trkpt lat="43.35511" lon="2.45409">
        <ele>556.74</ele>
        <time>2014-10-02T13:27:34Z</time>
      </trkpt>
      <trkpt lat="43.35515" lon="2.45405">
        <ele>557.22</ele>
        <time>2014-10-02T13:27:39Z</time>
      </trkpt>
      <trkpt lat="43.35518" lon="2.45391">
        <ele>557.22</ele>
        <time>2014-10-02T13:27:51Z</time>
      </trkpt>
      <trkpt lat="43.35521" lon="2.45381">
        <ele>558.18</ele>
        <time>2014-10-02T13:28:02Z</time>
      </trkpt>
      <trkpt lat="43.35521" lon="2.45377">
        <ele>558.18</ele>
        <time>2014-10-02T13:28:05Z</time>
      </trkpt>
      <trkpt lat="43.35525" lon="2.45358">
        <ele>558.18</ele>
        <time>2014-10-02T13:28:19Z</time>
      </trkpt>
      <trkpt lat="43.35527" lon="2.45344">
        <ele>558.66</ele>
        <time>2014-10-02T13:28:31Z</time>
      </trkpt>
      <trkpt lat="43.35529" lon="2.45338">
        <ele>558.18</ele>
        <time>2014-10-02T13:28:35Z</time>
      </trkpt>
      <trkpt lat="43.35537" lon="2.45325">
        <ele>559.14</ele>
        <time>2014-10-02T13:28:48Z</time>
      </trkpt>
      <trkpt lat="43.3554" lon="2.45321">
        <ele>559.62</ele>
        <time>2014-10-02T13:28:52Z</time>
      </trkpt>
      <trkpt lat="43.35545" lon="2.45315">
        <ele>559.62</ele>
        <time>2014-10-02T13:29:05Z</time>
      </trkpt>
      <trkpt lat="43.35549" lon="2.4531">
        <ele>557.22</ele>
        <time>2014-10-02T13:29:17Z</time>
      </trkpt>
      <trkpt lat="43.3555" lon="2.45309">
        <ele>557.22</ele>
        <time>2014-10-02T13:29:18Z</time>
      </trkpt>
      <trkpt lat="43.35559" lon="2.45305">
        <ele>554.34</ele>
        <time>2014-10-02T13:29:33Z</time>
      </trkpt>
      <trkpt lat="43.35565" lon="2.45299">
        <ele>552.41</ele>
        <time>2014-10-02T13:29:47Z</time>
      </trkpt>
      <trkpt lat="43.35574" lon="2.45291">
        <ele>549.53</ele>
        <time>2014-10-02T13:29:56Z</time>
      </trkpt>
      <trkpt lat="43.35579" lon="2.45288">
        <ele>548.09</ele>
        <time>2014-10-02T13:30:01Z</time>
      </trkpt>
      <trkpt lat="43.35584" lon="2.45285">
        <ele>547.61</ele>
        <time>2014-10-02T13:30:05Z</time>
      </trkpt>
      <trkpt lat="43.35591" lon="2.45274">
        <ele>545.69</ele>
        <time>2014-10-02T13:30:15Z</time>
      </trkpt>
      <trkpt lat="43.35594" lon="2.45265">
        <ele>542.8</ele>
        <time>2014-10-02T13:30:26Z</time>
      </trkpt>
      <trkpt lat="43.35597" lon="2.45263">
        <ele>541.36</ele>
        <time>2014-10-02T13:30:34Z</time>
      </trkpt>
      <trkpt lat="43.35604" lon="2.4526">
        <ele>540.4</ele>
        <time>2014-10-02T13:30:39Z</time>
      </trkpt>
      <trkpt lat="43.35612" lon="2.45252">
        <ele>538.48</ele>
        <time>2014-10-02T13:30:51Z</time>
      </trkpt>
      <trkpt lat="43.35614" lon="2.45243">
        <ele>535.59</ele>
        <time>2014-10-02T13:31:03Z</time>
      </trkpt>
      <trkpt lat="43.35616" lon="2.45239">
        <ele>532.71</ele>
        <time>2014-10-02T13:31:10Z</time>
      </trkpt>
      <trkpt lat="43.35623" lon="2.4523">
        <ele>530.3</ele>
        <time>2014-10-02T13:31:22Z</time>
      </trkpt>
      <trkpt lat="43.35626" lon="2.45224">
        <ele>529.82</ele>
        <time>2014-10-02T13:31:36Z</time>
      </trkpt>
      <trkpt lat="43.35629" lon="2.45221">
        <ele>530.3</ele>
        <time>2014-10-02T13:31:52Z</time>
      </trkpt>
      <trkpt lat="43.3563" lon="2.45219">
        <ele>530.3</ele>
        <time>2014-10-02T13:32:07Z</time>
      </trkpt>
      <trkpt lat="43.3563" lon="2.45218">
        <ele>530.3</ele>
        <time>2014-10-02T13:32:28Z</time>
      </trkpt>
      <trkpt lat="43.35633" lon="2.45214">
        <ele>530.3</ele>
        <time>2014-10-02T13:32:34Z</time>
      </trkpt>
      <trkpt lat="43.35634" lon="2.45199">
        <ele>528.86</ele>
        <time>2014-10-02T13:32:46Z</time>
      </trkpt>
      <trkpt lat="43.3564" lon="2.45179">
        <ele>527.9</ele>
        <time>2014-10-02T13:33:00Z</time>
      </trkpt>
      <trkpt lat="43.35642" lon="2.45176">
        <ele>527.42</ele>
        <time>2014-10-02T13:33:03Z</time>
      </trkpt>
      <trkpt lat="43.35645" lon="2.4517">
        <ele>526.46</ele>
        <time>2014-10-02T13:33:07Z</time>
      </trkpt>
      <trkpt lat="43.35648" lon="2.45165">
        <ele>525.98</ele>
        <time>2014-10-02T13:33:11Z</time>
      </trkpt>
      <trkpt lat="43.35659" lon="2.45155">
        <ele>525.02</ele>
        <time>2014-10-02T13:33:23Z</time>
      </trkpt>
      <trkpt lat="43.35665" lon="2.45149">
        <ele>525.02</ele>
        <time>2014-10-02T13:33:34Z</time>
      </trkpt>
      <trkpt lat="43.3567" lon="2.45143">
        <ele>525.02</ele>
        <time>2014-10-02T13:33:51Z</time>
      </trkpt>
      <trkpt lat="43.35671" lon="2.45142">
        <ele>524.54</ele>
        <time>2014-10-02T13:33:52Z</time>
      </trkpt>
      <trkpt lat="43.35677" lon="2.45134">
        <ele>524.06</ele>
        <time>2014-10-02T13:34:04Z</time>
      </trkpt>
      <trkpt lat="43.35688" lon="2.4513">
        <ele>523.09</ele>
        <time>2014-10-02T13:34:14Z</time>
      </trkpt>
      <trkpt lat="43.35691" lon="2.45127">
        <ele>523.58</ele>
        <time>2014-10-02T13:34:20Z</time>
      </trkpt>
      <trkpt lat="43.35695" lon="2.45123">
        <ele>523.58</ele>
        <time>2014-10-02T13:34:23Z</time>
      </trkpt>
      <trkpt lat="43.35706" lon="2.45109">
        <ele>523.58</ele>
        <time>2014-10-02T13:34:36Z</time>
      </trkpt>
      <trkpt lat="43.35711" lon="2.45104">
        <ele>523.58</ele>
        <time>2014-10-02T13:34:40Z</time>
      </trkpt>
      <trkpt lat="43.35719" lon="2.45098">
        <ele>522.13</ele>
        <time>2014-10-02T13:34:53Z</time>
      </trkpt>
      <trkpt lat="43.35715" lon="2.45081">
        <ele>519.73</ele>
        <time>2014-10-02T13:35:06Z</time>
      </trkpt>
      <trkpt lat="43.35714" lon="2.45078">
        <ele>519.25</ele>
        <time>2014-10-02T13:35:08Z</time>
      </trkpt>
      <trkpt lat="43.35714" lon="2.45071">
        <ele>518.77</ele>
        <time>2014-10-02T13:35:12Z</time>
      </trkpt>
      <trkpt lat="43.35714" lon="2.45067">
        <ele>518.77</ele>
        <time>2014-10-02T13:35:14Z</time>
      </trkpt>
      <trkpt lat="43.35715" lon="2.45047">
        <ele>517.33</ele>
        <time>2014-10-02T13:35:27Z</time>
      </trkpt>
      <trkpt lat="43.35713" lon="2.45034">
        <ele>516.37</ele>
        <time>2014-10-02T13:35:36Z</time>
      </trkpt>
      <trkpt lat="43.35716" lon="2.45016">
        <ele>515.4</ele>
        <time>2014-10-02T13:35:48Z</time>
      </trkpt>
      <trkpt lat="43.35717" lon="2.45012">
        <ele>514.92</ele>
        <time>2014-10-02T13:36:12Z</time>
      </trkpt>
      <trkpt lat="43.3572" lon="2.45004">
        <ele>514.44</ele>
        <time>2014-10-02T13:36:24Z</time>
      </trkpt>
      <trkpt lat="43.3572" lon="2.44994">
        <ele>514.44</ele>
        <time>2014-10-02T13:36:35Z</time>
      </trkpt>
      <trkpt lat="43.3572" lon="2.44993">
        <ele>514.44</ele>
        <time>2014-10-02T13:36:36Z</time>
      </trkpt>
      <trkpt lat="43.35721" lon="2.44981">
        <ele>513.96</ele>
        <time>2014-10-02T13:36:49Z</time>
      </trkpt>
      <trkpt lat="43.35722" lon="2.4498">
        <ele>513.48</ele>
        <time>2014-10-02T13:36:52Z</time>
      </trkpt>
      <trkpt lat="43.35731" lon="2.44964">
        <ele>513</ele>
        <time>2014-10-02T13:37:03Z</time>
      </trkpt>
      <trkpt lat="43.35738" lon="2.44948">
        <ele>512.04</ele>
        <time>2014-10-02T13:37:12Z</time>
      </trkpt>
      <trkpt lat="43.3574" lon="2.44944">
        <ele>511.56</ele>
        <time>2014-10-02T13:37:15Z</time>
      </trkpt>
      <trkpt lat="43.35744" lon="2.44936">
        <ele>511.56</ele>
        <time>2014-10-02T13:37:20Z</time>
      </trkpt>
      <trkpt lat="43.35752" lon="2.44913">
        <ele>510.6</ele>
        <time>2014-10-02T13:37:35Z</time>
      </trkpt>
      <trkpt lat="43.35757" lon="2.449">
        <ele>510.12</ele>
        <time>2014-10-02T13:37:44Z</time>
      </trkpt>
      <trkpt lat="43.35764" lon="2.44881">
        <ele>510.12</ele>
        <time>2014-10-02T13:37:57Z</time>
      </trkpt>
      <trkpt lat="43.35767" lon="2.44862">
        <ele>509.64</ele>
        <time>2014-10-02T13:38:11Z</time>
      </trkpt>
      <trkpt lat="43.35769" lon="2.44854">
        <ele>509.64</ele>
        <time>2014-10-02T13:38:16Z</time>
      </trkpt>
      <trkpt lat="43.35767" lon="2.44838">
        <ele>509.64</ele>
        <time>2014-10-02T13:38:29Z</time>
      </trkpt>
      <trkpt lat="43.35767" lon="2.44835">
        <ele>509.16</ele>
        <time>2014-10-02T13:38:40Z</time>
      </trkpt>
      <trkpt lat="43.35766" lon="2.44829">
        <ele>508.19</ele>
        <time>2014-10-02T13:38:49Z</time>
      </trkpt>
      <trkpt lat="43.35767" lon="2.44826">
        <ele>507.71</ele>
        <time>2014-10-02T13:39:07Z</time>
      </trkpt>
      <trkpt lat="43.35767" lon="2.44824">
        <ele>508.19</ele>
        <time>2014-10-02T13:39:12Z</time>
      </trkpt>
      <trkpt lat="43.35764" lon="2.44824">
        <ele>507.23</ele>
        <time>2014-10-02T13:39:20Z</time>
      </trkpt>
      <trkpt lat="43.35761" lon="2.44827">
        <ele>506.27</ele>
        <time>2014-10-02T13:39:27Z</time>
      </trkpt>
      <trkpt lat="43.35749" lon="2.44837">
        <ele>505.31</ele>
        <time>2014-10-02T13:39:41Z</time>
      </trkpt>
      <trkpt lat="43.35741" lon="2.44834">
        <ele>504.83</ele>
        <time>2014-10-02T13:39:51Z</time>
      </trkpt>
      <trkpt lat="43.3573" lon="2.44831">
        <ele>503.39</ele>
        <time>2014-10-02T13:40:02Z</time>
      </trkpt>
      <trkpt lat="43.35721" lon="2.44828">
        <ele>502.91</ele>
        <time>2014-10-02T13:40:10Z</time>
      </trkpt>
      <trkpt lat="43.35719" lon="2.44827">
        <ele>502.91</ele>
        <time>2014-10-02T13:40:12Z</time>
      </trkpt>
      <trkpt lat="43.3571" lon="2.44824">
        <ele>502.43</ele>
        <time>2014-10-02T13:40:25Z</time>
      </trkpt>
      <trkpt lat="43.35701" lon="2.44824">
        <ele>502.91</ele>
        <time>2014-10-02T13:40:38Z</time>
      </trkpt>
      <trkpt lat="43.357" lon="2.44817">
        <ele>504.35</ele>
        <time>2014-10-02T13:41:04Z</time>
      </trkpt>
      <trkpt lat="43.35698" lon="2.44812">
        <ele>503.87</ele>
        <time>2014-10-02T13:41:31Z</time>
      </trkpt>
      <trkpt lat="43.3569" lon="2.44809">
        <ele>504.83</ele>
        <time>2014-10-02T13:41:45Z</time>
      </trkpt>
      <trkpt lat="43.35685" lon="2.4481">
        <ele>505.31</ele>
        <time>2014-10-02T13:41:51Z</time>
      </trkpt>
      <trkpt lat="43.3568" lon="2.44804">
        <ele>505.79</ele>
        <time>2014-10-02T13:42:00Z</time>
      </trkpt>
      <trkpt lat="43.35674" lon="2.448">
        <ele>507.71</ele>
        <time>2014-10-02T13:42:11Z</time>
      </trkpt>
      <trkpt lat="43.35671" lon="2.44798">
        <ele>508.19</ele>
        <time>2014-10-02T13:42:28Z</time>
      </trkpt>
      <trkpt lat="43.35666" lon="2.44794">
        <ele>508.19</ele>
        <time>2014-10-02T13:42:49Z</time>
      </trkpt>
      <trkpt lat="43.35661" lon="2.4479">
        <ele>508.67</ele>
        <time>2014-10-02T13:43:00Z</time>
      </trkpt>
      <trkpt lat="43.35651" lon="2.44786">
        <ele>508.67</ele>
        <time>2014-10-02T13:43:10Z</time>
      </trkpt>
      <trkpt lat="43.35648" lon="2.44782">
        <ele>509.16</ele>
        <time>2014-10-02T13:43:21Z</time>
      </trkpt>
      <trkpt lat="43.35641" lon="2.44773">
        <ele>510.12</ele>
        <time>2014-10-02T13:43:33Z</time>
      </trkpt>
      <trkpt lat="43.35639" lon="2.44772">
        <ele>510.12</ele>
        <time>2014-10-02T13:43:35Z</time>
      </trkpt>
      <trkpt lat="43.35625" lon="2.44771">
        <ele>511.08</ele>
        <time>2014-10-02T13:43:49Z</time>
      </trkpt>
      <trkpt lat="43.35618" lon="2.44765">
        <ele>512.04</ele>
        <time>2014-10-02T13:43:59Z</time>
      </trkpt>
      <trkpt lat="43.35605" lon="2.44758">
        <ele>513.96</ele>
        <time>2014-10-02T13:44:14Z</time>
      </trkpt>
      <trkpt lat="43.356" lon="2.44754">
        <ele>514.44</ele>
        <time>2014-10-02T13:44:20Z</time>
      </trkpt>
      <trkpt lat="43.3559" lon="2.44749">
        <ele>515.4</ele>
        <time>2014-10-02T13:44:33Z</time>
      </trkpt>
      <trkpt lat="43.3558" lon="2.44744">
        <ele>515.4</ele>
        <time>2014-10-02T13:44:47Z</time>
      </trkpt>
      <trkpt lat="43.35578" lon="2.44742">
        <ele>515.88</ele>
        <time>2014-10-02T13:44:51Z</time>
      </trkpt>
      <trkpt lat="43.35569" lon="2.44735">
        <ele>516.37</ele>
        <time>2014-10-02T13:45:01Z</time>
      </trkpt>
      <trkpt lat="43.35552" lon="2.4472">
        <ele>518.77</ele>
        <time>2014-10-02T13:45:17Z</time>
      </trkpt>
      <trkpt lat="43.3555" lon="2.44718">
        <ele>518.77</ele>
        <time>2014-10-02T13:45:19Z</time>
      </trkpt>
      <trkpt lat="43.35545" lon="2.44713">
        <ele>518.77</ele>
        <time>2014-10-02T13:45:24Z</time>
      </trkpt>
      <trkpt lat="43.35534" lon="2.44699">
        <ele>520.21</ele>
        <time>2014-10-02T13:45:40Z</time>
      </trkpt>
      <trkpt lat="43.35524" lon="2.44688">
        <ele>521.17</ele>
        <time>2014-10-02T13:45:52Z</time>
      </trkpt>
      <trkpt lat="43.35515" lon="2.44682">
        <ele>522.61</ele>
        <time>2014-10-02T13:46:02Z</time>
      </trkpt>
      <trkpt lat="43.35505" lon="2.44677">
        <ele>523.09</ele>
        <time>2014-10-02T13:46:16Z</time>
      </trkpt>
      <trkpt lat="43.35503" lon="2.44673">
        <ele>523.58</ele>
        <time>2014-10-02T13:46:28Z</time>
      </trkpt>
      <trkpt lat="43.35502" lon="2.44668">
        <ele>524.06</ele>
        <time>2014-10-02T13:46:43Z</time>
      </trkpt>
      <trkpt lat="43.35506" lon="2.44665">
        <ele>524.54</ele>
        <time>2014-10-02T13:46:48Z</time>
      </trkpt>
      <trkpt lat="43.35508" lon="2.44664">
        <ele>525.02</ele>
        <time>2014-10-02T13:46:50Z</time>
      </trkpt>
      <trkpt lat="43.35518" lon="2.44654">
        <ele>525.98</ele>
        <time>2014-10-02T13:47:04Z</time>
      </trkpt>
      <trkpt lat="43.35526" lon="2.44641">
        <ele>527.42</ele>
        <time>2014-10-02T13:47:17Z</time>
      </trkpt>
      <trkpt lat="43.35526" lon="2.44628">
        <ele>526.94</ele>
        <time>2014-10-02T13:47:29Z</time>
      </trkpt>
      <trkpt lat="43.35526" lon="2.44625">
        <ele>526.94</ele>
        <time>2014-10-02T13:47:42Z</time>
      </trkpt>
      <trkpt lat="43.35526" lon="2.44621">
        <ele>525.98</ele>
        <time>2014-10-02T13:47:48Z</time>
      </trkpt>
      <trkpt lat="43.35529" lon="2.44617">
        <ele>526.94</ele>
        <time>2014-10-02T13:47:52Z</time>
      </trkpt>
      <trkpt lat="43.35537" lon="2.44607">
        <ele>529.82</ele>
        <time>2014-10-02T13:48:05Z</time>
      </trkpt>
      <trkpt lat="43.35543" lon="2.44598">
        <ele>532.23</ele>
        <time>2014-10-02T13:48:17Z</time>
      </trkpt>
      <trkpt lat="43.3555" lon="2.44591">
        <ele>535.59</ele>
        <time>2014-10-02T13:48:28Z</time>
      </trkpt>
      <trkpt lat="43.35551" lon="2.44594">
        <ele>537.51</ele>
        <time>2014-10-02T13:48:36Z</time>
      </trkpt>
      <trkpt lat="43.35556" lon="2.44602">
        <ele>538.48</ele>
        <time>2014-10-02T13:48:47Z</time>
      </trkpt>
      <trkpt lat="43.3556" lon="2.44604">
        <ele>539.92</ele>
        <time>2014-10-02T13:48:51Z</time>
      </trkpt>
      <trkpt lat="43.35568" lon="2.44608">
        <ele>540.88</ele>
        <time>2014-10-02T13:49:00Z</time>
      </trkpt>
      <trkpt lat="43.3557" lon="2.44608">
        <ele>540.88</ele>
        <time>2014-10-02T13:49:02Z</time>
      </trkpt>
      <trkpt lat="43.35575" lon="2.44609">
        <ele>541.36</ele>
        <time>2014-10-02T13:49:06Z</time>
      </trkpt>
      <trkpt lat="43.35586" lon="2.44609">
        <ele>542.8</ele>
        <time>2014-10-02T13:49:20Z</time>
      </trkpt>
      <trkpt lat="43.35587" lon="2.44609">
        <ele>544.24</ele>
        <time>2014-10-02T13:49:25Z</time>
      </trkpt>
      <trkpt lat="43.35594" lon="2.4461">
        <ele>546.65</ele>
        <time>2014-10-02T13:49:37Z</time>
      </trkpt>
      <trkpt lat="43.35599" lon="2.44611">
        <ele>548.57</ele>
        <time>2014-10-02T13:49:49Z</time>
      </trkpt>
      <trkpt lat="43.35605" lon="2.44617">
        <ele>551.45</ele>
        <time>2014-10-02T13:50:03Z</time>
      </trkpt>
      <trkpt lat="43.35608" lon="2.44617">
        <ele>553.38</ele>
        <time>2014-10-02T13:50:12Z</time>
      </trkpt>
      <trkpt lat="43.35609" lon="2.44617">
        <ele>553.86</ele>
        <time>2014-10-02T13:50:13Z</time>
      </trkpt>
      <trkpt lat="43.35613" lon="2.44614">
        <ele>553.86</ele>
        <time>2014-10-02T13:50:25Z</time>
      </trkpt>
      <trkpt lat="43.35615" lon="2.44614">
        <ele>554.82</ele>
        <time>2014-10-02T13:50:40Z</time>
      </trkpt>
      <trkpt lat="43.35616" lon="2.44614">
        <ele>554.82</ele>
        <time>2014-10-02T13:50:41Z</time>
      </trkpt>
      <trkpt lat="43.35621" lon="2.44611">
        <ele>553.38</ele>
        <time>2014-10-02T13:50:47Z</time>
      </trkpt>
      <trkpt lat="43.35632" lon="2.44605">
        <ele>553.38</ele>
        <time>2014-10-02T13:50:59Z</time>
      </trkpt>
      <trkpt lat="43.35633" lon="2.44606">
        <ele>553.86</ele>
        <time>2014-10-02T13:51:01Z</time>
      </trkpt>
      <trkpt lat="43.35643" lon="2.44605">
        <ele>555.78</ele>
        <time>2014-10-02T13:51:13Z</time>
      </trkpt>
      <trkpt lat="43.35644" lon="2.44605">
        <ele>556.26</ele>
        <time>2014-10-02T13:51:14Z</time>
      </trkpt>
      <trkpt lat="43.35645" lon="2.44604">
        <ele>556.74</ele>
        <time>2014-10-02T13:51:17Z</time>
      </trkpt>
      <trkpt lat="43.35654" lon="2.44592">
        <ele>558.66</ele>
        <time>2014-10-02T13:51:30Z</time>
      </trkpt>
      <trkpt lat="43.35662" lon="2.44583">
        <ele>561.07</ele>
        <time>2014-10-02T13:51:45Z</time>
      </trkpt>
      <trkpt lat="43.35669" lon="2.44577">
        <ele>563.47</ele>
        <time>2014-10-02T13:51:57Z</time>
      </trkpt>
      <trkpt lat="43.35674" lon="2.4457">
        <ele>564.43</ele>
        <time>2014-10-02T13:52:10Z</time>
      </trkpt>
      <trkpt lat="43.3568" lon="2.44567">
        <ele>567.32</ele>
        <time>2014-10-02T13:52:21Z</time>
      </trkpt>
      <trkpt lat="43.35687" lon="2.44565">
        <ele>568.76</ele>
        <time>2014-10-02T13:52:33Z</time>
      </trkpt>
      <trkpt lat="43.35687" lon="2.44565">
        <ele>568.76</ele>
        <time>2014-10-02T13:52:34Z</time>
      </trkpt>
      <trkpt lat="43.3569" lon="2.44564">
        <ele>569.24</ele>
        <time>2014-10-02T13:52:37Z</time>
      </trkpt>
      <trkpt lat="43.35696" lon="2.44563">
        <ele>570.68</ele>
        <time>2014-10-02T13:52:50Z</time>
      </trkpt>
      <trkpt lat="43.35697" lon="2.44562">
        <ele>571.16</ele>
        <time>2014-10-02T13:53:01Z</time>
      </trkpt>
      <trkpt lat="43.35701" lon="2.44564">
        <ele>571.64</ele>
        <time>2014-10-02T13:53:05Z</time>
      </trkpt>
      <trkpt lat="43.35705" lon="2.44565">
        <ele>573.08</ele>
        <time>2014-10-02T13:53:10Z</time>
      </trkpt>
      <trkpt lat="43.35713" lon="2.4456">
        <ele>574.53</ele>
        <time>2014-10-02T13:53:23Z</time>
      </trkpt>
      <trkpt lat="43.35719" lon="2.44552">
        <ele>575.97</ele>
        <time>2014-10-02T13:53:38Z</time>
      </trkpt>
      <trkpt lat="43.35724" lon="2.44547">
        <ele>578.37</ele>
        <time>2014-10-02T13:53:50Z</time>
      </trkpt>
      <trkpt lat="43.35728" lon="2.44544">
        <ele>580.77</ele>
        <time>2014-10-02T13:54:01Z</time>
      </trkpt>
      <trkpt lat="43.35732" lon="2.4454">
        <ele>581.73</ele>
        <time>2014-10-02T13:54:12Z</time>
      </trkpt>
      <trkpt lat="43.35739" lon="2.44535">
        <ele>582.7</ele>
        <time>2014-10-02T13:54:23Z</time>
      </trkpt>
      <trkpt lat="43.3574" lon="2.44533">
        <ele>583.66</ele>
        <time>2014-10-02T13:54:25Z</time>
      </trkpt>
      <trkpt lat="43.35745" lon="2.44528">
        <ele>584.14</ele>
        <time>2014-10-02T13:54:36Z</time>
      </trkpt>
      <trkpt lat="43.35749" lon="2.44524">
        <ele>585.1</ele>
        <time>2014-10-02T13:54:47Z</time>
      </trkpt>
      <trkpt lat="43.35757" lon="2.44518">
        <ele>587.02</ele>
        <time>2014-10-02T13:54:58Z</time>
      </trkpt>
      <trkpt lat="43.35762" lon="2.44515">
        <ele>588.46</ele>
        <time>2014-10-02T13:55:10Z</time>
      </trkpt>
      <trkpt lat="43.35767" lon="2.44513">
        <ele>590.87</ele>
        <time>2014-10-02T13:55:23Z</time>
      </trkpt>
      <trkpt lat="43.3577" lon="2.44513">
        <ele>592.31</ele>
        <time>2014-10-02T13:55:43Z</time>
      </trkpt>
      <trkpt lat="43.35776" lon="2.44513">
        <ele>594.23</ele>
        <time>2014-10-02T13:55:56Z</time>
      </trkpt>
      <trkpt lat="43.35782" lon="2.44514">
        <ele>595.67</ele>
        <time>2014-10-02T13:56:08Z</time>
      </trkpt>
      <trkpt lat="43.35786" lon="2.44513">
        <ele>598.08</ele>
        <time>2014-10-02T13:56:21Z</time>
      </trkpt>
      <trkpt lat="43.3579" lon="2.44514">
        <ele>599.04</ele>
        <time>2014-10-02T13:56:32Z</time>
      </trkpt>
      <trkpt lat="43.35794" lon="2.44514">
        <ele>601.44</ele>
        <time>2014-10-02T13:56:46Z</time>
      </trkpt>
      <trkpt lat="43.35797" lon="2.44515">
        <ele>602.88</ele>
        <time>2014-10-02T13:56:57Z</time>
      </trkpt>
      <trkpt lat="43.35801" lon="2.44513">
        <ele>604.81</ele>
        <time>2014-10-02T13:57:11Z</time>
      </trkpt>
      <trkpt lat="43.35802" lon="2.44513">
        <ele>606.73</ele>
        <time>2014-10-02T13:57:24Z</time>
      </trkpt>
      <trkpt lat="43.35804" lon="2.44513">
        <ele>608.65</ele>
        <time>2014-10-02T13:57:37Z</time>
      </trkpt>
      <trkpt lat="43.35807" lon="2.44514">
        <ele>610.09</ele>
        <time>2014-10-02T13:57:45Z</time>
      </trkpt>
      <trkpt lat="43.35813" lon="2.44525">
        <ele>609.61</ele>
        <time>2014-10-02T13:57:57Z</time>
      </trkpt>
      <trkpt lat="43.35814" lon="2.44525">
        <ele>610.57</ele>
        <time>2014-10-02T13:57:58Z</time>
      </trkpt>
      <trkpt lat="43.35819" lon="2.4453">
        <ele>612.5</ele>
        <time>2014-10-02T13:58:12Z</time>
      </trkpt>
      <trkpt lat="43.35821" lon="2.4453">
        <ele>613.94</ele>
        <time>2014-10-02T13:58:26Z</time>
      </trkpt>
      <trkpt lat="43.35825" lon="2.44532">
        <ele>614.9</ele>
        <time>2014-10-02T13:58:33Z</time>
      </trkpt>
      <trkpt lat="43.35833" lon="2.44535">
        <ele>615.86</ele>
        <time>2014-10-02T13:58:46Z</time>
      </trkpt>
      <trkpt lat="43.35836" lon="2.44536">
        <ele>617.78</ele>
        <time>2014-10-02T13:58:59Z</time>
      </trkpt>
      <trkpt lat="43.35844" lon="2.44538">
        <ele>620.67</ele>
        <time>2014-10-02T13:59:13Z</time>
      </trkpt>
      <trkpt lat="43.35847" lon="2.44537">
        <ele>622.11</ele>
        <time>2014-10-02T13:59:26Z</time>
      </trkpt>
      <trkpt lat="43.35852" lon="2.44536">
        <ele>623.55</ele>
        <time>2014-10-02T13:59:37Z</time>
      </trkpt>
      <trkpt lat="43.35853" lon="2.44535">
        <ele>624.03</ele>
        <time>2014-10-02T13:59:45Z</time>
      </trkpt>
      <trkpt lat="43.3586" lon="2.44536">
        <ele>625.47</ele>
        <time>2014-10-02T13:59:56Z</time>
      </trkpt>
      <trkpt lat="43.35865" lon="2.44536">
        <ele>627.4</ele>
        <time>2014-10-02T14:00:09Z</time>
      </trkpt>
      <trkpt lat="43.35868" lon="2.44535">
        <ele>628.36</ele>
        <time>2014-10-02T14:00:21Z</time>
      </trkpt>
      <trkpt lat="43.35874" lon="2.44535">
        <ele>630.28</ele>
        <time>2014-10-02T14:00:37Z</time>
      </trkpt>
      <trkpt lat="43.35875" lon="2.44536">
        <ele>629.8</ele>
        <time>2014-10-02T14:00:50Z</time>
      </trkpt>
      <trkpt lat="43.35876" lon="2.44536">
        <ele>630.76</ele>
        <time>2014-10-02T14:01:04Z</time>
      </trkpt>
      <trkpt lat="43.35877" lon="2.44535">
        <ele>632.2</ele>
        <time>2014-10-02T14:01:11Z</time>
      </trkpt>
      <trkpt lat="43.35883" lon="2.44516">
        <ele>633.17</ele>
        <time>2014-10-02T14:01:28Z</time>
      </trkpt>
      <trkpt lat="43.35885" lon="2.44513">
        <ele>632.68</ele>
        <time>2014-10-02T14:01:32Z</time>
      </trkpt>
      <trkpt lat="43.35888" lon="2.44506">
        <ele>634.13</ele>
        <time>2014-10-02T14:01:39Z</time>
      </trkpt>
      <trkpt lat="43.35894" lon="2.4449">
        <ele>635.57</ele>
        <time>2014-10-02T14:01:53Z</time>
      </trkpt>
      <trkpt lat="43.35897" lon="2.44483">
        <ele>637.49</ele>
        <time>2014-10-02T14:02:05Z</time>
      </trkpt>
      <trkpt lat="43.359" lon="2.44468">
        <ele>637.49</ele>
        <time>2014-10-02T14:02:18Z</time>
      </trkpt>
      <trkpt lat="43.35906" lon="2.4446">
        <ele>638.93</ele>
        <time>2014-10-02T14:02:30Z</time>
      </trkpt>
      <trkpt lat="43.35908" lon="2.44458">
        <ele>638.45</ele>
        <time>2014-10-02T14:02:34Z</time>
      </trkpt>
      <trkpt lat="43.35913" lon="2.44454">
        <ele>639.41</ele>
        <time>2014-10-02T14:02:46Z</time>
      </trkpt>
      <trkpt lat="43.35913" lon="2.44454">
        <ele>639.41</ele>
        <time>2014-10-02T14:03:02Z</time>
      </trkpt>
      <trkpt lat="43.35911" lon="2.44454">
        <ele>638.93</ele>
        <time>2014-10-02T14:03:08Z</time>
      </trkpt>
      <trkpt lat="43.35905" lon="2.44456">
        <ele>638.45</ele>
        <time>2014-10-02T14:03:21Z</time>
      </trkpt>
      <trkpt lat="43.35908" lon="2.44454">
        <ele>638.93</ele>
        <time>2014-10-02T14:03:31Z</time>
      </trkpt>
      <trkpt lat="43.35908" lon="2.44455">
        <ele>638.93</ele>
        <time>2014-10-02T14:04:01Z</time>
      </trkpt>
      <trkpt lat="43.35909" lon="2.44455">
        <ele>638.93</ele>
        <time>2014-10-02T14:04:16Z</time>
      </trkpt>
      <trkpt lat="43.35909" lon="2.44455">
        <ele>639.41</ele>
        <time>2014-10-02T14:04:39Z</time>
      </trkpt>
      <trkpt lat="43.35911" lon="2.44455">
        <ele>640.86</ele>
        <time>2014-10-02T14:04:51Z</time>
      </trkpt>
      <trkpt lat="43.35921" lon="2.44461">
        <ele>642.78</ele>
        <time>2014-10-02T14:05:02Z</time>
      </trkpt>
      <trkpt lat="43.35933" lon="2.44462">
        <ele>645.18</ele>
        <time>2014-10-02T14:05:17Z</time>
      </trkpt>
      <trkpt lat="43.35937" lon="2.44463">
        <ele>645.66</ele>
        <time>2014-10-02T14:05:22Z</time>
      </trkpt>
      <trkpt lat="43.35943" lon="2.44462">
        <ele>646.62</ele>
        <time>2014-10-02T14:05:29Z</time>
      </trkpt>
      <trkpt lat="43.35951" lon="2.4446">
        <ele>648.07</ele>
        <time>2014-10-02T14:05:41Z</time>
      </trkpt>
      <trkpt lat="43.35953" lon="2.44459">
        <ele>649.03</ele>
        <time>2014-10-02T14:05:44Z</time>
      </trkpt>
      <trkpt lat="43.35957" lon="2.4446">
        <ele>649.99</ele>
        <time>2014-10-02T14:05:57Z</time>
      </trkpt>
      <trkpt lat="43.35959" lon="2.44461">
        <ele>650.95</ele>
        <time>2014-10-02T14:06:01Z</time>
      </trkpt>
      <trkpt lat="43.35968" lon="2.44462">
        <ele>653.83</ele>
        <time>2014-10-02T14:06:13Z</time>
      </trkpt>
      <trkpt lat="43.35976" lon="2.44461">
        <ele>656.24</ele>
        <time>2014-10-02T14:06:26Z</time>
      </trkpt>
      <trkpt lat="43.35982" lon="2.4446">
        <ele>657.68</ele>
        <time>2014-10-02T14:06:38Z</time>
      </trkpt>
      <trkpt lat="43.35988" lon="2.44458">
        <ele>659.6</ele>
        <time>2014-10-02T14:06:52Z</time>
      </trkpt>
      <trkpt lat="43.35996" lon="2.44459">
        <ele>661.04</ele>
        <time>2014-10-02T14:07:05Z</time>
      </trkpt>
      <trkpt lat="43.36005" lon="2.44454">
        <ele>663.93</ele>
        <time>2014-10-02T14:07:19Z</time>
      </trkpt>
      <trkpt lat="43.36006" lon="2.44453">
        <ele>662.97</ele>
        <time>2014-10-02T14:07:21Z</time>
      </trkpt>
      <trkpt lat="43.36015" lon="2.44452">
        <ele>664.89</ele>
        <time>2014-10-02T14:07:34Z</time>
      </trkpt>
      <trkpt lat="43.36022" lon="2.44452">
        <ele>666.81</ele>
        <time>2014-10-02T14:07:46Z</time>
      </trkpt>
      <trkpt lat="43.36023" lon="2.44451">
        <ele>668.73</ele>
        <time>2014-10-02T14:07:59Z</time>
      </trkpt>
      <trkpt lat="43.36026" lon="2.44451">
        <ele>670.18</ele>
        <time>2014-10-02T14:08:12Z</time>
      </trkpt>
      <trkpt lat="43.36027" lon="2.44451">
        <ele>671.62</ele>
        <time>2014-10-02T14:08:25Z</time>
      </trkpt>
      <trkpt lat="43.36032" lon="2.44452">
        <ele>673.54</ele>
        <time>2014-10-02T14:08:40Z</time>
      </trkpt>
      <trkpt lat="43.36036" lon="2.44453">
        <ele>675.46</ele>
        <time>2014-10-02T14:08:51Z</time>
      </trkpt>
      <trkpt lat="43.36041" lon="2.44454">
        <ele>675.94</ele>
        <time>2014-10-02T14:09:03Z</time>
      </trkpt>
      <trkpt lat="43.36043" lon="2.44455">
        <ele>677.87</ele>
        <time>2014-10-02T14:09:16Z</time>
      </trkpt>
      <trkpt lat="43.36048" lon="2.44456">
        <ele>680.27</ele>
        <time>2014-10-02T14:09:28Z</time>
      </trkpt>
      <trkpt lat="43.36051" lon="2.44457">
        <ele>681.71</ele>
        <time>2014-10-02T14:09:41Z</time>
      </trkpt>
      <trkpt lat="43.36054" lon="2.44462">
        <ele>683.63</ele>
        <time>2014-10-02T14:09:54Z</time>
      </trkpt>
      <trkpt lat="43.36058" lon="2.44464">
        <ele>685.56</ele>
        <time>2014-10-02T14:10:07Z</time>
      </trkpt>
      <trkpt lat="43.36061" lon="2.4447">
        <ele>687.48</ele>
        <time>2014-10-02T14:10:16Z</time>
      </trkpt>
      <trkpt lat="43.36062" lon="2.44472">
        <ele>687.48</ele>
        <time>2014-10-02T14:10:21Z</time>
      </trkpt>
      <trkpt lat="43.36064" lon="2.44481">
        <ele>689.4</ele>
        <time>2014-10-02T14:10:32Z</time>
      </trkpt>
      <trkpt lat="43.36068" lon="2.44487">
        <ele>690.36</ele>
        <time>2014-10-02T14:10:43Z</time>
      </trkpt>
      <trkpt lat="43.3607" lon="2.4449">
        <ele>690.84</ele>
        <time>2014-10-02T14:10:54Z</time>
      </trkpt>
      <trkpt lat="43.36073" lon="2.44495">
        <ele>692.29</ele>
        <time>2014-10-02T14:11:05Z</time>
      </trkpt>
      <trkpt lat="43.36074" lon="2.44497">
        <ele>694.21</ele>
        <time>2014-10-02T14:11:17Z</time>
      </trkpt>
      <trkpt lat="43.36078" lon="2.44501">
        <ele>695.65</ele>
        <time>2014-10-02T14:11:26Z</time>
      </trkpt>
      <trkpt lat="43.36082" lon="2.44505">
        <ele>696.13</ele>
        <time>2014-10-02T14:11:38Z</time>
      </trkpt>
      <trkpt lat="43.36084" lon="2.44505">
        <ele>699.02</ele>
        <time>2014-10-02T14:11:51Z</time>
      </trkpt>
      <trkpt lat="43.36086" lon="2.44504">
        <ele>699.02</ele>
        <time>2014-10-02T14:12:05Z</time>
      </trkpt>
      <trkpt lat="43.36088" lon="2.44505">
        <ele>699.5</ele>
        <time>2014-10-02T14:12:20Z</time>
      </trkpt>
      <trkpt lat="43.36095" lon="2.44504">
        <ele>699.5</ele>
        <time>2014-10-02T14:12:31Z</time>
      </trkpt>
      <trkpt lat="43.36096" lon="2.44505">
        <ele>699.98</ele>
        <time>2014-10-02T14:12:43Z</time>
      </trkpt>
      <trkpt lat="43.36097" lon="2.44505">
        <ele>699.98</ele>
        <time>2014-10-02T14:13:08Z</time>
      </trkpt>
      <trkpt lat="43.361" lon="2.44511">
        <ele>699.98</ele>
        <time>2014-10-02T14:13:19Z</time>
      </trkpt>
      <trkpt lat="43.36103" lon="2.44514">
        <ele>699.5</ele>
        <time>2014-10-02T14:13:23Z</time>
      </trkpt>
      <trkpt lat="43.36107" lon="2.44519">
        <ele>699.5</ele>
        <time>2014-10-02T14:13:28Z</time>
      </trkpt>
      <trkpt lat="43.36112" lon="2.44527">
        <ele>699.02</ele>
        <time>2014-10-02T14:13:36Z</time>
      </trkpt>
      <trkpt lat="43.36115" lon="2.4453">
        <ele>697.57</ele>
        <time>2014-10-02T14:13:47Z</time>
      </trkpt>
      <trkpt lat="43.36118" lon="2.44537">
        <ele>696.61</ele>
        <time>2014-10-02T14:13:52Z</time>
      </trkpt>
      <trkpt lat="43.36119" lon="2.44544">
        <ele>695.65</ele>
        <time>2014-10-02T14:13:56Z</time>
      </trkpt>
      <trkpt lat="43.3612" lon="2.4455">
        <ele>695.17</ele>
        <time>2014-10-02T14:13:59Z</time>
      </trkpt>
      <trkpt lat="43.36122" lon="2.44553">
        <ele>694.69</ele>
        <time>2014-10-02T14:14:02Z</time>
      </trkpt>
      <trkpt lat="43.36123" lon="2.44567">
        <ele>693.25</ele>
        <time>2014-10-02T14:14:11Z</time>
      </trkpt>
      <trkpt lat="43.36123" lon="2.4457">
        <ele>692.77</ele>
        <time>2014-10-02T14:14:15Z</time>
      </trkpt>
      <trkpt lat="43.36122" lon="2.44574">
        <ele>691.81</ele>
        <time>2014-10-02T14:14:18Z</time>
      </trkpt>
      <trkpt lat="43.36123" lon="2.44578">
        <ele>691.33</ele>
        <time>2014-10-02T14:14:21Z</time>
      </trkpt>
      <trkpt lat="43.36121" lon="2.44581">
        <ele>691.33</ele>
        <time>2014-10-02T14:14:24Z</time>
      </trkpt>
      <trkpt lat="43.36115" lon="2.44597">
        <ele>689.4</ele>
        <time>2014-10-02T14:14:37Z</time>
      </trkpt>
      <trkpt lat="43.36107" lon="2.44609">
        <ele>686.52</ele>
        <time>2014-10-02T14:14:49Z</time>
      </trkpt>
      <trkpt lat="43.36104" lon="2.44614">
        <ele>686.04</ele>
        <time>2014-10-02T14:14:55Z</time>
      </trkpt>
      <trkpt lat="43.36103" lon="2.44625">
        <ele>684.12</ele>
        <time>2014-10-02T14:15:03Z</time>
      </trkpt>
      <trkpt lat="43.36101" lon="2.44636">
        <ele>682.67</ele>
        <time>2014-10-02T14:15:12Z</time>
      </trkpt>
      <trkpt lat="43.36102" lon="2.44648">
        <ele>680.27</ele>
        <time>2014-10-02T14:15:23Z</time>
      </trkpt>
      <trkpt lat="43.36098" lon="2.44651">
        <ele>678.83</ele>
        <time>2014-10-02T14:15:33Z</time>
      </trkpt>
      <trkpt lat="43.36095" lon="2.44653">
        <ele>677.87</ele>
        <time>2014-10-02T14:15:37Z</time>
      </trkpt>
      <trkpt lat="43.36089" lon="2.44662">
        <ele>675.94</ele>
        <time>2014-10-02T14:15:47Z</time>
      </trkpt>
      <trkpt lat="43.36085" lon="2.44674">
        <ele>673.54</ele>
        <time>2014-10-02T14:15:59Z</time>
      </trkpt>
      <trkpt lat="43.36082" lon="2.4469">
        <ele>673.06</ele>
        <time>2014-10-02T14:16:10Z</time>
      </trkpt>
      <trkpt lat="43.36081" lon="2.44701">
        <ele>672.58</ele>
        <time>2014-10-02T14:16:20Z</time>
      </trkpt>
      <trkpt lat="43.36082" lon="2.4471">
        <ele>672.58</ele>
        <time>2014-10-02T14:16:27Z</time>
      </trkpt>
      <trkpt lat="43.36083" lon="2.4472">
        <ele>672.58</ele>
        <time>2014-10-02T14:16:35Z</time>
      </trkpt>
      <trkpt lat="43.36083" lon="2.4473">
        <ele>671.62</ele>
        <time>2014-10-02T14:16:47Z</time>
      </trkpt>
      <trkpt lat="43.36084" lon="2.44732">
        <ele>671.62</ele>
        <time>2014-10-02T14:16:48Z</time>
      </trkpt>
      <trkpt lat="43.36081" lon="2.44752">
        <ele>671.62</ele>
        <time>2014-10-02T14:17:02Z</time>
      </trkpt>
      <trkpt lat="43.36081" lon="2.44755">
        <ele>672.1</ele>
        <time>2014-10-02T14:17:04Z</time>
      </trkpt>
      <trkpt lat="43.3608" lon="2.4476">
        <ele>671.62</ele>
        <time>2014-10-02T14:17:08Z</time>
      </trkpt>
      <trkpt lat="43.36079" lon="2.4478">
        <ele>670.18</ele>
        <time>2014-10-02T14:17:21Z</time>
      </trkpt>
      <trkpt lat="43.36078" lon="2.44801">
        <ele>671.14</ele>
        <time>2014-10-02T14:17:35Z</time>
      </trkpt>
      <trkpt lat="43.36077" lon="2.44804">
        <ele>671.14</ele>
        <time>2014-10-02T14:17:37Z</time>
      </trkpt>
      <trkpt lat="43.36076" lon="2.44812">
        <ele>671.62</ele>
        <time>2014-10-02T14:17:44Z</time>
      </trkpt>
      <trkpt lat="43.36077" lon="2.44823">
        <ele>672.58</ele>
        <time>2014-10-02T14:17:57Z</time>
      </trkpt>
      <trkpt lat="43.36077" lon="2.44825">
        <ele>672.58</ele>
        <time>2014-10-02T14:18:01Z</time>
      </trkpt>
      <trkpt lat="43.36076" lon="2.44835">
        <ele>672.1</ele>
        <time>2014-10-02T14:18:09Z</time>
      </trkpt>
      <trkpt lat="43.36072" lon="2.44847">
        <ele>670.18</ele>
        <time>2014-10-02T14:18:18Z</time>
      </trkpt>
      <trkpt lat="43.36068" lon="2.44851">
        <ele>670.66</ele>
        <time>2014-10-02T14:18:24Z</time>
      </trkpt>
      <trkpt lat="43.36066" lon="2.44862">
        <ele>673.06</ele>
        <time>2014-10-02T14:18:35Z</time>
      </trkpt>
      <trkpt lat="43.36066" lon="2.44865">
        <ele>674.02</ele>
        <time>2014-10-02T14:18:38Z</time>
      </trkpt>
      <trkpt lat="43.36065" lon="2.44873">
        <ele>675.94</ele>
        <time>2014-10-02T14:18:46Z</time>
      </trkpt>
      <trkpt lat="43.36062" lon="2.44885">
        <ele>677.39</ele>
        <time>2014-10-02T14:18:57Z</time>
      </trkpt>
      <trkpt lat="43.36061" lon="2.44892">
        <ele>678.83</ele>
        <time>2014-10-02T14:19:07Z</time>
      </trkpt>
      <trkpt lat="43.3606" lon="2.44901">
        <ele>680.27</ele>
        <time>2014-10-02T14:19:19Z</time>
      </trkpt>
      <trkpt lat="43.36059" lon="2.44903">
        <ele>679.79</ele>
        <time>2014-10-02T14:19:21Z</time>
      </trkpt>
      <trkpt lat="43.36057" lon="2.4491">
        <ele>680.27</ele>
        <time>2014-10-02T14:19:27Z</time>
      </trkpt>
      <trkpt lat="43.36055" lon="2.44921">
        <ele>680.75</ele>
        <time>2014-10-02T14:19:38Z</time>
      </trkpt>
      <trkpt lat="43.36051" lon="2.44936">
        <ele>682.19</ele>
        <time>2014-10-02T14:19:54Z</time>
      </trkpt>
      <trkpt lat="43.36054" lon="2.44946">
        <ele>684.12</ele>
        <time>2014-10-02T14:20:06Z</time>
      </trkpt>
      <trkpt lat="43.36053" lon="2.44951">
        <ele>686.04</ele>
        <time>2014-10-02T14:20:18Z</time>
      </trkpt>
      <trkpt lat="43.3605" lon="2.44961">
        <ele>686.04</ele>
        <time>2014-10-02T14:20:35Z</time>
      </trkpt>
      <trkpt lat="43.36047" lon="2.44969">
        <ele>686.04</ele>
        <time>2014-10-02T14:20:47Z</time>
      </trkpt>
      <trkpt lat="43.36048" lon="2.4497">
        <ele>684.12</ele>
        <time>2014-10-02T14:20:54Z</time>
      </trkpt>
      <trkpt lat="43.36048" lon="2.4497">
        <ele>684.6</ele>
        <time>2014-10-02T14:21:16Z</time>
      </trkpt>
      <trkpt lat="43.36045" lon="2.44975">
        <ele>684.6</ele>
        <time>2014-10-02T14:21:29Z</time>
      </trkpt>
      <trkpt lat="43.36046" lon="2.44974">
        <ele>684.6</ele>
        <time>2014-10-02T14:21:50Z</time>
      </trkpt>
      <trkpt lat="43.36045" lon="2.44974">
        <ele>683.63</ele>
        <time>2014-10-02T14:22:03Z</time>
      </trkpt>
      <trkpt lat="43.36045" lon="2.44974">
        <ele>684.6</ele>
        <time>2014-10-02T14:22:26Z</time>
      </trkpt>
      <trkpt lat="43.36045" lon="2.44974">
        <ele>684.6</ele>
        <time>2014-10-02T14:22:46Z</time>
      </trkpt>
      <trkpt lat="43.36045" lon="2.44975">
        <ele>685.08</ele>
        <time>2014-10-02T14:23:08Z</time>
      </trkpt>
      <trkpt lat="43.36044" lon="2.44974">
        <ele>684.12</ele>
        <time>2014-10-02T14:23:33Z</time>
      </trkpt>
      <trkpt lat="43.36044" lon="2.44974">
        <ele>686.52</ele>
        <time>2014-10-02T14:23:40Z</time>
      </trkpt>
      <trkpt lat="43.36044" lon="2.44974">
        <ele>685.08</ele>
        <time>2014-10-02T14:23:43Z</time>
      </trkpt>
      <trkpt lat="43.36047" lon="2.44966">
        <ele>684.6</ele>
        <time>2014-10-02T14:23:56Z</time>
      </trkpt>
      <trkpt lat="43.36047" lon="2.44956">
        <ele>684.6</ele>
        <time>2014-10-02T14:24:08Z</time>
      </trkpt>
      <trkpt lat="43.36049" lon="2.44944">
        <ele>683.63</ele>
        <time>2014-10-02T14:24:21Z</time>
      </trkpt>
      <trkpt lat="43.3605" lon="2.44935">
        <ele>681.23</ele>
        <time>2014-10-02T14:24:33Z</time>
      </trkpt>
      <trkpt lat="43.36052" lon="2.44927">
        <ele>680.75</ele>
        <time>2014-10-02T14:24:41Z</time>
      </trkpt>
      <trkpt lat="43.36053" lon="2.44925">
        <ele>680.75</ele>
        <time>2014-10-02T14:24:43Z</time>
      </trkpt>
      <trkpt lat="43.36054" lon="2.44922">
        <ele>681.23</ele>
        <time>2014-10-02T14:24:45Z</time>
      </trkpt>
      <trkpt lat="43.36054" lon="2.44918">
        <ele>679.31</ele>
        <time>2014-10-02T14:24:48Z</time>
      </trkpt>
      <trkpt lat="43.36055" lon="2.44915">
        <ele>678.83</ele>
        <time>2014-10-02T14:24:50Z</time>
      </trkpt>
      <trkpt lat="43.36059" lon="2.449">
        <ele>678.35</ele>
        <time>2014-10-02T14:25:04Z</time>
      </trkpt>
      <trkpt lat="43.36062" lon="2.44889">
        <ele>676.91</ele>
        <time>2014-10-02T14:25:16Z</time>
      </trkpt>
      <trkpt lat="43.36063" lon="2.4488">
        <ele>675.94</ele>
        <time>2014-10-02T14:25:28Z</time>
      </trkpt>
      <trkpt lat="43.36063" lon="2.44874">
        <ele>675.94</ele>
        <time>2014-10-02T14:25:42Z</time>
      </trkpt>
      <trkpt lat="43.36063" lon="2.44864">
        <ele>674.02</ele>
        <time>2014-10-02T14:25:53Z</time>
      </trkpt>
      <trkpt lat="43.36067" lon="2.44853">
        <ele>672.1</ele>
        <time>2014-10-02T14:26:06Z</time>
      </trkpt>
      <trkpt lat="43.36069" lon="2.44844">
        <ele>670.18</ele>
        <time>2014-10-02T14:26:12Z</time>
      </trkpt>
      <trkpt lat="43.3607" lon="2.4484">
        <ele>670.66</ele>
        <time>2014-10-02T14:26:15Z</time>
      </trkpt>
      <trkpt lat="43.36072" lon="2.44832">
        <ele>671.14</ele>
        <time>2014-10-02T14:26:21Z</time>
      </trkpt>
      <trkpt lat="43.36076" lon="2.44826">
        <ele>673.54</ele>
        <time>2014-10-02T14:26:27Z</time>
      </trkpt>
      <trkpt lat="43.3608" lon="2.44812">
        <ele>674.98</ele>
        <time>2014-10-02T14:26:39Z</time>
      </trkpt>
      <trkpt lat="43.36081" lon="2.44808">
        <ele>671.14</ele>
        <time>2014-10-02T14:26:44Z</time>
      </trkpt>
      <trkpt lat="43.36079" lon="2.44804">
        <ele>671.62</ele>
        <time>2014-10-02T14:26:47Z</time>
      </trkpt>
      <trkpt lat="43.36079" lon="2.44784">
        <ele>669.7</ele>
        <time>2014-10-02T14:27:00Z</time>
      </trkpt>
      <trkpt lat="43.36082" lon="2.44764">
        <ele>672.1</ele>
        <time>2014-10-02T14:27:15Z</time>
      </trkpt>
      <trkpt lat="43.36083" lon="2.44746">
        <ele>671.62</ele>
        <time>2014-10-02T14:27:29Z</time>
      </trkpt>
      <trkpt lat="43.36084" lon="2.44729">
        <ele>671.62</ele>
        <time>2014-10-02T14:27:42Z</time>
      </trkpt>
      <trkpt lat="43.36084" lon="2.44715">
        <ele>673.54</ele>
        <time>2014-10-02T14:27:55Z</time>
      </trkpt>
      <trkpt lat="43.36083" lon="2.44711">
        <ele>673.06</ele>
        <time>2014-10-02T14:27:59Z</time>
      </trkpt>
      <trkpt lat="43.36081" lon="2.44696">
        <ele>672.58</ele>
        <time>2014-10-02T14:28:11Z</time>
      </trkpt>
      <trkpt lat="43.36085" lon="2.44673">
        <ele>674.5</ele>
        <time>2014-10-02T14:28:27Z</time>
      </trkpt>
      <trkpt lat="43.36088" lon="2.4466">
        <ele>677.39</ele>
        <time>2014-10-02T14:28:39Z</time>
      </trkpt>
      <trkpt lat="43.36093" lon="2.44657">
        <ele>677.87</ele>
        <time>2014-10-02T14:28:51Z</time>
      </trkpt>
      <trkpt lat="43.36095" lon="2.44654">
        <ele>679.31</ele>
        <time>2014-10-02T14:28:56Z</time>
      </trkpt>
      <trkpt lat="43.36102" lon="2.44648">
        <ele>680.75</ele>
        <time>2014-10-02T14:29:08Z</time>
      </trkpt>
      <trkpt lat="43.36101" lon="2.44636">
        <ele>683.15</ele>
        <time>2014-10-02T14:29:18Z</time>
      </trkpt>
      <trkpt lat="43.36104" lon="2.4462">
        <ele>685.56</ele>
        <time>2014-10-02T14:29:33Z</time>
      </trkpt>
      <trkpt lat="43.36107" lon="2.44604">
        <ele>687.48</ele>
        <time>2014-10-02T14:29:47Z</time>
      </trkpt>
      <trkpt lat="43.36114" lon="2.44592">
        <ele>688.92</ele>
        <time>2014-10-02T14:30:01Z</time>
      </trkpt>
      <trkpt lat="43.36117" lon="2.44581">
        <ele>691.33</ele>
        <time>2014-10-02T14:30:11Z</time>
      </trkpt>
      <trkpt lat="43.36121" lon="2.44572">
        <ele>692.29</ele>
        <time>2014-10-02T14:30:21Z</time>
      </trkpt>
      <trkpt lat="43.36123" lon="2.4457">
        <ele>692.29</ele>
        <time>2014-10-02T14:30:24Z</time>
      </trkpt>
      <trkpt lat="43.3613" lon="2.44557">
        <ele>695.17</ele>
        <time>2014-10-02T14:30:37Z</time>
      </trkpt>
      <trkpt lat="43.3613" lon="2.44556">
        <ele>694.21</ele>
        <time>2014-10-02T14:30:38Z</time>
      </trkpt>
      <trkpt lat="43.36133" lon="2.44552">
        <ele>695.17</ele>
        <time>2014-10-02T14:30:43Z</time>
      </trkpt>
      <trkpt lat="43.36134" lon="2.4455">
        <ele>695.65</ele>
        <time>2014-10-02T14:30:45Z</time>
      </trkpt>
      <trkpt lat="43.36136" lon="2.44546">
        <ele>696.13</ele>
        <time>2014-10-02T14:30:49Z</time>
      </trkpt>
      <trkpt lat="43.36141" lon="2.44543">
        <ele>696.61</ele>
        <time>2014-10-02T14:30:54Z</time>
      </trkpt>
      <trkpt lat="43.3615" lon="2.44537">
        <ele>698.53</ele>
        <time>2014-10-02T14:31:07Z</time>
      </trkpt>
      <trkpt lat="43.36156" lon="2.44532">
        <ele>699.98</ele>
        <time>2014-10-02T14:31:16Z</time>
      </trkpt>
      <trkpt lat="43.36167" lon="2.44525">
        <ele>701.42</ele>
        <time>2014-10-02T14:31:28Z</time>
      </trkpt>
      <trkpt lat="43.36174" lon="2.44522">
        <ele>700.46</ele>
        <time>2014-10-02T14:31:35Z</time>
      </trkpt>
      <trkpt lat="43.36176" lon="2.44522">
        <ele>699.98</ele>
        <time>2014-10-02T14:31:37Z</time>
      </trkpt>
      <trkpt lat="43.36187" lon="2.4452">
        <ele>699.02</ele>
        <time>2014-10-02T14:31:48Z</time>
      </trkpt>
      <trkpt lat="43.3619" lon="2.4452">
        <ele>698.53</ele>
        <time>2014-10-02T14:31:51Z</time>
      </trkpt>
      <trkpt lat="43.36202" lon="2.44518">
        <ele>698.53</ele>
        <time>2014-10-02T14:32:01Z</time>
      </trkpt>
      <trkpt lat="43.36205" lon="2.44518">
        <ele>698.05</ele>
        <time>2014-10-02T14:32:04Z</time>
      </trkpt>
      <trkpt lat="43.36207" lon="2.44515">
        <ele>697.57</ele>
        <time>2014-10-02T14:32:07Z</time>
      </trkpt>
      <trkpt lat="43.36219" lon="2.44512">
        <ele>698.05</ele>
        <time>2014-10-02T14:32:19Z</time>
      </trkpt>
      <trkpt lat="43.36235" lon="2.44501">
        <ele>699.02</ele>
        <time>2014-10-02T14:32:34Z</time>
      </trkpt>
      <trkpt lat="43.36239" lon="2.44501">
        <ele>699.5</ele>
        <time>2014-10-02T14:32:37Z</time>
      </trkpt>
      <trkpt lat="43.36255" lon="2.44495">
        <ele>700.94</ele>
        <time>2014-10-02T14:32:51Z</time>
      </trkpt>
      <trkpt lat="43.36264" lon="2.44487">
        <ele>701.42</ele>
        <time>2014-10-02T14:33:01Z</time>
      </trkpt>
      <trkpt lat="43.36271" lon="2.44483">
        <ele>702.38</ele>
        <time>2014-10-02T14:33:08Z</time>
      </trkpt>
      <trkpt lat="43.36284" lon="2.44477">
        <ele>703.34</ele>
        <time>2014-10-02T14:33:22Z</time>
      </trkpt>
      <trkpt lat="43.36298" lon="2.44477">
        <ele>703.82</ele>
        <time>2014-10-02T14:33:36Z</time>
      </trkpt>
      <trkpt lat="43.36311" lon="2.44483">
        <ele>704.3</ele>
        <time>2014-10-02T14:33:50Z</time>
      </trkpt>
      <trkpt lat="43.36319" lon="2.44485">
        <ele>704.3</ele>
        <time>2014-10-02T14:33:57Z</time>
      </trkpt>
      <trkpt lat="43.36337" lon="2.44482">
        <ele>704.3</ele>
        <time>2014-10-02T14:34:14Z</time>
      </trkpt>
      <trkpt lat="43.36351" lon="2.44483">
        <ele>703.82</ele>
        <time>2014-10-02T14:34:28Z</time>
      </trkpt>
      <trkpt lat="43.36368" lon="2.44483">
        <ele>703.82</ele>
        <time>2014-10-02T14:34:43Z</time>
      </trkpt>
      <trkpt lat="43.36385" lon="2.4448">
        <ele>703.82</ele>
        <time>2014-10-02T14:34:58Z</time>
      </trkpt>
      <trkpt lat="43.36391" lon="2.44477">
        <ele>702.86</ele>
        <time>2014-10-02T14:35:06Z</time>
      </trkpt>
      <trkpt lat="43.36398" lon="2.44472">
        <ele>702.86</ele>
        <time>2014-10-02T14:35:13Z</time>
      </trkpt>
      <trkpt lat="43.36401" lon="2.44469">
        <ele>702.38</ele>
        <time>2014-10-02T14:35:20Z</time>
      </trkpt>
      <trkpt lat="43.36413" lon="2.44457">
        <ele>702.38</ele>
        <time>2014-10-02T14:35:34Z</time>
      </trkpt>
      <trkpt lat="43.36416" lon="2.44446">
        <ele>701.42</ele>
        <time>2014-10-02T14:35:42Z</time>
      </trkpt>
      <trkpt lat="43.36415" lon="2.44428">
        <ele>700.46</ele>
        <time>2014-10-02T14:35:55Z</time>
      </trkpt>
      <trkpt lat="43.36416" lon="2.4442">
        <ele>699.98</ele>
        <time>2014-10-02T14:36:10Z</time>
      </trkpt>
      <trkpt lat="43.36416" lon="2.44413">
        <ele>699.98</ele>
        <time>2014-10-02T14:36:26Z</time>
      </trkpt>
      <trkpt lat="43.36415" lon="2.44411">
        <ele>700.46</ele>
        <time>2014-10-02T14:36:39Z</time>
      </trkpt>
      <trkpt lat="43.36415" lon="2.44413">
        <ele>700.94</ele>
        <time>2014-10-02T14:36:48Z</time>
      </trkpt>
      <trkpt lat="43.36415" lon="2.44418">
        <ele>701.42</ele>
        <time>2014-10-02T14:36:52Z</time>
      </trkpt>
      <trkpt lat="43.36416" lon="2.44434">
        <ele>701.9</ele>
        <time>2014-10-02T14:37:04Z</time>
      </trkpt>
      <trkpt lat="43.36417" lon="2.44446">
        <ele>702.86</ele>
        <time>2014-10-02T14:37:19Z</time>
      </trkpt>
      <trkpt lat="43.36422" lon="2.44447">
        <ele>703.34</ele>
        <time>2014-10-02T14:37:25Z</time>
      </trkpt>
      <trkpt lat="43.36432" lon="2.44448">
        <ele>705.26</ele>
        <time>2014-10-02T14:37:37Z</time>
      </trkpt>
      <trkpt lat="43.36438" lon="2.44446">
        <ele>707.67</ele>
        <time>2014-10-02T14:37:50Z</time>
      </trkpt>
      <trkpt lat="43.36445" lon="2.44444">
        <ele>709.11</ele>
        <time>2014-10-02T14:37:56Z</time>
      </trkpt>
      <trkpt lat="43.36446" lon="2.44444">
        <ele>709.11</ele>
        <time>2014-10-02T14:37:57Z</time>
      </trkpt>
      <trkpt lat="43.36452" lon="2.44441">
        <ele>711.51</ele>
        <time>2014-10-02T14:38:05Z</time>
      </trkpt>
      <trkpt lat="43.36465" lon="2.44432">
        <ele>714.88</ele>
        <time>2014-10-02T14:38:20Z</time>
      </trkpt>
      <trkpt lat="43.36473" lon="2.44425">
        <ele>717.28</ele>
        <time>2014-10-02T14:38:32Z</time>
      </trkpt>
      <trkpt lat="43.36476" lon="2.44423">
        <ele>717.28</ele>
        <time>2014-10-02T14:38:35Z</time>
      </trkpt>
      <trkpt lat="43.36485" lon="2.44399">
        <ele>718.24</ele>
        <time>2014-10-02T14:38:53Z</time>
      </trkpt>
      <trkpt lat="43.36493" lon="2.44382">
        <ele>719.2</ele>
        <time>2014-10-02T14:39:07Z</time>
      </trkpt>
      <trkpt lat="43.36495" lon="2.44379">
        <ele>718.72</ele>
        <time>2014-10-02T14:39:11Z</time>
      </trkpt>
      <trkpt lat="43.36498" lon="2.44375">
        <ele>719.2</ele>
        <time>2014-10-02T14:39:15Z</time>
      </trkpt>
      <trkpt lat="43.36505" lon="2.44355">
        <ele>720.16</ele>
        <time>2014-10-02T14:39:30Z</time>
      </trkpt>
      <trkpt lat="43.36511" lon="2.44344">
        <ele>721.13</ele>
        <time>2014-10-02T14:39:40Z</time>
      </trkpt>
      <trkpt lat="43.36517" lon="2.44323">
        <ele>721.61</ele>
        <time>2014-10-02T14:39:56Z</time>
      </trkpt>
      <trkpt lat="43.3652" lon="2.44304">
        <ele>723.05</ele>
        <time>2014-10-02T14:40:10Z</time>
      </trkpt>
      <trkpt lat="43.36522" lon="2.44292">
        <ele>724.49</ele>
        <time>2014-10-02T14:40:20Z</time>
      </trkpt>
      <trkpt lat="43.36533" lon="2.44278">
        <ele>724.97</ele>
        <time>2014-10-02T14:40:33Z</time>
      </trkpt>
      <trkpt lat="43.36543" lon="2.44262">
        <ele>724.49</ele>
        <time>2014-10-02T14:40:47Z</time>
      </trkpt>
      <trkpt lat="43.36553" lon="2.44246">
        <ele>725.45</ele>
        <time>2014-10-02T14:41:02Z</time>
      </trkpt>
      <trkpt lat="43.36567" lon="2.44229">
        <ele>726.41</ele>
        <time>2014-10-02T14:41:18Z</time>
      </trkpt>
      <trkpt lat="43.36568" lon="2.44226">
        <ele>726.89</ele>
        <time>2014-10-02T14:41:21Z</time>
      </trkpt>
      <trkpt lat="43.36572" lon="2.44216">
        <ele>728.34</ele>
        <time>2014-10-02T14:41:30Z</time>
      </trkpt>
      <trkpt lat="43.36576" lon="2.44202">
        <ele>729.78</ele>
        <time>2014-10-02T14:41:42Z</time>
      </trkpt>
      <trkpt lat="43.36576" lon="2.44201">
        <ele>729.78</ele>
        <time>2014-10-02T14:41:43Z</time>
      </trkpt>
      <trkpt lat="43.36582" lon="2.44188">
        <ele>730.74</ele>
        <time>2014-10-02T14:41:54Z</time>
      </trkpt>
      <trkpt lat="43.36594" lon="2.44177">
        <ele>731.7</ele>
        <time>2014-10-02T14:42:07Z</time>
      </trkpt>
      <trkpt lat="43.36608" lon="2.44165">
        <ele>733.14</ele>
        <time>2014-10-02T14:42:21Z</time>
      </trkpt>
      <trkpt lat="43.36615" lon="2.44159">
        <ele>733.62</ele>
        <time>2014-10-02T14:42:28Z</time>
      </trkpt>
      <trkpt lat="43.3663" lon="2.44149">
        <ele>736.03</ele>
        <time>2014-10-02T14:42:43Z</time>
      </trkpt>
      <trkpt lat="43.36639" lon="2.4414">
        <ele>737.47</ele>
        <time>2014-10-02T14:42:57Z</time>
      </trkpt>
      <trkpt lat="43.36642" lon="2.44139">
        <ele>737.47</ele>
        <time>2014-10-02T14:43:00Z</time>
      </trkpt>
      <trkpt lat="43.36644" lon="2.44137">
        <ele>737.47</ele>
        <time>2014-10-02T14:43:03Z</time>
      </trkpt>
      <trkpt lat="43.3666" lon="2.4413">
        <ele>736.03</ele>
        <time>2014-10-02T14:43:18Z</time>
      </trkpt>
      <trkpt lat="43.36665" lon="2.44126">
        <ele>736.03</ele>
        <time>2014-10-02T14:43:23Z</time>
      </trkpt>
      <trkpt lat="43.36668" lon="2.44122">
        <ele>736.51</ele>
        <time>2014-10-02T14:43:27Z</time>
      </trkpt>
      <trkpt lat="43.36674" lon="2.44116">
        <ele>736.51</ele>
        <time>2014-10-02T14:43:34Z</time>
      </trkpt>
      <trkpt lat="43.36677" lon="2.44104">
        <ele>737.47</ele>
        <time>2014-10-02T14:43:44Z</time>
      </trkpt>
      <trkpt lat="43.36681" lon="2.44103">
        <ele>737.47</ele>
        <time>2014-10-02T14:43:47Z</time>
      </trkpt>
      <trkpt lat="43.36688" lon="2.44097">
        <ele>735.55</ele>
        <time>2014-10-02T14:43:55Z</time>
      </trkpt>
      <trkpt lat="43.36693" lon="2.44095">
        <ele>735.55</ele>
        <time>2014-10-02T14:44:00Z</time>
      </trkpt>
      <trkpt lat="43.36701" lon="2.44087">
        <ele>735.55</ele>
        <time>2014-10-02T14:44:13Z</time>
      </trkpt>
      <trkpt lat="43.36705" lon="2.44091">
        <ele>736.03</ele>
        <time>2014-10-02T14:44:19Z</time>
      </trkpt>
      <trkpt lat="43.36708" lon="2.44093">
        <ele>736.51</ele>
        <time>2014-10-02T14:44:32Z</time>
      </trkpt>
      <trkpt lat="43.36708" lon="2.44092">
        <ele>736.03</ele>
        <time>2014-10-02T14:44:46Z</time>
      </trkpt>
      <trkpt lat="43.36708" lon="2.44091">
        <ele>736.51</ele>
        <time>2014-10-02T14:44:59Z</time>
      </trkpt>
      <trkpt lat="43.36702" lon="2.44086">
        <ele>736.03</ele>
        <time>2014-10-02T14:45:15Z</time>
      </trkpt>
      <trkpt lat="43.36691" lon="2.44071">
        <ele>735.07</ele>
        <time>2014-10-02T14:45:31Z</time>
      </trkpt>
      <trkpt lat="43.36687" lon="2.44067">
        <ele>735.07</ele>
        <time>2014-10-02T14:45:44Z</time>
      </trkpt>
      <trkpt lat="43.36687" lon="2.44059">
        <ele>735.07</ele>
        <time>2014-10-02T14:45:57Z</time>
      </trkpt>
      <trkpt lat="43.36686" lon="2.44053">
        <ele>734.58</ele>
        <time>2014-10-02T14:46:03Z</time>
      </trkpt>
      <trkpt lat="43.36686" lon="2.4405">
        <ele>734.58</ele>
        <time>2014-10-02T14:46:05Z</time>
      </trkpt>
      <trkpt lat="43.36686" lon="2.44038">
        <ele>733.14</ele>
        <time>2014-10-02T14:46:13Z</time>
      </trkpt>
      <trkpt lat="43.36684" lon="2.44032">
        <ele>733.14</ele>
        <time>2014-10-02T14:46:17Z</time>
      </trkpt>
      <trkpt lat="43.36677" lon="2.44017">
        <ele>732.66</ele>
        <time>2014-10-02T14:46:31Z</time>
      </trkpt>
      <trkpt lat="43.36672" lon="2.44009">
        <ele>732.18</ele>
        <time>2014-10-02T14:46:45Z</time>
      </trkpt>
      <trkpt lat="43.36665" lon="2.44003">
        <ele>733.14</ele>
        <time>2014-10-02T14:46:58Z</time>
      </trkpt>
      <trkpt lat="43.36657" lon="2.43988">
        <ele>733.62</ele>
        <time>2014-10-02T14:47:13Z</time>
      </trkpt>
      <trkpt lat="43.36652" lon="2.43966">
        <ele>734.1</ele>
        <time>2014-10-02T14:47:29Z</time>
      </trkpt>
      <trkpt lat="43.36652" lon="2.43958">
        <ele>734.1</ele>
        <time>2014-10-02T14:47:34Z</time>
      </trkpt>
      <trkpt lat="43.36657" lon="2.43943">
        <ele>732.18</ele>
        <time>2014-10-02T14:47:48Z</time>
      </trkpt>
      <trkpt lat="43.36655" lon="2.43932">
        <ele>733.14</ele>
        <time>2014-10-02T14:48:02Z</time>
      </trkpt>
      <trkpt lat="43.36647" lon="2.43917">
        <ele>734.1</ele>
        <time>2014-10-02T14:48:16Z</time>
      </trkpt>
      <trkpt lat="43.36646" lon="2.43912">
        <ele>733.62</ele>
        <time>2014-10-02T14:48:19Z</time>
      </trkpt>
      <trkpt lat="43.36645" lon="2.43905">
        <ele>734.1</ele>
        <time>2014-10-02T14:48:23Z</time>
      </trkpt>
      <trkpt lat="43.36647" lon="2.4388">
        <ele>734.58</ele>
        <time>2014-10-02T14:48:39Z</time>
      </trkpt>
      <trkpt lat="43.36647" lon="2.43876">
        <ele>735.07</ele>
        <time>2014-10-02T14:48:42Z</time>
      </trkpt>
      <trkpt lat="43.36648" lon="2.43864">
        <ele>736.51</ele>
        <time>2014-10-02T14:48:50Z</time>
      </trkpt>
      <trkpt lat="43.36648" lon="2.43841">
        <ele>738.91</ele>
        <time>2014-10-02T14:49:04Z</time>
      </trkpt>
      <trkpt lat="43.3665" lon="2.43822">
        <ele>737.95</ele>
        <time>2014-10-02T14:49:15Z</time>
      </trkpt>
      <trkpt lat="43.36648" lon="2.43797">
        <ele>738.91</ele>
        <time>2014-10-02T14:49:31Z</time>
      </trkpt>
      <trkpt lat="43.36648" lon="2.43793">
        <ele>738.91</ele>
        <time>2014-10-02T14:49:34Z</time>
      </trkpt>
      <trkpt lat="43.36644" lon="2.4377">
        <ele>738.43</ele>
        <time>2014-10-02T14:49:48Z</time>
      </trkpt>
      <trkpt lat="43.36642" lon="2.43749">
        <ele>736.99</ele>
        <time>2014-10-02T14:50:01Z</time>
      </trkpt>
      <trkpt lat="43.36642" lon="2.43748">
        <ele>736.99</ele>
        <time>2014-10-02T14:50:02Z</time>
      </trkpt>
      <trkpt lat="43.36642" lon="2.43728">
        <ele>736.03</ele>
        <time>2014-10-02T14:50:16Z</time>
      </trkpt>
      <trkpt lat="43.36638" lon="2.43706">
        <ele>736.03</ele>
        <time>2014-10-02T14:50:32Z</time>
      </trkpt>
      <trkpt lat="43.36635" lon="2.43687">
        <ele>735.55</ele>
        <time>2014-10-02T14:50:46Z</time>
      </trkpt>
      <trkpt lat="43.36635" lon="2.43675">
        <ele>735.07</ele>
        <time>2014-10-02T14:50:58Z</time>
      </trkpt>
      <trkpt lat="43.36635" lon="2.43673">
        <ele>735.07</ele>
        <time>2014-10-02T14:51:07Z</time>
      </trkpt>
      <trkpt lat="43.36633" lon="2.43666">
        <ele>735.55</ele>
        <time>2014-10-02T14:51:13Z</time>
      </trkpt>
      <trkpt lat="43.36624" lon="2.43644">
        <ele>736.51</ele>
        <time>2014-10-02T14:51:28Z</time>
      </trkpt>
      <trkpt lat="43.36618" lon="2.43636">
        <ele>736.99</ele>
        <time>2014-10-02T14:51:34Z</time>
      </trkpt>
      <trkpt lat="43.36603" lon="2.43622">
        <ele>738.91</ele>
        <time>2014-10-02T14:51:50Z</time>
      </trkpt>
      <trkpt lat="43.36589" lon="2.43614">
        <ele>737.95</ele>
        <time>2014-10-02T14:52:04Z</time>
      </trkpt>
      <trkpt lat="43.36579" lon="2.43606">
        <ele>737.95</ele>
        <time>2014-10-02T14:52:15Z</time>
      </trkpt>
      <trkpt lat="43.36564" lon="2.43594">
        <ele>736.51</ele>
        <time>2014-10-02T14:52:30Z</time>
      </trkpt>
      <trkpt lat="43.36556" lon="2.43584">
        <ele>736.03</ele>
        <time>2014-10-02T14:52:39Z</time>
      </trkpt>
      <trkpt lat="43.36542" lon="2.43563">
        <ele>734.58</ele>
        <time>2014-10-02T14:52:58Z</time>
      </trkpt>
      <trkpt lat="43.36544" lon="2.43541">
        <ele>734.58</ele>
        <time>2014-10-02T14:53:14Z</time>
      </trkpt>
      <trkpt lat="43.36551" lon="2.43518">
        <ele>733.62</ele>
        <time>2014-10-02T14:53:29Z</time>
      </trkpt>
      <trkpt lat="43.36552" lon="2.43514">
        <ele>733.14</ele>
        <time>2014-10-02T14:53:33Z</time>
      </trkpt>
      <trkpt lat="43.36553" lon="2.43508">
        <ele>733.14</ele>
        <time>2014-10-02T14:53:37Z</time>
      </trkpt>
      <trkpt lat="43.36554" lon="2.43503">
        <ele>732.66</ele>
        <time>2014-10-02T14:53:40Z</time>
      </trkpt>
      <trkpt lat="43.36558" lon="2.43482">
        <ele>731.7</ele>
        <time>2014-10-02T14:53:54Z</time>
      </trkpt>
      <trkpt lat="43.36559" lon="2.43461">
        <ele>731.22</ele>
        <time>2014-10-02T14:54:08Z</time>
      </trkpt>
      <trkpt lat="43.36559" lon="2.4346">
        <ele>730.74</ele>
        <time>2014-10-02T14:54:09Z</time>
      </trkpt>
      <trkpt lat="43.36562" lon="2.4345">
        <ele>730.26</ele>
        <time>2014-10-02T14:54:17Z</time>
      </trkpt>
      <trkpt lat="43.36564" lon="2.4344">
        <ele>730.26</ele>
        <time>2014-10-02T14:54:24Z</time>
      </trkpt>
      <trkpt lat="43.36566" lon="2.43424">
        <ele>729.78</ele>
        <time>2014-10-02T14:54:37Z</time>
      </trkpt>
      <trkpt lat="43.36567" lon="2.43423">
        <ele>729.78</ele>
        <time>2014-10-02T14:54:38Z</time>
      </trkpt>
      <trkpt lat="43.3657" lon="2.43408">
        <ele>728.82</ele>
        <time>2014-10-02T14:54:46Z</time>
      </trkpt>
      <trkpt lat="43.3657" lon="2.43404">
        <ele>728.82</ele>
        <time>2014-10-02T14:54:53Z</time>
      </trkpt>
      <trkpt lat="43.36571" lon="2.43401">
        <ele>728.82</ele>
        <time>2014-10-02T14:54:56Z</time>
      </trkpt>
      <trkpt lat="43.36572" lon="2.43394">
        <ele>728.34</ele>
        <time>2014-10-02T14:55:00Z</time>
      </trkpt>
      <trkpt lat="43.36573" lon="2.43382">
        <ele>727.37</ele>
        <time>2014-10-02T14:55:07Z</time>
      </trkpt>
      <trkpt lat="43.36573" lon="2.43377">
        <ele>727.37</ele>
        <time>2014-10-02T14:55:10Z</time>
      </trkpt>
      <trkpt lat="43.36576" lon="2.43357">
        <ele>726.41</ele>
        <time>2014-10-02T14:55:23Z</time>
      </trkpt>
      <trkpt lat="43.36579" lon="2.43335">
        <ele>724.97</ele>
        <time>2014-10-02T14:55:36Z</time>
      </trkpt>
      <trkpt lat="43.3658" lon="2.43327">
        <ele>724.49</ele>
        <time>2014-10-02T14:55:41Z</time>
      </trkpt>
      <trkpt lat="43.36581" lon="2.43316">
        <ele>724.49</ele>
        <time>2014-10-02T14:55:48Z</time>
      </trkpt>
      <trkpt lat="43.36584" lon="2.4329">
        <ele>724.01</ele>
        <time>2014-10-02T14:56:04Z</time>
      </trkpt>
      <trkpt lat="43.36584" lon="2.4327">
        <ele>723.05</ele>
        <time>2014-10-02T14:56:16Z</time>
      </trkpt>
      <trkpt lat="43.3658" lon="2.43246">
        <ele>723.05</ele>
        <time>2014-10-02T14:56:32Z</time>
      </trkpt>
      <trkpt lat="43.36579" lon="2.4324">
        <ele>723.05</ele>
        <time>2014-10-02T14:56:36Z</time>
      </trkpt>
      <trkpt lat="43.36579" lon="2.43235">
        <ele>722.57</ele>
        <time>2014-10-02T14:56:39Z</time>
      </trkpt>
      <trkpt lat="43.36567" lon="2.43211">
        <ele>723.53</ele>
        <time>2014-10-02T14:56:56Z</time>
      </trkpt>
      <trkpt lat="43.36557" lon="2.43187">
        <ele>724.97</ele>
        <time>2014-10-02T14:57:13Z</time>
      </trkpt>
      <trkpt lat="43.36548" lon="2.43167">
        <ele>724.97</ele>
        <time>2014-10-02T14:57:28Z</time>
      </trkpt>
      <trkpt lat="43.36542" lon="2.43152">
        <ele>724.97</ele>
        <time>2014-10-02T14:57:41Z</time>
      </trkpt>
      <trkpt lat="43.36542" lon="2.43149">
        <ele>725.45</ele>
        <time>2014-10-02T14:57:43Z</time>
      </trkpt>
      <trkpt lat="43.36541" lon="2.43143">
        <ele>724.97</ele>
        <time>2014-10-02T14:57:51Z</time>
      </trkpt>
      <trkpt lat="43.36535" lon="2.43139">
        <ele>724.49</ele>
        <time>2014-10-02T14:57:57Z</time>
      </trkpt>
      <trkpt lat="43.36523" lon="2.43122">
        <ele>724.01</ele>
        <time>2014-10-02T14:58:10Z</time>
      </trkpt>
      <trkpt lat="43.36518" lon="2.43118">
        <ele>723.53</ele>
        <time>2014-10-02T14:58:14Z</time>
      </trkpt>
      <trkpt lat="43.3651" lon="2.43105">
        <ele>723.05</ele>
        <time>2014-10-02T14:58:23Z</time>
      </trkpt>
      <trkpt lat="43.36494" lon="2.43085">
        <ele>721.13</ele>
        <time>2014-10-02T14:58:41Z</time>
      </trkpt>
      <trkpt lat="43.36483" lon="2.43068">
        <ele>720.16</ele>
        <time>2014-10-02T14:58:56Z</time>
      </trkpt>
      <trkpt lat="43.36475" lon="2.43057">
        <ele>719.2</ele>
        <time>2014-10-02T14:59:09Z</time>
      </trkpt>
      <trkpt lat="43.36464" lon="2.43029">
        <ele>718.24</ele>
        <time>2014-10-02T14:59:27Z</time>
      </trkpt>
      <trkpt lat="43.36459" lon="2.43007">
        <ele>718.24</ele>
        <time>2014-10-02T14:59:42Z</time>
      </trkpt>
      <trkpt lat="43.3646" lon="2.43005">
        <ele>718.24</ele>
        <time>2014-10-02T14:59:50Z</time>
      </trkpt>
      <trkpt lat="43.36457" lon="2.42988">
        <ele>717.76</ele>
        <time>2014-10-02T15:00:01Z</time>
      </trkpt>
      <trkpt lat="43.36456" lon="2.42959">
        <ele>716.32</ele>
        <time>2014-10-02T15:00:19Z</time>
      </trkpt>
      <trkpt lat="43.36453" lon="2.42935">
        <ele>715.84</ele>
        <time>2014-10-02T15:00:34Z</time>
      </trkpt>
      <trkpt lat="43.36452" lon="2.42914">
        <ele>715.84</ele>
        <time>2014-10-02T15:00:46Z</time>
      </trkpt>
      <trkpt lat="43.36455" lon="2.42886">
        <ele>716.32</ele>
        <time>2014-10-02T15:01:02Z</time>
      </trkpt>
      <trkpt lat="43.36457" lon="2.42868">
        <ele>715.84</ele>
        <time>2014-10-02T15:01:13Z</time>
      </trkpt>
      <trkpt lat="43.36459" lon="2.42855">
        <ele>716.32</ele>
        <time>2014-10-02T15:01:26Z</time>
      </trkpt>
      <trkpt lat="43.36459" lon="2.42847">
        <ele>716.32</ele>
        <time>2014-10-02T15:01:34Z</time>
      </trkpt>
      <trkpt lat="43.3646" lon="2.42823">
        <ele>716.32</ele>
        <time>2014-10-02T15:01:49Z</time>
      </trkpt>
      <trkpt lat="43.36461" lon="2.42808">
        <ele>715.84</ele>
        <time>2014-10-02T15:01:59Z</time>
      </trkpt>
      <trkpt lat="43.36462" lon="2.42785">
        <ele>716.8</ele>
        <time>2014-10-02T15:02:13Z</time>
      </trkpt>
      <trkpt lat="43.36463" lon="2.42762">
        <ele>715.84</ele>
        <time>2014-10-02T15:02:28Z</time>
      </trkpt>
      <trkpt lat="43.36463" lon="2.42748">
        <ele>715.84</ele>
        <time>2014-10-02T15:02:37Z</time>
      </trkpt>
      <trkpt lat="43.36461" lon="2.42722">
        <ele>716.32</ele>
        <time>2014-10-02T15:02:53Z</time>
      </trkpt>
      <trkpt lat="43.3646" lon="2.42712">
        <ele>716.32</ele>
        <time>2014-10-02T15:02:59Z</time>
      </trkpt>
      <trkpt lat="43.36459" lon="2.42684">
        <ele>716.32</ele>
        <time>2014-10-02T15:03:16Z</time>
      </trkpt>
      <trkpt lat="43.36456" lon="2.4266">
        <ele>715.36</ele>
        <time>2014-10-02T15:03:31Z</time>
      </trkpt>
      <trkpt lat="43.36454" lon="2.42639">
        <ele>714.4</ele>
        <time>2014-10-02T15:03:45Z</time>
      </trkpt>
      <trkpt lat="43.36453" lon="2.42614">
        <ele>713.44</ele>
        <time>2014-10-02T15:04:01Z</time>
      </trkpt>
      <trkpt lat="43.36453" lon="2.42596">
        <ele>712.47</ele>
        <time>2014-10-02T15:04:14Z</time>
      </trkpt>
      <trkpt lat="43.36453" lon="2.42591">
        <ele>712.95</ele>
        <time>2014-10-02T15:04:19Z</time>
      </trkpt>
      <trkpt lat="43.36457" lon="2.42565">
        <ele>711.51</ele>
        <time>2014-10-02T15:04:35Z</time>
      </trkpt>
      <trkpt lat="43.36457" lon="2.42563">
        <ele>711.03</ele>
        <time>2014-10-02T15:04:36Z</time>
      </trkpt>
      <trkpt lat="43.36458" lon="2.42553">
        <ele>710.55</ele>
        <time>2014-10-02T15:04:42Z</time>
      </trkpt>
      <trkpt lat="43.36466" lon="2.4253">
        <ele>709.11</ele>
        <time>2014-10-02T15:04:57Z</time>
      </trkpt>
      <trkpt lat="43.36475" lon="2.4251">
        <ele>707.67</ele>
        <time>2014-10-02T15:05:11Z</time>
      </trkpt>
      <trkpt lat="43.36485" lon="2.42495">
        <ele>706.71</ele>
        <time>2014-10-02T15:05:24Z</time>
      </trkpt>
      <trkpt lat="43.36495" lon="2.42478">
        <ele>705.26</ele>
        <time>2014-10-02T15:05:37Z</time>
      </trkpt>
      <trkpt lat="43.36503" lon="2.42467">
        <ele>703.82</ele>
        <time>2014-10-02T15:05:47Z</time>
      </trkpt>
      <trkpt lat="43.36517" lon="2.42456">
        <ele>703.34</ele>
        <time>2014-10-02T15:06:01Z</time>
      </trkpt>
      <trkpt lat="43.3653" lon="2.42448">
        <ele>702.38</ele>
        <time>2014-10-02T15:06:12Z</time>
      </trkpt>
      <trkpt lat="43.36546" lon="2.42441">
        <ele>701.9</ele>
        <time>2014-10-02T15:06:27Z</time>
      </trkpt>
      <trkpt lat="43.36549" lon="2.42441">
        <ele>701.9</ele>
        <time>2014-10-02T15:06:29Z</time>
      </trkpt>
      <trkpt lat="43.36566" lon="2.42434">
        <ele>699.5</ele>
        <time>2014-10-02T15:06:44Z</time>
      </trkpt>
      <trkpt lat="43.36568" lon="2.42431">
        <ele>699.02</ele>
        <time>2014-10-02T15:06:47Z</time>
      </trkpt>
      <trkpt lat="43.3657" lon="2.42427">
        <ele>698.53</ele>
        <time>2014-10-02T15:06:50Z</time>
      </trkpt>
      <trkpt lat="43.36571" lon="2.42419">
        <ele>698.05</ele>
        <time>2014-10-02T15:06:55Z</time>
      </trkpt>
      <trkpt lat="43.36569" lon="2.42395">
        <ele>698.05</ele>
        <time>2014-10-02T15:07:09Z</time>
      </trkpt>
      <trkpt lat="43.36563" lon="2.42373">
        <ele>698.05</ele>
        <time>2014-10-02T15:07:24Z</time>
      </trkpt>
      <trkpt lat="43.36558" lon="2.42346">
        <ele>697.09</ele>
        <time>2014-10-02T15:07:40Z</time>
      </trkpt>
      <trkpt lat="43.36556" lon="2.42331">
        <ele>695.17</ele>
        <time>2014-10-02T15:07:50Z</time>
      </trkpt>
      <trkpt lat="43.36556" lon="2.42325">
        <ele>695.17</ele>
        <time>2014-10-02T15:07:54Z</time>
      </trkpt>
      <trkpt lat="43.36555" lon="2.42301">
        <ele>693.25</ele>
        <time>2014-10-02T15:08:09Z</time>
      </trkpt>
      <trkpt lat="43.36555" lon="2.42298">
        <ele>693.25</ele>
        <time>2014-10-02T15:08:11Z</time>
      </trkpt>
      <trkpt lat="43.36556" lon="2.42274">
        <ele>691.81</ele>
        <time>2014-10-02T15:08:26Z</time>
      </trkpt>
      <trkpt lat="43.36556" lon="2.42273">
        <ele>691.81</ele>
        <time>2014-10-02T15:08:27Z</time>
      </trkpt>
      <trkpt lat="43.36558" lon="2.42269">
        <ele>691.33</ele>
        <time>2014-10-02T15:08:35Z</time>
      </trkpt>
      <trkpt lat="43.36558" lon="2.42263">
        <ele>691.33</ele>
        <time>2014-10-02T15:08:39Z</time>
      </trkpt>
      <trkpt lat="43.3656" lon="2.42237">
        <ele>690.36</ele>
        <time>2014-10-02T15:08:55Z</time>
      </trkpt>
      <trkpt lat="43.36563" lon="2.42221">
        <ele>690.36</ele>
        <time>2014-10-02T15:09:10Z</time>
      </trkpt>
      <trkpt lat="43.36565" lon="2.42218">
        <ele>689.4</ele>
        <time>2014-10-02T15:09:22Z</time>
      </trkpt>
      <trkpt lat="43.36565" lon="2.42217">
        <ele>689.88</ele>
        <time>2014-10-02T15:09:23Z</time>
      </trkpt>
      <trkpt lat="43.36566" lon="2.42213">
        <ele>689.4</ele>
        <time>2014-10-02T15:09:26Z</time>
      </trkpt>
      <trkpt lat="43.36565" lon="2.42185">
        <ele>687.96</ele>
        <time>2014-10-02T15:09:43Z</time>
      </trkpt>
      <trkpt lat="43.36563" lon="2.42173">
        <ele>687.48</ele>
        <time>2014-10-02T15:09:50Z</time>
      </trkpt>
      <trkpt lat="43.36563" lon="2.42167">
        <ele>687</ele>
        <time>2014-10-02T15:09:54Z</time>
      </trkpt>
      <trkpt lat="43.3656" lon="2.42152">
        <ele>685.08</ele>
        <time>2014-10-02T15:10:03Z</time>
      </trkpt>
      <trkpt lat="43.3655" lon="2.42149">
        <ele>683.63</ele>
        <time>2014-10-02T15:10:16Z</time>
      </trkpt>
      <trkpt lat="43.36549" lon="2.4215">
        <ele>683.15</ele>
        <time>2014-10-02T15:10:18Z</time>
      </trkpt>
      <trkpt lat="43.36534" lon="2.42157">
        <ele>681.71</ele>
        <time>2014-10-02T15:10:33Z</time>
      </trkpt>
      <trkpt lat="43.3653" lon="2.42157">
        <ele>680.27</ele>
        <time>2014-10-02T15:10:40Z</time>
      </trkpt>
      <trkpt lat="43.36525" lon="2.42158">
        <ele>678.83</ele>
        <time>2014-10-02T15:10:46Z</time>
      </trkpt>
      <trkpt lat="43.36521" lon="2.42157">
        <ele>678.35</ele>
        <time>2014-10-02T15:10:49Z</time>
      </trkpt>
      <trkpt lat="43.36513" lon="2.42155">
        <ele>675.94</ele>
        <time>2014-10-02T15:10:59Z</time>
      </trkpt>
      <trkpt lat="43.36508" lon="2.42152">
        <ele>674.5</ele>
        <time>2014-10-02T15:11:06Z</time>
      </trkpt>
      <trkpt lat="43.36503" lon="2.42149">
        <ele>673.06</ele>
        <time>2014-10-02T15:11:12Z</time>
      </trkpt>
      <trkpt lat="43.36497" lon="2.42143">
        <ele>671.14</ele>
        <time>2014-10-02T15:11:20Z</time>
      </trkpt>
      <trkpt lat="43.36494" lon="2.42141">
        <ele>670.18</ele>
        <time>2014-10-02T15:11:23Z</time>
      </trkpt>
      <trkpt lat="43.36485" lon="2.42135">
        <ele>667.77</ele>
        <time>2014-10-02T15:11:34Z</time>
      </trkpt>
      <trkpt lat="43.36482" lon="2.42135">
        <ele>666.81</ele>
        <time>2014-10-02T15:11:37Z</time>
      </trkpt>
      <trkpt lat="43.36469" lon="2.42128">
        <ele>662.97</ele>
        <time>2014-10-02T15:11:49Z</time>
      </trkpt>
      <trkpt lat="43.36453" lon="2.42121">
        <ele>660.08</ele>
        <time>2014-10-02T15:12:03Z</time>
      </trkpt>
      <trkpt lat="43.36446" lon="2.42118">
        <ele>657.2</ele>
        <time>2014-10-02T15:12:12Z</time>
      </trkpt>
      <trkpt lat="43.36434" lon="2.42128">
        <ele>653.83</ele>
        <time>2014-10-02T15:12:22Z</time>
      </trkpt>
      <trkpt lat="43.36434" lon="2.4213">
        <ele>654.31</ele>
        <time>2014-10-02T15:12:23Z</time>
      </trkpt>
      <trkpt lat="43.36429" lon="2.42146">
        <ele>653.83</ele>
        <time>2014-10-02T15:12:33Z</time>
      </trkpt>
      <trkpt lat="43.36427" lon="2.42153">
        <ele>653.35</ele>
        <time>2014-10-02T15:12:37Z</time>
      </trkpt>
      <trkpt lat="43.36419" lon="2.42177">
        <ele>652.39</ele>
        <time>2014-10-02T15:12:52Z</time>
      </trkpt>
      <trkpt lat="43.36412" lon="2.42189">
        <ele>651.43</ele>
        <time>2014-10-02T15:13:01Z</time>
      </trkpt>
      <trkpt lat="43.36409" lon="2.42194">
        <ele>651.43</ele>
        <time>2014-10-02T15:13:05Z</time>
      </trkpt>
      <trkpt lat="43.364" lon="2.4221">
        <ele>650.95</ele>
        <time>2014-10-02T15:13:20Z</time>
      </trkpt>
      <trkpt lat="43.36389" lon="2.42223">
        <ele>649.51</ele>
        <time>2014-10-02T15:13:32Z</time>
      </trkpt>
      <trkpt lat="43.36387" lon="2.42226">
        <ele>649.99</ele>
        <time>2014-10-02T15:13:35Z</time>
      </trkpt>
      <trkpt lat="43.36374" lon="2.42243">
        <ele>649.03</ele>
        <time>2014-10-02T15:13:50Z</time>
      </trkpt>
      <trkpt lat="43.36362" lon="2.42257">
        <ele>648.55</ele>
        <time>2014-10-02T15:14:04Z</time>
      </trkpt>
      <trkpt lat="43.36354" lon="2.42268">
        <ele>648.07</ele>
        <time>2014-10-02T15:14:12Z</time>
      </trkpt>
      <trkpt lat="43.36341" lon="2.42283">
        <ele>647.59</ele>
        <time>2014-10-02T15:14:26Z</time>
      </trkpt>
      <trkpt lat="43.36328" lon="2.423">
        <ele>647.1</ele>
        <time>2014-10-02T15:14:41Z</time>
      </trkpt>
      <trkpt lat="43.36314" lon="2.42316">
        <ele>646.62</ele>
        <time>2014-10-02T15:14:57Z</time>
      </trkpt>
      <trkpt lat="43.36299" lon="2.42332">
        <ele>647.1</ele>
        <time>2014-10-02T15:15:12Z</time>
      </trkpt>
      <trkpt lat="43.36288" lon="2.42349">
        <ele>646.62</ele>
        <time>2014-10-02T15:15:26Z</time>
      </trkpt>
      <trkpt lat="43.36275" lon="2.42364">
        <ele>646.62</ele>
        <time>2014-10-02T15:15:40Z</time>
      </trkpt>
      <trkpt lat="43.36263" lon="2.42377">
        <ele>646.62</ele>
        <time>2014-10-02T15:15:53Z</time>
      </trkpt>
      <trkpt lat="43.36249" lon="2.42395">
        <ele>647.1</ele>
        <time>2014-10-02T15:16:08Z</time>
      </trkpt>
      <trkpt lat="43.36236" lon="2.42414">
        <ele>647.1</ele>
        <time>2014-10-02T15:16:25Z</time>
      </trkpt>
      <trkpt lat="43.36223" lon="2.42429">
        <ele>648.07</ele>
        <time>2014-10-02T15:16:39Z</time>
      </trkpt>
      <trkpt lat="43.3621" lon="2.42446">
        <ele>648.07</ele>
        <time>2014-10-02T15:16:55Z</time>
      </trkpt>
      <trkpt lat="43.36201" lon="2.42463">
        <ele>648.55</ele>
        <time>2014-10-02T15:17:08Z</time>
      </trkpt>
      <trkpt lat="43.36192" lon="2.42481">
        <ele>649.99</ele>
        <time>2014-10-02T15:17:22Z</time>
      </trkpt>
      <trkpt lat="43.36187" lon="2.42489">
        <ele>650.47</ele>
        <time>2014-10-02T15:17:28Z</time>
      </trkpt>
      <trkpt lat="43.3618" lon="2.42502">
        <ele>652.39</ele>
        <time>2014-10-02T15:17:38Z</time>
      </trkpt>
      <trkpt lat="43.36174" lon="2.42521">
        <ele>654.31</ele>
        <time>2014-10-02T15:17:52Z</time>
      </trkpt>
      <trkpt lat="43.36174" lon="2.42523">
        <ele>655.28</ele>
        <time>2014-10-02T15:17:53Z</time>
      </trkpt>
      <trkpt lat="43.36171" lon="2.42541">
        <ele>656.72</ele>
        <time>2014-10-02T15:18:05Z</time>
      </trkpt>
      <trkpt lat="43.36171" lon="2.42546">
        <ele>657.2</ele>
        <time>2014-10-02T15:18:08Z</time>
      </trkpt>
      <trkpt lat="43.3617" lon="2.42566">
        <ele>658.64</ele>
        <time>2014-10-02T15:18:21Z</time>
      </trkpt>
      <trkpt lat="43.36169" lon="2.42588">
        <ele>660.08</ele>
        <time>2014-10-02T15:18:36Z</time>
      </trkpt>
      <trkpt lat="43.36168" lon="2.42609">
        <ele>660.08</ele>
        <time>2014-10-02T15:18:49Z</time>
      </trkpt>
      <trkpt lat="43.36168" lon="2.42612">
        <ele>660.56</ele>
        <time>2014-10-02T15:18:51Z</time>
      </trkpt>
      <trkpt lat="43.36161" lon="2.42612">
        <ele>660.56</ele>
        <time>2014-10-02T15:18:57Z</time>
      </trkpt>
      <trkpt lat="43.36155" lon="2.42612">
        <ele>662.01</ele>
        <time>2014-10-02T15:19:04Z</time>
      </trkpt>
      <trkpt lat="43.36152" lon="2.42615">
        <ele>661.04</ele>
        <time>2014-10-02T15:19:13Z</time>
      </trkpt>
      <trkpt lat="43.3615" lon="2.42616">
        <ele>661.52</ele>
        <time>2014-10-02T15:19:15Z</time>
      </trkpt>
      <trkpt lat="43.36146" lon="2.42619">
        <ele>662.01</ele>
        <time>2014-10-02T15:19:20Z</time>
      </trkpt>
      <trkpt lat="43.36146" lon="2.42622">
        <ele>662.97</ele>
        <time>2014-10-02T15:19:22Z</time>
      </trkpt>
      <trkpt lat="43.36146" lon="2.42627">
        <ele>662.97</ele>
        <time>2014-10-02T15:19:28Z</time>
      </trkpt>
      <trkpt lat="43.36142" lon="2.42634">
        <ele>663.45</ele>
        <time>2014-10-02T15:19:35Z</time>
      </trkpt>
      <trkpt lat="43.36144" lon="2.42636">
        <ele>663.45</ele>
        <time>2014-10-02T15:19:46Z</time>
      </trkpt>
      <trkpt lat="43.36146" lon="2.42636">
        <ele>662.97</ele>
        <time>2014-10-02T15:19:54Z</time>
      </trkpt>
      <trkpt lat="43.36158" lon="2.42626">
        <ele>662.97</ele>
        <time>2014-10-02T15:20:06Z</time>
      </trkpt>
      <trkpt lat="43.3616" lon="2.42624">
        <ele>662.01</ele>
        <time>2014-10-02T15:20:08Z</time>
      </trkpt>
      <trkpt lat="43.36164" lon="2.42621">
        <ele>661.52</ele>
        <time>2014-10-02T15:20:12Z</time>
      </trkpt>
      <trkpt lat="43.36172" lon="2.42616">
        <ele>660.56</ele>
        <time>2014-10-02T15:20:18Z</time>
      </trkpt>
      <trkpt lat="43.36186" lon="2.42628">
        <ele>660.56</ele>
        <time>2014-10-02T15:20:32Z</time>
      </trkpt>
      <trkpt lat="43.36197" lon="2.42641">
        <ele>661.04</ele>
        <time>2014-10-02T15:20:44Z</time>
      </trkpt>
      <trkpt lat="43.36207" lon="2.42655">
        <ele>661.52</ele>
        <time>2014-10-02T15:20:56Z</time>
      </trkpt>
      <trkpt lat="43.36212" lon="2.42662">
        <ele>662.01</ele>
        <time>2014-10-02T15:21:02Z</time>
      </trkpt>
      <trkpt lat="43.36213" lon="2.42665">
        <ele>662.01</ele>
        <time>2014-10-02T15:21:04Z</time>
      </trkpt>
      <trkpt lat="43.3622" lon="2.42678">
        <ele>661.04</ele>
        <time>2014-10-02T15:21:13Z</time>
      </trkpt>
      <trkpt lat="43.36222" lon="2.42697">
        <ele>661.04</ele>
        <time>2014-10-02T15:21:25Z</time>
      </trkpt>
      <trkpt lat="43.36223" lon="2.4271">
        <ele>661.04</ele>
        <time>2014-10-02T15:21:33Z</time>
      </trkpt>
      <trkpt lat="43.36222" lon="2.42733">
        <ele>660.56</ele>
        <time>2014-10-02T15:21:47Z</time>
      </trkpt>
      <trkpt lat="43.36222" lon="2.42743">
        <ele>660.08</ele>
        <time>2014-10-02T15:22:00Z</time>
      </trkpt>
      <trkpt lat="43.36223" lon="2.42746">
        <ele>659.6</ele>
        <time>2014-10-02T15:22:07Z</time>
      </trkpt>
      <trkpt lat="43.36225" lon="2.42752">
        <ele>659.12</ele>
        <time>2014-10-02T15:22:11Z</time>
      </trkpt>
      <trkpt lat="43.36227" lon="2.42767">
        <ele>659.12</ele>
        <time>2014-10-02T15:22:20Z</time>
      </trkpt>
      <trkpt lat="43.3623" lon="2.42781">
        <ele>659.12</ele>
        <time>2014-10-02T15:22:27Z</time>
      </trkpt>
      <trkpt lat="43.36236" lon="2.42802">
        <ele>658.64</ele>
        <time>2014-10-02T15:22:40Z</time>
      </trkpt>
      <trkpt lat="43.36241" lon="2.42823">
        <ele>658.64</ele>
        <time>2014-10-02T15:22:52Z</time>
      </trkpt>
      <trkpt lat="43.36245" lon="2.42843">
        <ele>658.64</ele>
        <time>2014-10-02T15:23:04Z</time>
      </trkpt>
      <trkpt lat="43.36251" lon="2.42865">
        <ele>659.12</ele>
        <time>2014-10-02T15:23:16Z</time>
      </trkpt>
      <trkpt lat="43.36254" lon="2.42888">
        <ele>658.64</ele>
        <time>2014-10-02T15:23:29Z</time>
      </trkpt>
      <trkpt lat="43.3626" lon="2.42913">
        <ele>658.64</ele>
        <time>2014-10-02T15:23:43Z</time>
      </trkpt>
      <trkpt lat="43.36264" lon="2.42932">
        <ele>659.12</ele>
        <time>2014-10-02T15:23:55Z</time>
      </trkpt>
      <trkpt lat="43.36268" lon="2.42954">
        <ele>660.08</ele>
        <time>2014-10-02T15:24:09Z</time>
      </trkpt>
      <trkpt lat="43.3627" lon="2.42958">
        <ele>660.08</ele>
        <time>2014-10-02T15:24:11Z</time>
      </trkpt>
      <trkpt lat="43.36274" lon="2.42975">
        <ele>661.04</ele>
        <time>2014-10-02T15:24:24Z</time>
      </trkpt>
      <trkpt lat="43.36278" lon="2.4299">
        <ele>662.01</ele>
        <time>2014-10-02T15:24:34Z</time>
      </trkpt>
      <trkpt lat="43.36283" lon="2.43013">
        <ele>662.49</ele>
        <time>2014-10-02T15:24:47Z</time>
      </trkpt>
      <trkpt lat="43.36284" lon="2.43016">
        <ele>662.97</ele>
        <time>2014-10-02T15:24:49Z</time>
      </trkpt>
      <trkpt lat="43.36284" lon="2.43023">
        <ele>663.45</ele>
        <time>2014-10-02T15:24:53Z</time>
      </trkpt>
      <trkpt lat="43.36285" lon="2.43039">
        <ele>663.93</ele>
        <time>2014-10-02T15:25:03Z</time>
      </trkpt>
      <trkpt lat="43.36286" lon="2.43044">
        <ele>663.93</ele>
        <time>2014-10-02T15:25:06Z</time>
      </trkpt>
      <trkpt lat="43.36288" lon="2.4307">
        <ele>663.93</ele>
        <time>2014-10-02T15:25:22Z</time>
      </trkpt>
      <trkpt lat="43.36289" lon="2.43078">
        <ele>663.93</ele>
        <time>2014-10-02T15:25:27Z</time>
      </trkpt>
      <trkpt lat="43.36293" lon="2.43101">
        <ele>664.89</ele>
        <time>2014-10-02T15:25:40Z</time>
      </trkpt>
      <trkpt lat="43.36296" lon="2.4312">
        <ele>665.37</ele>
        <time>2014-10-02T15:25:53Z</time>
      </trkpt>
      <trkpt lat="43.36296" lon="2.43123">
        <ele>665.37</ele>
        <time>2014-10-02T15:25:55Z</time>
      </trkpt>
      <trkpt lat="43.36298" lon="2.43138">
        <ele>665.85</ele>
        <time>2014-10-02T15:26:03Z</time>
      </trkpt>
      <trkpt lat="43.36298" lon="2.4316">
        <ele>665.85</ele>
        <time>2014-10-02T15:26:16Z</time>
      </trkpt>
      <trkpt lat="43.363" lon="2.43166">
        <ele>665.85</ele>
        <time>2014-10-02T15:26:19Z</time>
      </trkpt>
      <trkpt lat="43.363" lon="2.4317">
        <ele>665.85</ele>
        <time>2014-10-02T15:26:22Z</time>
      </trkpt>
      <trkpt lat="43.36302" lon="2.43178">
        <ele>665.85</ele>
        <time>2014-10-02T15:26:27Z</time>
      </trkpt>
      <trkpt lat="43.36303" lon="2.43183">
        <ele>665.85</ele>
        <time>2014-10-02T15:26:30Z</time>
      </trkpt>
      <trkpt lat="43.36307" lon="2.4319">
        <ele>665.37</ele>
        <time>2014-10-02T15:26:35Z</time>
      </trkpt>
      <trkpt lat="43.36317" lon="2.4321">
        <ele>665.37</ele>
        <time>2014-10-02T15:26:47Z</time>
      </trkpt>
      <trkpt lat="43.36319" lon="2.43226">
        <ele>665.37</ele>
        <time>2014-10-02T15:26:58Z</time>
      </trkpt>
      <trkpt lat="43.36307" lon="2.43236">
        <ele>665.37</ele>
        <time>2014-10-02T15:27:10Z</time>
      </trkpt>
      <trkpt lat="43.36295" lon="2.43245">
        <ele>664.89</ele>
        <time>2014-10-02T15:27:21Z</time>
      </trkpt>
      <trkpt lat="43.36281" lon="2.43259">
        <ele>665.37</ele>
        <time>2014-10-02T15:27:34Z</time>
      </trkpt>
      <trkpt lat="43.36279" lon="2.43261">
        <ele>664.89</ele>
        <time>2014-10-02T15:27:36Z</time>
      </trkpt>
      <trkpt lat="43.36272" lon="2.43272">
        <ele>664.89</ele>
        <time>2014-10-02T15:27:45Z</time>
      </trkpt>
      <trkpt lat="43.3626" lon="2.43289">
        <ele>665.37</ele>
        <time>2014-10-02T15:27:58Z</time>
      </trkpt>
      <trkpt lat="43.36247" lon="2.43306">
        <ele>667.77</ele>
        <time>2014-10-02T15:28:12Z</time>
      </trkpt>
      <trkpt lat="43.36243" lon="2.43313">
        <ele>668.73</ele>
        <time>2014-10-02T15:28:18Z</time>
      </trkpt>
      <trkpt lat="43.36239" lon="2.4332">
        <ele>668.73</ele>
        <time>2014-10-02T15:28:23Z</time>
      </trkpt>
      <trkpt lat="43.36237" lon="2.43323">
        <ele>669.7</ele>
        <time>2014-10-02T15:28:26Z</time>
      </trkpt>
      <trkpt lat="43.36232" lon="2.43334">
        <ele>670.66</ele>
        <time>2014-10-02T15:28:35Z</time>
      </trkpt>
      <trkpt lat="43.3623" lon="2.43338">
        <ele>671.14</ele>
        <time>2014-10-02T15:28:39Z</time>
      </trkpt>
      <trkpt lat="43.36228" lon="2.43343">
        <ele>671.14</ele>
        <time>2014-10-02T15:28:42Z</time>
      </trkpt>
      <trkpt lat="43.36223" lon="2.43356">
        <ele>671.62</ele>
        <time>2014-10-02T15:28:50Z</time>
      </trkpt>
      <trkpt lat="43.36219" lon="2.43369">
        <ele>670.18</ele>
        <time>2014-10-02T15:28:58Z</time>
      </trkpt>
      <trkpt lat="43.36213" lon="2.43389">
        <ele>672.58</ele>
        <time>2014-10-02T15:29:12Z</time>
      </trkpt>
      <trkpt lat="43.3621" lon="2.43398">
        <ele>672.1</ele>
        <time>2014-10-02T15:29:25Z</time>
      </trkpt>
      <trkpt lat="43.36209" lon="2.43402">
        <ele>671.62</ele>
        <time>2014-10-02T15:29:43Z</time>
      </trkpt>
      <trkpt lat="43.36209" lon="2.43403">
        <ele>672.58</ele>
        <time>2014-10-02T15:29:49Z</time>
      </trkpt>
      <trkpt lat="43.36196" lon="2.43419">
        <ele>670.66</ele>
        <time>2014-10-02T15:30:03Z</time>
      </trkpt>
      <trkpt lat="43.36186" lon="2.4343">
        <ele>669.22</ele>
        <time>2014-10-02T15:30:17Z</time>
      </trkpt>
      <trkpt lat="43.36186" lon="2.4343">
        <ele>669.22</ele>
        <time>2014-10-02T15:30:19Z</time>
      </trkpt>
      <trkpt lat="43.36183" lon="2.43433">
        <ele>669.22</ele>
        <time>2014-10-02T15:30:22Z</time>
      </trkpt>
      <trkpt lat="43.36177" lon="2.4344">
        <ele>668.25</ele>
        <time>2014-10-02T15:30:28Z</time>
      </trkpt>
      <trkpt lat="43.36164" lon="2.43454">
        <ele>666.33</ele>
        <time>2014-10-02T15:30:42Z</time>
      </trkpt>
      <trkpt lat="43.36152" lon="2.43466">
        <ele>665.37</ele>
        <time>2014-10-02T15:30:53Z</time>
      </trkpt>
      <trkpt lat="43.36142" lon="2.43473">
        <ele>664.89</ele>
        <time>2014-10-02T15:31:04Z</time>
      </trkpt>
      <trkpt lat="43.3614" lon="2.43477">
        <ele>663.93</ele>
        <time>2014-10-02T15:31:07Z</time>
      </trkpt>
      <trkpt lat="43.36139" lon="2.43483">
        <ele>663.93</ele>
        <time>2014-10-02T15:31:10Z</time>
      </trkpt>
      <trkpt lat="43.36121" lon="2.43505">
        <ele>661.52</ele>
        <time>2014-10-02T15:31:28Z</time>
      </trkpt>
      <trkpt lat="43.36109" lon="2.43521">
        <ele>660.56</ele>
        <time>2014-10-02T15:31:41Z</time>
      </trkpt>
      <trkpt lat="43.36098" lon="2.43537">
        <ele>660.08</ele>
        <time>2014-10-02T15:31:53Z</time>
      </trkpt>
      <trkpt lat="43.36086" lon="2.43551">
        <ele>658.64</ele>
        <time>2014-10-02T15:32:06Z</time>
      </trkpt>
      <trkpt lat="43.36084" lon="2.43555">
        <ele>658.64</ele>
        <time>2014-10-02T15:32:10Z</time>
      </trkpt>
      <trkpt lat="43.36082" lon="2.43557">
        <ele>658.64</ele>
        <time>2014-10-02T15:32:12Z</time>
      </trkpt>
      <trkpt lat="43.36072" lon="2.43566">
        <ele>658.16</ele>
        <time>2014-10-02T15:32:23Z</time>
      </trkpt>
      <trkpt lat="43.3607" lon="2.43567">
        <ele>657.2</ele>
        <time>2014-10-02T15:32:25Z</time>
      </trkpt>
      <trkpt lat="43.36054" lon="2.43572">
        <ele>657.2</ele>
        <time>2014-10-02T15:32:40Z</time>
      </trkpt>
      <trkpt lat="43.36039" lon="2.43567">
        <ele>655.76</ele>
        <time>2014-10-02T15:32:53Z</time>
      </trkpt>
      <trkpt lat="43.36019" lon="2.43557">
        <ele>654.31</ele>
        <time>2014-10-02T15:33:10Z</time>
      </trkpt>
      <trkpt lat="43.36004" lon="2.43551">
        <ele>651.91</ele>
        <time>2014-10-02T15:33:23Z</time>
      </trkpt>
      <trkpt lat="43.35992" lon="2.43546">
        <ele>650.95</ele>
        <time>2014-10-02T15:33:35Z</time>
      </trkpt>
      <trkpt lat="43.35992" lon="2.43546">
        <ele>650.95</ele>
        <time>2014-10-02T15:33:36Z</time>
      </trkpt>
      <trkpt lat="43.3599" lon="2.43547">
        <ele>650.47</ele>
        <time>2014-10-02T15:33:38Z</time>
      </trkpt>
      <trkpt lat="43.35977" lon="2.43541">
        <ele>647.59</ele>
        <time>2014-10-02T15:33:50Z</time>
      </trkpt>
      <trkpt lat="43.35972" lon="2.43536">
        <ele>647.1</ele>
        <time>2014-10-02T15:33:55Z</time>
      </trkpt>
      <trkpt lat="43.35957" lon="2.43526">
        <ele>644.7</ele>
        <time>2014-10-02T15:34:10Z</time>
      </trkpt>
      <trkpt lat="43.35944" lon="2.43521">
        <ele>641.82</ele>
        <time>2014-10-02T15:34:21Z</time>
      </trkpt>
      <trkpt lat="43.35941" lon="2.43514">
        <ele>640.86</ele>
        <time>2014-10-02T15:34:26Z</time>
      </trkpt>
      <trkpt lat="43.3593" lon="2.43494">
        <ele>638.93</ele>
        <time>2014-10-02T15:34:42Z</time>
      </trkpt>
      <trkpt lat="43.35919" lon="2.43476">
        <ele>636.53</ele>
        <time>2014-10-02T15:34:57Z</time>
      </trkpt>
      <trkpt lat="43.35917" lon="2.43472">
        <ele>636.05</ele>
        <time>2014-10-02T15:35:01Z</time>
      </trkpt>
      <trkpt lat="43.3591" lon="2.43456">
        <ele>635.09</ele>
        <time>2014-10-02T15:35:11Z</time>
      </trkpt>
      <trkpt lat="43.35905" lon="2.43451">
        <ele>633.65</ele>
        <time>2014-10-02T15:35:16Z</time>
      </trkpt>
      <trkpt lat="43.35896" lon="2.43429">
        <ele>632.2</ele>
        <time>2014-10-02T15:35:30Z</time>
      </trkpt>
      <trkpt lat="43.35893" lon="2.43417">
        <ele>631.72</ele>
        <time>2014-10-02T15:35:38Z</time>
      </trkpt>
      <trkpt lat="43.35893" lon="2.43409">
        <ele>631.24</ele>
        <time>2014-10-02T15:35:44Z</time>
      </trkpt>
      <trkpt lat="43.35893" lon="2.43402">
        <ele>630.76</ele>
        <time>2014-10-02T15:35:52Z</time>
      </trkpt>
      <trkpt lat="43.35893" lon="2.43395">
        <ele>630.28</ele>
        <time>2014-10-02T15:35:56Z</time>
      </trkpt>
      <trkpt lat="43.35894" lon="2.43381">
        <ele>629.32</ele>
        <time>2014-10-02T15:36:04Z</time>
      </trkpt>
      <trkpt lat="43.35894" lon="2.43373">
        <ele>628.36</ele>
        <time>2014-10-02T15:36:09Z</time>
      </trkpt>
      <trkpt lat="43.35893" lon="2.43359">
        <ele>627.88</ele>
        <time>2014-10-02T15:36:18Z</time>
      </trkpt>
      <trkpt lat="43.35892" lon="2.43337">
        <ele>625.96</ele>
        <time>2014-10-02T15:36:33Z</time>
      </trkpt>
      <trkpt lat="43.35893" lon="2.43315">
        <ele>624.51</ele>
        <time>2014-10-02T15:36:47Z</time>
      </trkpt>
      <trkpt lat="43.35895" lon="2.43298">
        <ele>623.55</ele>
        <time>2014-10-02T15:37:00Z</time>
      </trkpt>
      <trkpt lat="43.35897" lon="2.4327">
        <ele>622.11</ele>
        <time>2014-10-02T15:37:16Z</time>
      </trkpt>
      <trkpt lat="43.35894" lon="2.43261">
        <ele>619.23</ele>
        <time>2014-10-02T15:37:30Z</time>
      </trkpt>
      <trkpt lat="43.35891" lon="2.4326">
        <ele>618.75</ele>
        <time>2014-10-02T15:37:34Z</time>
      </trkpt>
      <trkpt lat="43.35887" lon="2.43256">
        <ele>617.3</ele>
        <time>2014-10-02T15:37:40Z</time>
      </trkpt>
      <trkpt lat="43.35879" lon="2.43254">
        <ele>614.9</ele>
        <time>2014-10-02T15:37:45Z</time>
      </trkpt>
      <trkpt lat="43.35876" lon="2.43249">
        <ele>614.9</ele>
        <time>2014-10-02T15:37:48Z</time>
      </trkpt>
      <trkpt lat="43.35869" lon="2.4325">
        <ele>612.98</ele>
        <time>2014-10-02T15:37:59Z</time>
      </trkpt>
      <trkpt lat="43.35857" lon="2.43256">
        <ele>611.54</ele>
        <time>2014-10-02T15:38:11Z</time>
      </trkpt>
      <trkpt lat="43.35845" lon="2.43261">
        <ele>609.61</ele>
        <time>2014-10-02T15:38:22Z</time>
      </trkpt>
      <trkpt lat="43.35844" lon="2.43261">
        <ele>609.13</ele>
        <time>2014-10-02T15:38:23Z</time>
      </trkpt>
      <trkpt lat="43.3583" lon="2.43263">
        <ele>606.73</ele>
        <time>2014-10-02T15:38:37Z</time>
      </trkpt>
      <trkpt lat="43.35821" lon="2.43265">
        <ele>605.77</ele>
        <time>2014-10-02T15:38:45Z</time>
      </trkpt>
      <trkpt lat="43.35817" lon="2.43268">
        <ele>605.29</ele>
        <time>2014-10-02T15:38:49Z</time>
      </trkpt>
      <trkpt lat="43.3581" lon="2.4328">
        <ele>603.85</ele>
        <time>2014-10-02T15:38:58Z</time>
      </trkpt>
      <trkpt lat="43.35795" lon="2.43285">
        <ele>601.92</ele>
        <time>2014-10-02T15:39:10Z</time>
      </trkpt>
      <trkpt lat="43.35786" lon="2.43291">
        <ele>600.48</ele>
        <time>2014-10-02T15:39:19Z</time>
      </trkpt>
      <trkpt lat="43.35778" lon="2.43291">
        <ele>600</ele>
        <time>2014-10-02T15:39:27Z</time>
      </trkpt>
      <trkpt lat="43.35775" lon="2.43291">
        <ele>599.52</ele>
        <time>2014-10-02T15:39:29Z</time>
      </trkpt>
      <trkpt lat="43.35768" lon="2.43294">
        <ele>598.56</ele>
        <time>2014-10-02T15:39:38Z</time>
      </trkpt>
      <trkpt lat="43.35767" lon="2.43295">
        <ele>598.56</ele>
        <time>2014-10-02T15:39:39Z</time>
      </trkpt>
      <trkpt lat="43.35764" lon="2.43295">
        <ele>598.56</ele>
        <time>2014-10-02T15:39:42Z</time>
      </trkpt>
      <trkpt lat="43.35762" lon="2.43296">
        <ele>598.08</ele>
        <time>2014-10-02T15:39:44Z</time>
      </trkpt>
      <trkpt lat="43.35758" lon="2.43298">
        <ele>597.12</ele>
        <time>2014-10-02T15:39:47Z</time>
      </trkpt>
      <trkpt lat="43.35748" lon="2.433">
        <ele>595.67</ele>
        <time>2014-10-02T15:39:58Z</time>
      </trkpt>
      <trkpt lat="43.35745" lon="2.43299">
        <ele>595.67</ele>
        <time>2014-10-02T15:40:02Z</time>
      </trkpt>
      <trkpt lat="43.35743" lon="2.43299">
        <ele>595.19</ele>
        <time>2014-10-02T15:40:04Z</time>
      </trkpt>
      <trkpt lat="43.35731" lon="2.43304">
        <ele>594.23</ele>
        <time>2014-10-02T15:40:17Z</time>
      </trkpt>
      <trkpt lat="43.35727" lon="2.43307">
        <ele>593.75</ele>
        <time>2014-10-02T15:40:21Z</time>
      </trkpt>
      <trkpt lat="43.35724" lon="2.43307">
        <ele>592.79</ele>
        <time>2014-10-02T15:40:24Z</time>
      </trkpt>
      <trkpt lat="43.35718" lon="2.43309">
        <ele>592.79</ele>
        <time>2014-10-02T15:40:29Z</time>
      </trkpt>
      <trkpt lat="43.35717" lon="2.43311">
        <ele>592.31</ele>
        <time>2014-10-02T15:40:31Z</time>
      </trkpt>
      <trkpt lat="43.35713" lon="2.43313">
        <ele>591.83</ele>
        <time>2014-10-02T15:40:36Z</time>
      </trkpt>
      <trkpt lat="43.35705" lon="2.43313">
        <ele>590.87</ele>
        <time>2014-10-02T15:40:42Z</time>
      </trkpt>
      <trkpt lat="43.35703" lon="2.43313">
        <ele>590.39</ele>
        <time>2014-10-02T15:40:44Z</time>
      </trkpt>
      <trkpt lat="43.357" lon="2.43315">
        <ele>589.91</ele>
        <time>2014-10-02T15:40:47Z</time>
      </trkpt>
      <trkpt lat="43.35698" lon="2.43317">
        <ele>589.43</ele>
        <time>2014-10-02T15:40:49Z</time>
      </trkpt>
      <trkpt lat="43.35694" lon="2.43319">
        <ele>588.95</ele>
        <time>2014-10-02T15:40:52Z</time>
      </trkpt>
      <trkpt lat="43.35689" lon="2.4332">
        <ele>588.46</ele>
        <time>2014-10-02T15:40:55Z</time>
      </trkpt>
      <trkpt lat="43.35677" lon="2.43333">
        <ele>587.5</ele>
        <time>2014-10-02T15:41:05Z</time>
      </trkpt>
      <trkpt lat="43.35675" lon="2.43334">
        <ele>587.5</ele>
        <time>2014-10-02T15:41:07Z</time>
      </trkpt>
      <trkpt lat="43.3567" lon="2.43337">
        <ele>587.02</ele>
        <time>2014-10-02T15:41:11Z</time>
      </trkpt>
      <trkpt lat="43.35664" lon="2.43347">
        <ele>586.54</ele>
        <time>2014-10-02T15:41:17Z</time>
      </trkpt>
      <trkpt lat="43.35662" lon="2.43347">
        <ele>586.54</ele>
        <time>2014-10-02T15:41:19Z</time>
      </trkpt>
      <trkpt lat="43.35648" lon="2.43352">
        <ele>584.14</ele>
        <time>2014-10-02T15:41:32Z</time>
      </trkpt>
      <trkpt lat="43.35646" lon="2.43353">
        <ele>584.14</ele>
        <time>2014-10-02T15:41:34Z</time>
      </trkpt>
      <trkpt lat="43.3564" lon="2.43356">
        <ele>583.18</ele>
        <time>2014-10-02T15:41:42Z</time>
      </trkpt>
      <trkpt lat="43.35638" lon="2.43357">
        <ele>582.7</ele>
        <time>2014-10-02T15:41:44Z</time>
      </trkpt>
      <trkpt lat="43.35628" lon="2.43363">
        <ele>581.25</ele>
        <time>2014-10-02T15:41:52Z</time>
      </trkpt>
      <trkpt lat="43.35623" lon="2.43369">
        <ele>580.29</ele>
        <time>2014-10-02T15:41:57Z</time>
      </trkpt>
      <trkpt lat="43.35622" lon="2.4337">
        <ele>580.29</ele>
        <time>2014-10-02T15:41:59Z</time>
      </trkpt>
      <trkpt lat="43.35618" lon="2.43371">
        <ele>579.81</ele>
        <time>2014-10-02T15:42:11Z</time>
      </trkpt>
      <trkpt lat="43.35618" lon="2.43371">
        <ele>579.81</ele>
        <time>2014-10-02T15:42:15Z</time>
      </trkpt>
      <trkpt lat="43.35616" lon="2.43372">
        <ele>579.33</ele>
        <time>2014-10-02T15:42:18Z</time>
      </trkpt>
      <trkpt lat="43.3561" lon="2.43379">
        <ele>578.37</ele>
        <time>2014-10-02T15:42:25Z</time>
      </trkpt>
      <trkpt lat="43.35604" lon="2.43382">
        <ele>577.41</ele>
        <time>2014-10-02T15:42:29Z</time>
      </trkpt>
      <trkpt lat="43.356" lon="2.43383">
        <ele>576.45</ele>
        <time>2014-10-02T15:42:32Z</time>
      </trkpt>
      <trkpt lat="43.35585" lon="2.43382">
        <ele>575.49</ele>
        <time>2014-10-02T15:42:44Z</time>
      </trkpt>
      <trkpt lat="43.35576" lon="2.43385">
        <ele>573.08</ele>
        <time>2014-10-02T15:42:53Z</time>
      </trkpt>
      <trkpt lat="43.35568" lon="2.43379">
        <ele>571.64</ele>
        <time>2014-10-02T15:43:01Z</time>
      </trkpt>
      <trkpt lat="43.35561" lon="2.43381">
        <ele>570.68</ele>
        <time>2014-10-02T15:43:07Z</time>
      </trkpt>
      <trkpt lat="43.35555" lon="2.43384">
        <ele>569.72</ele>
        <time>2014-10-02T15:43:13Z</time>
      </trkpt>
      <trkpt lat="43.35549" lon="2.43387">
        <ele>568.76</ele>
        <time>2014-10-02T15:43:18Z</time>
      </trkpt>
      <trkpt lat="43.35537" lon="2.43395">
        <ele>566.35</ele>
        <time>2014-10-02T15:43:30Z</time>
      </trkpt>
      <trkpt lat="43.35531" lon="2.43395">
        <ele>566.35</ele>
        <time>2014-10-02T15:43:36Z</time>
      </trkpt>
      <trkpt lat="43.35528" lon="2.43396">
        <ele>565.87</ele>
        <time>2014-10-02T15:43:39Z</time>
      </trkpt>
      <trkpt lat="43.35515" lon="2.43401">
        <ele>563.47</ele>
        <time>2014-10-02T15:43:50Z</time>
      </trkpt>
      <trkpt lat="43.35512" lon="2.43401">
        <ele>563.47</ele>
        <time>2014-10-02T15:43:53Z</time>
      </trkpt>
      <trkpt lat="43.35508" lon="2.43401">
        <ele>562.51</ele>
        <time>2014-10-02T15:43:56Z</time>
      </trkpt>
      <trkpt lat="43.35494" lon="2.43402">
        <ele>560.59</ele>
        <time>2014-10-02T15:44:07Z</time>
      </trkpt>
      <trkpt lat="43.35485" lon="2.43403">
        <ele>559.62</ele>
        <time>2014-10-02T15:44:14Z</time>
      </trkpt>
      <trkpt lat="43.35478" lon="2.4341">
        <ele>557.7</ele>
        <time>2014-10-02T15:44:22Z</time>
      </trkpt>
      <trkpt lat="43.35475" lon="2.43411">
        <ele>557.22</ele>
        <time>2014-10-02T15:44:24Z</time>
      </trkpt>
      <trkpt lat="43.3547" lon="2.43413">
        <ele>557.22</ele>
        <time>2014-10-02T15:44:29Z</time>
      </trkpt>
      <trkpt lat="43.35465" lon="2.43417">
        <ele>556.26</ele>
        <time>2014-10-02T15:44:34Z</time>
      </trkpt>
      <trkpt lat="43.35459" lon="2.43419">
        <ele>555.3</ele>
        <time>2014-10-02T15:44:39Z</time>
      </trkpt>
      <trkpt lat="43.35456" lon="2.43421">
        <ele>554.82</ele>
        <time>2014-10-02T15:44:43Z</time>
      </trkpt>
      <trkpt lat="43.35452" lon="2.43423">
        <ele>554.34</ele>
        <time>2014-10-02T15:44:46Z</time>
      </trkpt>
      <trkpt lat="43.35444" lon="2.43427">
        <ele>554.34</ele>
        <time>2014-10-02T15:44:53Z</time>
      </trkpt>
      <trkpt lat="43.3544" lon="2.43431">
        <ele>553.86</ele>
        <time>2014-10-02T15:44:57Z</time>
      </trkpt>
      <trkpt lat="43.35429" lon="2.43439">
        <ele>552.9</ele>
        <time>2014-10-02T15:45:07Z</time>
      </trkpt>
      <trkpt lat="43.35416" lon="2.43454">
        <ele>551.93</ele>
        <time>2014-10-02T15:45:18Z</time>
      </trkpt>
      <trkpt lat="43.35406" lon="2.43462">
        <ele>550.97</ele>
        <time>2014-10-02T15:45:26Z</time>
      </trkpt>
      <trkpt lat="43.35404" lon="2.43463">
        <ele>550.49</ele>
        <time>2014-10-02T15:45:28Z</time>
      </trkpt>
      <trkpt lat="43.35396" lon="2.43466">
        <ele>550.49</ele>
        <time>2014-10-02T15:45:36Z</time>
      </trkpt>
      <trkpt lat="43.35381" lon="2.43465">
        <ele>547.61</ele>
        <time>2014-10-02T15:45:51Z</time>
      </trkpt>
      <trkpt lat="43.35376" lon="2.43466">
        <ele>546.65</ele>
        <time>2014-10-02T15:45:56Z</time>
      </trkpt>
      <trkpt lat="43.35372" lon="2.43464">
        <ele>546.65</ele>
        <time>2014-10-02T15:45:59Z</time>
      </trkpt>
      <trkpt lat="43.35354" lon="2.43464">
        <ele>543.76</ele>
        <time>2014-10-02T15:46:14Z</time>
      </trkpt>
      <trkpt lat="43.3535" lon="2.43463">
        <ele>543.28</ele>
        <time>2014-10-02T15:46:17Z</time>
      </trkpt>
      <trkpt lat="43.35343" lon="2.43465">
        <ele>542.32</ele>
        <time>2014-10-02T15:46:25Z</time>
      </trkpt>
      <trkpt lat="43.3534" lon="2.43464">
        <ele>541.84</ele>
        <time>2014-10-02T15:46:28Z</time>
      </trkpt>
      <trkpt lat="43.35333" lon="2.43464">
        <ele>540.4</ele>
        <time>2014-10-02T15:46:36Z</time>
      </trkpt>
      <trkpt lat="43.35325" lon="2.4346">
        <ele>538.96</ele>
        <time>2014-10-02T15:46:43Z</time>
      </trkpt>
      <trkpt lat="43.3532" lon="2.43457">
        <ele>538.48</ele>
        <time>2014-10-02T15:46:47Z</time>
      </trkpt>
      <trkpt lat="43.35316" lon="2.43458">
        <ele>537.99</ele>
        <time>2014-10-02T15:46:50Z</time>
      </trkpt>
      <trkpt lat="43.35308" lon="2.43458">
        <ele>537.51</ele>
        <time>2014-10-02T15:46:57Z</time>
      </trkpt>
      <trkpt lat="43.35305" lon="2.43459">
        <ele>537.51</ele>
        <time>2014-10-02T15:47:00Z</time>
      </trkpt>
      <trkpt lat="43.35291" lon="2.4346">
        <ele>536.55</ele>
        <time>2014-10-02T15:47:12Z</time>
      </trkpt>
      <trkpt lat="43.35285" lon="2.4346">
        <ele>536.07</ele>
        <time>2014-10-02T15:47:17Z</time>
      </trkpt>
      <trkpt lat="43.35278" lon="2.4346">
        <ele>536.07</ele>
        <time>2014-10-02T15:47:22Z</time>
      </trkpt>
      <trkpt lat="43.35275" lon="2.43461">
        <ele>535.59</ele>
        <time>2014-10-02T15:47:25Z</time>
      </trkpt>
      <trkpt lat="43.35268" lon="2.43461">
        <ele>535.59</ele>
        <time>2014-10-02T15:47:31Z</time>
      </trkpt>
      <trkpt lat="43.35261" lon="2.43461">
        <ele>535.11</ele>
        <time>2014-10-02T15:47:37Z</time>
      </trkpt>
      <trkpt lat="43.35251" lon="2.43466">
        <ele>534.63</ele>
        <time>2014-10-02T15:47:46Z</time>
      </trkpt>
      <trkpt lat="43.35247" lon="2.43466">
        <ele>535.11</ele>
        <time>2014-10-02T15:47:50Z</time>
      </trkpt>
      <trkpt lat="43.35231" lon="2.43466">
        <ele>534.15</ele>
        <time>2014-10-02T15:48:05Z</time>
      </trkpt>
      <trkpt lat="43.35229" lon="2.43467">
        <ele>533.67</ele>
        <time>2014-10-02T15:48:09Z</time>
      </trkpt>
      <trkpt lat="43.35227" lon="2.43466">
        <ele>533.67</ele>
        <time>2014-10-02T15:48:11Z</time>
      </trkpt>
      <trkpt lat="43.3522" lon="2.43466">
        <ele>533.19</ele>
        <time>2014-10-02T15:48:16Z</time>
      </trkpt>
      <trkpt lat="43.35217" lon="2.43464">
        <ele>533.67</ele>
        <time>2014-10-02T15:48:19Z</time>
      </trkpt>
      <trkpt lat="43.35211" lon="2.43466">
        <ele>532.71</ele>
        <time>2014-10-02T15:48:23Z</time>
      </trkpt>
      <trkpt lat="43.35205" lon="2.43466">
        <ele>532.23</ele>
        <time>2014-10-02T15:48:28Z</time>
      </trkpt>
      <trkpt lat="43.35195" lon="2.43473">
        <ele>532.23</ele>
        <time>2014-10-02T15:48:36Z</time>
      </trkpt>
      <trkpt lat="43.35187" lon="2.43473">
        <ele>531.75</ele>
        <time>2014-10-02T15:48:43Z</time>
      </trkpt>
      <trkpt lat="43.35183" lon="2.43474">
        <ele>531.27</ele>
        <time>2014-10-02T15:48:47Z</time>
      </trkpt>
      <trkpt lat="43.35175" lon="2.43475">
        <ele>531.27</ele>
        <time>2014-10-02T15:48:54Z</time>
      </trkpt>
      <trkpt lat="43.3517" lon="2.43476">
        <ele>530.79</ele>
        <time>2014-10-02T15:48:58Z</time>
      </trkpt>
      <trkpt lat="43.35153" lon="2.43478">
        <ele>529.34</ele>
        <time>2014-10-02T15:49:11Z</time>
      </trkpt>
      <trkpt lat="43.35151" lon="2.43479">
        <ele>529.34</ele>
        <time>2014-10-02T15:49:13Z</time>
      </trkpt>
      <trkpt lat="43.35148" lon="2.43478">
        <ele>529.34</ele>
        <time>2014-10-02T15:49:15Z</time>
      </trkpt>
      <trkpt lat="43.35131" lon="2.4348">
        <ele>528.38</ele>
        <time>2014-10-02T15:49:30Z</time>
      </trkpt>
      <trkpt lat="43.35129" lon="2.4348">
        <ele>527.9</ele>
        <time>2014-10-02T15:49:31Z</time>
      </trkpt>
      <trkpt lat="43.35111" lon="2.43479">
        <ele>526.94</ele>
        <time>2014-10-02T15:49:46Z</time>
      </trkpt>
      <trkpt lat="43.35107" lon="2.4348">
        <ele>526.46</ele>
        <time>2014-10-02T15:49:49Z</time>
      </trkpt>
      <trkpt lat="43.35087" lon="2.43479">
        <ele>525.02</ele>
        <time>2014-10-02T15:50:05Z</time>
      </trkpt>
      <trkpt lat="43.35081" lon="2.43477">
        <ele>524.54</ele>
        <time>2014-10-02T15:50:11Z</time>
      </trkpt>
      <trkpt lat="43.35077" lon="2.43478">
        <ele>524.06</ele>
        <time>2014-10-02T15:50:14Z</time>
      </trkpt>
      <trkpt lat="43.35063" lon="2.43477">
        <ele>523.09</ele>
        <time>2014-10-02T15:50:25Z</time>
      </trkpt>
      <trkpt lat="43.35061" lon="2.43478">
        <ele>522.61</ele>
        <time>2014-10-02T15:50:27Z</time>
      </trkpt>
      <trkpt lat="43.35057" lon="2.43476">
        <ele>522.13</ele>
        <time>2014-10-02T15:50:31Z</time>
      </trkpt>
      <trkpt lat="43.35054" lon="2.43476">
        <ele>522.13</ele>
        <time>2014-10-02T15:50:34Z</time>
      </trkpt>
      <trkpt lat="43.3505" lon="2.43473">
        <ele>522.13</ele>
        <time>2014-10-02T15:50:38Z</time>
      </trkpt>
      <trkpt lat="43.35033" lon="2.43472">
        <ele>519.73</ele>
        <time>2014-10-02T15:50:51Z</time>
      </trkpt>
      <trkpt lat="43.35027" lon="2.43473">
        <ele>519.25</ele>
        <time>2014-10-02T15:50:55Z</time>
      </trkpt>
      <trkpt lat="43.35023" lon="2.43473">
        <ele>519.25</ele>
        <time>2014-10-02T15:50:59Z</time>
      </trkpt>
      <trkpt lat="43.35007" lon="2.43467">
        <ele>518.29</ele>
        <time>2014-10-02T15:51:11Z</time>
      </trkpt>
      <trkpt lat="43.35004" lon="2.43467">
        <ele>517.33</ele>
        <time>2014-10-02T15:51:13Z</time>
      </trkpt>
      <trkpt lat="43.34996" lon="2.43463">
        <ele>516.85</ele>
        <time>2014-10-02T15:51:19Z</time>
      </trkpt>
      <trkpt lat="43.34988" lon="2.43461">
        <ele>515.88</ele>
        <time>2014-10-02T15:51:26Z</time>
      </trkpt>
      <trkpt lat="43.34981" lon="2.43459">
        <ele>514.92</ele>
        <time>2014-10-02T15:51:33Z</time>
      </trkpt>
      <trkpt lat="43.34968" lon="2.43453">
        <ele>513.48</ele>
        <time>2014-10-02T15:51:43Z</time>
      </trkpt>
      <trkpt lat="43.34953" lon="2.43445">
        <ele>511.08</ele>
        <time>2014-10-02T15:51:57Z</time>
      </trkpt>
      <trkpt lat="43.34951" lon="2.43445">
        <ele>511.08</ele>
        <time>2014-10-02T15:51:59Z</time>
      </trkpt>
      <trkpt lat="43.34935" lon="2.4344">
        <ele>509.64</ele>
        <time>2014-10-02T15:52:11Z</time>
      </trkpt>
      <trkpt lat="43.34933" lon="2.4344">
        <ele>509.16</ele>
        <time>2014-10-02T15:52:13Z</time>
      </trkpt>
      <trkpt lat="43.3493" lon="2.43439">
        <ele>509.64</ele>
        <time>2014-10-02T15:52:15Z</time>
      </trkpt>
      <trkpt lat="43.34911" lon="2.43436">
        <ele>508.67</ele>
        <time>2014-10-02T15:52:30Z</time>
      </trkpt>
      <trkpt lat="43.34897" lon="2.43435">
        <ele>508.67</ele>
        <time>2014-10-02T15:52:42Z</time>
      </trkpt>
      <trkpt lat="43.34877" lon="2.43436">
        <ele>508.67</ele>
        <time>2014-10-02T15:52:57Z</time>
      </trkpt>
      <trkpt lat="43.34859" lon="2.43436">
        <ele>508.67</ele>
        <time>2014-10-02T15:53:11Z</time>
      </trkpt>
      <trkpt lat="43.34856" lon="2.43436">
        <ele>508.67</ele>
        <time>2014-10-02T15:53:13Z</time>
      </trkpt>
      <trkpt lat="43.34835" lon="2.43433">
        <ele>508.67</ele>
        <time>2014-10-02T15:53:30Z</time>
      </trkpt>
      <trkpt lat="43.34825" lon="2.43434">
        <ele>509.16</ele>
        <time>2014-10-02T15:53:38Z</time>
      </trkpt>
      <trkpt lat="43.34817" lon="2.43436">
        <ele>509.16</ele>
        <time>2014-10-02T15:53:44Z</time>
      </trkpt>
      <trkpt lat="43.34806" lon="2.43444">
        <ele>506.75</ele>
        <time>2014-10-02T15:53:54Z</time>
      </trkpt>
      <trkpt lat="43.34794" lon="2.4344">
        <ele>503.87</ele>
        <time>2014-10-02T15:54:05Z</time>
      </trkpt>
      <trkpt lat="43.34783" lon="2.43434">
        <ele>502.43</ele>
        <time>2014-10-02T15:54:15Z</time>
      </trkpt>
      <trkpt lat="43.34779" lon="2.43429">
        <ele>501.46</ele>
        <time>2014-10-02T15:54:19Z</time>
      </trkpt>
      <trkpt lat="43.34768" lon="2.43406">
        <ele>498.58</ele>
        <time>2014-10-02T15:54:36Z</time>
      </trkpt>
      <trkpt lat="43.34764" lon="2.43398">
        <ele>498.1</ele>
        <time>2014-10-02T15:54:42Z</time>
      </trkpt>
      <trkpt lat="43.34758" lon="2.43391">
        <ele>497.62</ele>
        <time>2014-10-02T15:54:51Z</time>
      </trkpt>
      <trkpt lat="43.34756" lon="2.4339">
        <ele>497.14</ele>
        <time>2014-10-02T15:54:53Z</time>
      </trkpt>
      <trkpt lat="43.34742" lon="2.43392">
        <ele>495.22</ele>
        <time>2014-10-02T15:55:07Z</time>
      </trkpt>
      <trkpt lat="43.3474" lon="2.43393">
        <ele>494.26</ele>
        <time>2014-10-02T15:55:10Z</time>
      </trkpt>
      <trkpt lat="43.34735" lon="2.43397">
        <ele>493.29</ele>
        <time>2014-10-02T15:55:16Z</time>
      </trkpt>
      <trkpt lat="43.34729" lon="2.43403">
        <ele>491.85</ele>
        <time>2014-10-02T15:55:23Z</time>
      </trkpt>
      <trkpt lat="43.34728" lon="2.43405">
        <ele>491.85</ele>
        <time>2014-10-02T15:55:25Z</time>
      </trkpt>
      <trkpt lat="43.3473" lon="2.43426">
        <ele>488.97</ele>
        <time>2014-10-02T15:55:38Z</time>
      </trkpt>
      <trkpt lat="43.3473" lon="2.43427">
        <ele>489.45</ele>
        <time>2014-10-02T15:55:39Z</time>
      </trkpt>
      <trkpt lat="43.34731" lon="2.4343">
        <ele>488.97</ele>
        <time>2014-10-02T15:55:42Z</time>
      </trkpt>
      <trkpt lat="43.34738" lon="2.43458">
        <ele>486.56</ele>
        <time>2014-10-02T15:55:57Z</time>
      </trkpt>
      <trkpt lat="43.34743" lon="2.43481">
        <ele>484.64</ele>
        <time>2014-10-02T15:56:10Z</time>
      </trkpt>
      <trkpt lat="43.34751" lon="2.43503">
        <ele>482.72</ele>
        <time>2014-10-02T15:56:24Z</time>
      </trkpt>
      <trkpt lat="43.34752" lon="2.43508">
        <ele>482.24</ele>
        <time>2014-10-02T15:56:27Z</time>
      </trkpt>
      <trkpt lat="43.34758" lon="2.43528">
        <ele>480.32</ele>
        <time>2014-10-02T15:56:41Z</time>
      </trkpt>
      <trkpt lat="43.34758" lon="2.43546">
        <ele>478.87</ele>
        <time>2014-10-02T15:56:52Z</time>
      </trkpt>
      <trkpt lat="43.34754" lon="2.43555">
        <ele>477.91</ele>
        <time>2014-10-02T15:56:59Z</time>
      </trkpt>
      <trkpt lat="43.34746" lon="2.43569">
        <ele>475.99</ele>
        <time>2014-10-02T15:57:12Z</time>
      </trkpt>
      <trkpt lat="43.34737" lon="2.43583">
        <ele>475.51</ele>
        <time>2014-10-02T15:57:24Z</time>
      </trkpt>
      <trkpt lat="43.34733" lon="2.4359">
        <ele>474.55</ele>
        <time>2014-10-02T15:57:30Z</time>
      </trkpt>
      <trkpt lat="43.34731" lon="2.43595">
        <ele>474.07</ele>
        <time>2014-10-02T15:57:33Z</time>
      </trkpt>
      <trkpt lat="43.34728" lon="2.43599">
        <ele>473.59</ele>
        <time>2014-10-02T15:57:37Z</time>
      </trkpt>
      <trkpt lat="43.34723" lon="2.43613">
        <ele>472.63</ele>
        <time>2014-10-02T15:57:46Z</time>
      </trkpt>
      <trkpt lat="43.3472" lon="2.43622">
        <ele>471.66</ele>
        <time>2014-10-02T15:57:51Z</time>
      </trkpt>
      <trkpt lat="43.34719" lon="2.43625">
        <ele>471.18</ele>
        <time>2014-10-02T15:57:53Z</time>
      </trkpt>
      <trkpt lat="43.34708" lon="2.43651">
        <ele>469.26</ele>
        <time>2014-10-02T15:58:09Z</time>
      </trkpt>
      <trkpt lat="43.34702" lon="2.43662">
        <ele>468.3</ele>
        <time>2014-10-02T15:58:18Z</time>
      </trkpt>
      <trkpt lat="43.347" lon="2.43669">
        <ele>467.34</ele>
        <time>2014-10-02T15:58:23Z</time>
      </trkpt>
      <trkpt lat="43.34691" lon="2.43681">
        <ele>465.42</ele>
        <time>2014-10-02T15:58:35Z</time>
      </trkpt>
      <trkpt lat="43.34684" lon="2.43675">
        <ele>464.45</ele>
        <time>2014-10-02T15:58:42Z</time>
      </trkpt>
      <trkpt lat="43.3468" lon="2.4367">
        <ele>463.49</ele>
        <time>2014-10-02T15:58:47Z</time>
      </trkpt>
      <trkpt lat="43.34678" lon="2.43666">
        <ele>462.53</ele>
        <time>2014-10-02T15:58:50Z</time>
      </trkpt>
      <trkpt lat="43.34669" lon="2.43654">
        <ele>460.13</ele>
        <time>2014-10-02T15:59:04Z</time>
      </trkpt>
      <trkpt lat="43.34666" lon="2.43647">
        <ele>458.69</ele>
        <time>2014-10-02T15:59:11Z</time>
      </trkpt>
      <trkpt lat="43.3466" lon="2.4365">
        <ele>457.72</ele>
        <time>2014-10-02T15:59:26Z</time>
      </trkpt>
      <trkpt lat="43.34653" lon="2.4365">
        <ele>457.24</ele>
        <time>2014-10-02T15:59:39Z</time>
      </trkpt>
      <trkpt lat="43.34652" lon="2.43648">
        <ele>456.28</ele>
        <time>2014-10-02T15:59:44Z</time>
      </trkpt>
      <trkpt lat="43.34651" lon="2.43651">
        <ele>455.32</ele>
        <time>2014-10-02T15:59:57Z</time>
      </trkpt>
      <trkpt lat="43.3465" lon="2.4365">
        <ele>454.36</ele>
        <time>2014-10-02T16:00:01Z</time>
      </trkpt>
      <trkpt lat="43.34645" lon="2.43644">
        <ele>452.44</ele>
        <time>2014-10-02T16:00:09Z</time>
      </trkpt>
      <trkpt lat="43.34637" lon="2.4364">
        <ele>450.03</ele>
        <time>2014-10-02T16:00:19Z</time>
      </trkpt>
      <trkpt lat="43.34632" lon="2.43627">
        <ele>448.11</ele>
        <time>2014-10-02T16:00:31Z</time>
      </trkpt>
      <trkpt lat="43.34629" lon="2.43626">
        <ele>448.11</ele>
        <time>2014-10-02T16:00:43Z</time>
      </trkpt>
      <trkpt lat="43.3462" lon="2.4362">
        <ele>448.11</ele>
        <time>2014-10-02T16:00:46Z</time>
      </trkpt>
      <trkpt lat="43.34612" lon="2.43617">
        <ele>448.11</ele>
        <time>2014-10-02T16:00:59Z</time>
      </trkpt>
      <trkpt lat="43.34613" lon="2.43617">
        <ele>447.63</ele>
        <time>2014-10-02T16:01:11Z</time>
      </trkpt>
      <trkpt lat="43.34613" lon="2.43618">
        <ele>447.63</ele>
        <time>2014-10-02T16:01:25Z</time>
      </trkpt>
      <trkpt lat="43.34609" lon="2.43623">
        <ele>447.63</ele>
        <time>2014-10-02T16:01:44Z</time>
      </trkpt>
      <trkpt lat="43.34612" lon="2.43622">
        <ele>447.63</ele>
        <time>2014-10-02T16:02:03Z</time>
      </trkpt>
      <trkpt lat="43.34611" lon="2.43622">
        <ele>448.11</ele>
        <time>2014-10-02T16:02:17Z</time>
      </trkpt>
      <trkpt lat="43.34611" lon="2.43622">
        <ele>448.11</ele>
        <time>2014-10-02T16:02:29Z</time>
      </trkpt>
      <trkpt lat="43.34607" lon="2.43625">
        <ele>450.52</ele>
        <time>2014-10-02T16:02:44Z</time>
      </trkpt>
      <trkpt lat="43.34607" lon="2.43625">
        <ele>447.63</ele>
        <time>2014-10-02T16:02:45Z</time>
      </trkpt>
      <trkpt lat="43.34605" lon="2.43627">
        <ele>450.52</ele>
        <time>2014-10-02T16:02:56Z</time>
      </trkpt>
      <trkpt lat="43.34604" lon="2.43627">
        <ele>447.15</ele>
        <time>2014-10-02T16:03:04Z</time>
      </trkpt>
      <trkpt lat="43.34604" lon="2.43628">
        <ele>443.31</ele>
        <time>2014-10-02T16:03:15Z</time>
      </trkpt>
      <trkpt lat="43.34604" lon="2.43628">
        <ele>445.71</ele>
        <time>2014-10-02T16:03:16Z</time>
      </trkpt>
      <trkpt lat="43.34604" lon="2.43628">
        <ele>459.65</ele>
        <time>2014-10-02T16:03:17Z</time>
      </trkpt>
      <trkpt lat="43.34604" lon="2.43628">
        <ele>447.63</ele>
        <time>2014-10-02T16:03:18Z</time>
      </trkpt>
      <trkpt lat="43.34604" lon="2.43628">
        <ele>443.31</ele>
        <time>2014-10-02T16:03:20Z</time>
      </trkpt>
      <trkpt lat="43.34604" lon="2.43628">
        <ele>447.15</ele>
        <time>2014-10-02T16:03:21Z</time>
      </trkpt>
      <trkpt lat="43.34604" lon="2.43628">
        <ele>450.03</ele>
        <time>2014-10-02T16:03:28Z</time>
      </trkpt>
      <trkpt lat="43.34604" lon="2.43628">
        <ele>452.92</ele>
        <time>2014-10-02T16:03:31Z</time>
      </trkpt>
      <trkpt lat="43.34604" lon="2.43628">
        <ele>441.38</ele>
        <time>2014-10-02T16:03:32Z</time>
      </trkpt>
      <trkpt lat="43.34604" lon="2.43628">
        <ele>449.07</ele>
        <time>2014-10-02T16:03:33Z</time>
      </trkpt>
      <trkpt lat="43.34604" lon="2.43628">
        <ele>439.46</ele>
        <time>2014-10-02T16:03:34Z</time>
      </trkpt>
      <trkpt lat="43.34604" lon="2.43628">
        <ele>449.07</ele>
        <time>2014-10-02T16:03:35Z</time>
      </trkpt>
      <trkpt lat="43.34604" lon="2.43629">
        <ele>445.71</ele>
        <time>2014-10-02T16:03:51Z</time>
      </trkpt>
      <trkpt lat="43.34604" lon="2.43629">
        <ele>448.11</ele>
        <time>2014-10-02T16:03:54Z</time>
      </trkpt>
      <trkpt lat="43.34604" lon="2.4363">
        <ele>449.55</ele>
        <time>2014-10-02T16:04:00Z</time>
      </trkpt>
      <trkpt lat="43.34603" lon="2.4363">
        <ele>447.15</ele>
        <time>2014-10-02T16:04:03Z</time>
      </trkpt>
      <trkpt lat="43.34603" lon="2.4363">
        <ele>448.11</ele>
        <time>2014-10-02T16:04:05Z</time>
      </trkpt>
      <trkpt lat="43.34603" lon="2.43632">
        <ele>447.63</ele>
        <time>2014-10-02T16:04:20Z</time>
      </trkpt>
      <trkpt lat="43.346" lon="2.43636">
        <ele>447.63</ele>
        <time>2014-10-02T16:04:23Z</time>
      </trkpt>
      <trkpt lat="43.34598" lon="2.43641">
        <ele>447.15</ele>
        <time>2014-10-02T16:04:28Z</time>
      </trkpt>
      <trkpt lat="43.34584" lon="2.43644">
        <ele>447.15</ele>
        <time>2014-10-02T16:04:42Z</time>
      </trkpt>
      <trkpt lat="43.34577" lon="2.43643">
        <ele>447.15</ele>
        <time>2014-10-02T16:04:48Z</time>
      </trkpt>
      <trkpt lat="43.34561" lon="2.43647">
        <ele>448.11</ele>
        <time>2014-10-02T16:05:00Z</time>
      </trkpt>
      <trkpt lat="43.34555" lon="2.43647">
        <ele>447.63</ele>
        <time>2014-10-02T16:05:04Z</time>
      </trkpt>
      <trkpt lat="43.34544" lon="2.43649">
        <ele>448.11</ele>
        <time>2014-10-02T16:05:12Z</time>
      </trkpt>
      <trkpt lat="43.34539" lon="2.43647">
        <ele>448.59</ele>
        <time>2014-10-02T16:05:16Z</time>
      </trkpt>
      <trkpt lat="43.34537" lon="2.43648">
        <ele>448.59</ele>
        <time>2014-10-02T16:05:18Z</time>
      </trkpt>
      <trkpt lat="43.34535" lon="2.43649">
        <ele>448.59</ele>
        <time>2014-10-02T16:05:20Z</time>
      </trkpt>
      <trkpt lat="43.34531" lon="2.43646">
        <ele>448.59</ele>
        <time>2014-10-02T16:05:24Z</time>
      </trkpt>
      <trkpt lat="43.34521" lon="2.43646">
        <ele>449.07</ele>
        <time>2014-10-02T16:05:33Z</time>
      </trkpt>
      <trkpt lat="43.34517" lon="2.43646">
        <ele>449.55</ele>
        <time>2014-10-02T16:05:37Z</time>
      </trkpt>
      <trkpt lat="43.34504" lon="2.43646">
        <ele>449.55</ele>
        <time>2014-10-02T16:05:48Z</time>
      </trkpt>
      <trkpt lat="43.34493" lon="2.4364">
        <ele>450.52</ele>
        <time>2014-10-02T16:05:58Z</time>
      </trkpt>
      <trkpt lat="43.34491" lon="2.4364">
        <ele>450.03</ele>
        <time>2014-10-02T16:06:04Z</time>
      </trkpt>
      <trkpt lat="43.34486" lon="2.43637">
        <ele>450.03</ele>
        <time>2014-10-02T16:06:08Z</time>
      </trkpt>
      <trkpt lat="43.34483" lon="2.43634">
        <ele>450.52</ele>
        <time>2014-10-02T16:06:11Z</time>
      </trkpt>
      <trkpt lat="43.34472" lon="2.43625">
        <ele>450.52</ele>
        <time>2014-10-02T16:06:22Z</time>
      </trkpt>
      <trkpt lat="43.34466" lon="2.43622">
        <ele>450.52</ele>
        <time>2014-10-02T16:06:28Z</time>
      </trkpt>
      <trkpt lat="43.34459" lon="2.43617">
        <ele>450.03</ele>
        <time>2014-10-02T16:06:37Z</time>
      </trkpt>
      <trkpt lat="43.34456" lon="2.43611">
        <ele>450.03</ele>
        <time>2014-10-02T16:06:40Z</time>
      </trkpt>
      <trkpt lat="43.34449" lon="2.43604">
        <ele>450.03</ele>
        <time>2014-10-02T16:06:45Z</time>
      </trkpt>
      <trkpt lat="43.34446" lon="2.43602">
        <ele>450.03</ele>
        <time>2014-10-02T16:06:48Z</time>
      </trkpt>
      <trkpt lat="43.34442" lon="2.43602">
        <ele>450.03</ele>
        <time>2014-10-02T16:06:51Z</time>
      </trkpt>
      <trkpt lat="43.34433" lon="2.43599">
        <ele>449.55</ele>
        <time>2014-10-02T16:07:02Z</time>
      </trkpt>
      <trkpt lat="43.34431" lon="2.43599">
        <ele>449.55</ele>
        <time>2014-10-02T16:07:25Z</time>
      </trkpt>
      <trkpt lat="43.34428" lon="2.43598">
        <ele>449.55</ele>
        <time>2014-10-02T16:07:37Z</time>
      </trkpt>
      <trkpt lat="43.3442" lon="2.43592">
        <ele>449.07</ele>
        <time>2014-10-02T16:07:46Z</time>
      </trkpt>
      <trkpt lat="43.34419" lon="2.43591">
        <ele>449.07</ele>
        <time>2014-10-02T16:07:47Z</time>
      </trkpt>
      <trkpt lat="43.34408" lon="2.43578">
        <ele>448.59</ele>
        <time>2014-10-02T16:07:59Z</time>
      </trkpt>
      <trkpt lat="43.34406" lon="2.43576">
        <ele>448.59</ele>
        <time>2014-10-02T16:08:01Z</time>
      </trkpt>
      <trkpt lat="43.34402" lon="2.4357">
        <ele>447.15</ele>
        <time>2014-10-02T16:08:08Z</time>
      </trkpt>
      <trkpt lat="43.34395" lon="2.43568">
        <ele>447.63</ele>
        <time>2014-10-02T16:08:18Z</time>
      </trkpt>
      <trkpt lat="43.34395" lon="2.43568">
        <ele>447.15</ele>
        <time>2014-10-02T16:08:28Z</time>
      </trkpt>
      <trkpt lat="43.34396" lon="2.43567">
        <ele>447.63</ele>
        <time>2014-10-02T16:08:40Z</time>
      </trkpt>
      <trkpt lat="43.34395" lon="2.43567">
        <ele>451</ele>
        <time>2014-10-02T16:08:50Z</time>
      </trkpt>
      <trkpt lat="43.34395" lon="2.43567">
        <ele>447.63</ele>
        <time>2014-10-02T16:08:51Z</time>
      </trkpt>
    </trkseg>
  </trk>
</gpx>